<?xml version="1.0" encoding="UTF-8" standalone="no" ?>
<gpx xmlns="http://www.topografix.com/GPX/1/1" xmlns:xsi="http://www.w3.org/2001/XMLSchema-instance" xsi:schemaLocation="http://www.topografix.com/GPX/1/1 http://www.topografix.com/GPX/1/1/gpx.xsd" version="1.1" creator="VisuGPX - https://www.visugpx.com">
  <metadata>
    <name>Revel-Bresson-Uriage-Revel</name>
    <desc><![CDATA[File with points/tracks from Locus Map/3.36.2]]></desc>
  </metadata>
  <trk>
    <name><![CDATA[2019-03-25 12:42:42]]></name>
    <desc><![CDATA[Bresson]]></desc>
    <trkseg>
      <trkpt lat="45.18386" lon="5.87381">
        <ele>686.38</ele>
        <time>2019-03-25T11:42:43.000Z</time>
      </trkpt>
      <trkpt lat="45.18396" lon="5.87377">
        <ele>687.36</ele>
        <time>2019-03-25T11:43:06.000Z</time>
      </trkpt>
      <trkpt lat="45.18396" lon="5.8734">
        <ele>685.91</ele>
        <time>2019-03-25T11:43:11.000Z</time>
      </trkpt>
      <trkpt lat="45.18389" lon="5.87304">
        <ele>683.4</ele>
        <time>2019-03-25T11:43:16.000Z</time>
      </trkpt>
      <trkpt lat="45.18397" lon="5.87254">
        <ele>677.58</ele>
        <time>2019-03-25T11:43:21.000Z</time>
      </trkpt>
      <trkpt lat="45.18419" lon="5.87213">
        <ele>674.29</ele>
        <time>2019-03-25T11:43:26.000Z</time>
      </trkpt>
      <trkpt lat="45.18438" lon="5.87192">
        <ele>671.09</ele>
        <time>2019-03-25T11:43:31.000Z</time>
      </trkpt>
      <trkpt lat="45.18431" lon="5.87172">
        <ele>668.08</ele>
        <time>2019-03-25T11:43:36.000Z</time>
      </trkpt>
      <trkpt lat="45.18408" lon="5.87143">
        <ele>664.92</ele>
        <time>2019-03-25T11:43:41.000Z</time>
      </trkpt>
      <trkpt lat="45.18447" lon="5.87109">
        <ele>663.6</ele>
        <time>2019-03-25T11:43:46.000Z</time>
      </trkpt>
      <trkpt lat="45.18486" lon="5.87087">
        <ele>661.09</ele>
        <time>2019-03-25T11:43:51.000Z</time>
      </trkpt>
      <trkpt lat="45.18516" lon="5.8706">
        <ele>656.62</ele>
        <time>2019-03-25T11:43:56.000Z</time>
      </trkpt>
      <trkpt lat="45.18564" lon="5.87052">
        <ele>655.12</ele>
        <time>2019-03-25T11:44:01.000Z</time>
      </trkpt>
      <trkpt lat="45.18587" lon="5.86999">
        <ele>648.26</ele>
        <time>2019-03-25T11:44:06.000Z</time>
      </trkpt>
      <trkpt lat="45.18595" lon="5.86926">
        <ele>641.42</ele>
        <time>2019-03-25T11:44:11.000Z</time>
      </trkpt>
      <trkpt lat="45.18584" lon="5.86874">
        <ele>636.31</ele>
        <time>2019-03-25T11:44:16.000Z</time>
      </trkpt>
      <trkpt lat="45.18595" lon="5.86851">
        <ele>633.91</ele>
        <time>2019-03-25T11:44:21.000Z</time>
      </trkpt>
      <trkpt lat="45.18617" lon="5.86912">
        <ele>627.92</ele>
        <time>2019-03-25T11:44:26.000Z</time>
      </trkpt>
      <trkpt lat="45.18665" lon="5.8691">
        <ele>626.25</ele>
        <time>2019-03-25T11:44:31.000Z</time>
      </trkpt>
      <trkpt lat="45.18679" lon="5.86847">
        <ele>625.25</ele>
        <time>2019-03-25T11:44:36.000Z</time>
      </trkpt>
      <trkpt lat="45.18704" lon="5.8678">
        <ele>620.34</ele>
        <time>2019-03-25T11:44:41.000Z</time>
      </trkpt>
      <trkpt lat="45.1874" lon="5.8672">
        <ele>617.18</ele>
        <time>2019-03-25T11:44:46.000Z</time>
      </trkpt>
      <trkpt lat="45.18782" lon="5.86663">
        <ele>617.58</ele>
        <time>2019-03-25T11:44:51.000Z</time>
      </trkpt>
      <trkpt lat="45.18805" lon="5.86585">
        <ele>612.57</ele>
        <time>2019-03-25T11:44:56.000Z</time>
      </trkpt>
      <trkpt lat="45.18792" lon="5.86512">
        <ele>607.84</ele>
        <time>2019-03-25T11:45:01.000Z</time>
      </trkpt>
      <trkpt lat="45.18798" lon="5.86444">
        <ele>600.58</ele>
        <time>2019-03-25T11:45:06.000Z</time>
      </trkpt>
      <trkpt lat="45.18856" lon="5.86426">
        <ele>595.05</ele>
        <time>2019-03-25T11:45:11.000Z</time>
      </trkpt>
      <trkpt lat="45.18893" lon="5.86365">
        <ele>591.89</ele>
        <time>2019-03-25T11:45:16.000Z</time>
      </trkpt>
      <trkpt lat="45.18915" lon="5.86285">
        <ele>588.74</ele>
        <time>2019-03-25T11:45:21.000Z</time>
      </trkpt>
      <trkpt lat="45.18933" lon="5.86204">
        <ele>583.02</ele>
        <time>2019-03-25T11:45:26.000Z</time>
      </trkpt>
      <trkpt lat="45.18939" lon="5.86118">
        <ele>580.69</ele>
        <time>2019-03-25T11:45:31.000Z</time>
      </trkpt>
      <trkpt lat="45.18958" lon="5.86027">
        <ele>572.12</ele>
        <time>2019-03-25T11:45:36.000Z</time>
      </trkpt>
      <trkpt lat="45.18967" lon="5.8594">
        <ele>565.22</ele>
        <time>2019-03-25T11:45:41.000Z</time>
      </trkpt>
      <trkpt lat="45.18959" lon="5.85855">
        <ele>560.56</ele>
        <time>2019-03-25T11:45:46.000Z</time>
      </trkpt>
      <trkpt lat="45.18954" lon="5.85763">
        <ele>556.73</ele>
        <time>2019-03-25T11:45:51.000Z</time>
      </trkpt>
      <trkpt lat="45.18944" lon="5.85676">
        <ele>547.18</ele>
        <time>2019-03-25T11:45:56.000Z</time>
      </trkpt>
      <trkpt lat="45.18965" lon="5.8561">
        <ele>540.89</ele>
        <time>2019-03-25T11:46:01.000Z</time>
      </trkpt>
      <trkpt lat="45.18999" lon="5.85539">
        <ele>538.02</ele>
        <time>2019-03-25T11:46:06.000Z</time>
      </trkpt>
      <trkpt lat="45.19053" lon="5.855">
        <ele>535.99</ele>
        <time>2019-03-25T11:46:11.000Z</time>
      </trkpt>
      <trkpt lat="45.19118" lon="5.85458">
        <ele>534.71</ele>
        <time>2019-03-25T11:46:16.000Z</time>
      </trkpt>
      <trkpt lat="45.19167" lon="5.85401">
        <ele>532.51</ele>
        <time>2019-03-25T11:46:21.000Z</time>
      </trkpt>
      <trkpt lat="45.19219" lon="5.85359">
        <ele>525.4</ele>
        <time>2019-03-25T11:46:26.000Z</time>
      </trkpt>
      <trkpt lat="45.19287" lon="5.85346">
        <ele>517.37</ele>
        <time>2019-03-25T11:46:31.000Z</time>
      </trkpt>
      <trkpt lat="45.19339" lon="5.85332">
        <ele>509.87</ele>
        <time>2019-03-25T11:46:36.000Z</time>
      </trkpt>
      <trkpt lat="45.19375" lon="5.85385">
        <ele>502.74</ele>
        <time>2019-03-25T11:46:41.000Z</time>
      </trkpt>
      <trkpt lat="45.19385" lon="5.85357">
        <ele>500.83</ele>
        <time>2019-03-25T11:46:46.000Z</time>
      </trkpt>
      <trkpt lat="45.19381" lon="5.85335">
        <ele>497.7</ele>
        <time>2019-03-25T11:46:51.000Z</time>
      </trkpt>
      <trkpt lat="45.19382" lon="5.85305">
        <ele>494.16</ele>
        <time>2019-03-25T11:46:56.000Z</time>
      </trkpt>
      <trkpt lat="45.19375" lon="5.85265">
        <ele>491.5</ele>
        <time>2019-03-25T11:47:01.000Z</time>
      </trkpt>
      <trkpt lat="45.19392" lon="5.85211">
        <ele>489.92</ele>
        <time>2019-03-25T11:47:06.000Z</time>
      </trkpt>
      <trkpt lat="45.1943" lon="5.8517">
        <ele>488.36</ele>
        <time>2019-03-25T11:47:11.000Z</time>
      </trkpt>
      <trkpt lat="45.19476" lon="5.85146">
        <ele>486.5</ele>
        <time>2019-03-25T11:47:16.000Z</time>
      </trkpt>
      <trkpt lat="45.19483" lon="5.85071">
        <ele>480.25</ele>
        <time>2019-03-25T11:47:21.000Z</time>
      </trkpt>
      <trkpt lat="45.1953" lon="5.85014">
        <ele>475.71</ele>
        <time>2019-03-25T11:47:26.000Z</time>
      </trkpt>
      <trkpt lat="45.19586" lon="5.84984">
        <ele>472.73</ele>
        <time>2019-03-25T11:47:31.000Z</time>
      </trkpt>
      <trkpt lat="45.19637" lon="5.84928">
        <ele>465.64</ele>
        <time>2019-03-25T11:47:36.000Z</time>
      </trkpt>
      <trkpt lat="45.1969" lon="5.84864">
        <ele>458.96</ele>
        <time>2019-03-25T11:47:41.000Z</time>
      </trkpt>
      <trkpt lat="45.19753" lon="5.84819">
        <ele>454.91</ele>
        <time>2019-03-25T11:47:46.000Z</time>
      </trkpt>
      <trkpt lat="45.19818" lon="5.84782">
        <ele>449.12</ele>
        <time>2019-03-25T11:47:51.000Z</time>
      </trkpt>
      <trkpt lat="45.19871" lon="5.84773">
        <ele>444.51</ele>
        <time>2019-03-25T11:47:56.000Z</time>
      </trkpt>
      <trkpt lat="45.19859" lon="5.84716">
        <ele>439.22</ele>
        <time>2019-03-25T11:48:01.000Z</time>
      </trkpt>
      <trkpt lat="45.19879" lon="5.84646">
        <ele>429.86</ele>
        <time>2019-03-25T11:48:06.000Z</time>
      </trkpt>
      <trkpt lat="45.19921" lon="5.84584">
        <ele>424.92</ele>
        <time>2019-03-25T11:48:11.000Z</time>
      </trkpt>
      <trkpt lat="45.19956" lon="5.84509">
        <ele>420.68</ele>
        <time>2019-03-25T11:48:16.000Z</time>
      </trkpt>
      <trkpt lat="45.20015" lon="5.84479">
        <ele>416.55</ele>
        <time>2019-03-25T11:48:21.000Z</time>
      </trkpt>
      <trkpt lat="45.20083" lon="5.84465">
        <ele>410.05</ele>
        <time>2019-03-25T11:48:26.000Z</time>
      </trkpt>
      <trkpt lat="45.20138" lon="5.84501">
        <ele>402.16</ele>
        <time>2019-03-25T11:48:31.000Z</time>
      </trkpt>
      <trkpt lat="45.20171" lon="5.84595">
        <ele>395.21</ele>
        <time>2019-03-25T11:48:36.000Z</time>
      </trkpt>
      <trkpt lat="45.20204" lon="5.84679">
        <ele>385.76</ele>
        <time>2019-03-25T11:48:41.000Z</time>
      </trkpt>
      <trkpt lat="45.20255" lon="5.84746">
        <ele>373.5</ele>
        <time>2019-03-25T11:48:46.000Z</time>
      </trkpt>
      <trkpt lat="45.20286" lon="5.84845">
        <ele>369.94</ele>
        <time>2019-03-25T11:48:51.000Z</time>
      </trkpt>
      <trkpt lat="45.20332" lon="5.8493">
        <ele>369.51</ele>
        <time>2019-03-25T11:48:56.000Z</time>
      </trkpt>
      <trkpt lat="45.20372" lon="5.85017">
        <ele>360.59</ele>
        <time>2019-03-25T11:49:01.000Z</time>
      </trkpt>
      <trkpt lat="45.20403" lon="5.85094">
        <ele>352.64</ele>
        <time>2019-03-25T11:49:06.000Z</time>
      </trkpt>
      <trkpt lat="45.20422" lon="5.85112">
        <ele>350.12</ele>
        <time>2019-03-25T11:49:11.000Z</time>
      </trkpt>
      <trkpt lat="45.20414" lon="5.85083">
        <ele>343.92</ele>
        <time>2019-03-25T11:49:16.000Z</time>
      </trkpt>
      <trkpt lat="45.20391" lon="5.85037">
        <ele>336.31</ele>
        <time>2019-03-25T11:49:21.000Z</time>
      </trkpt>
      <trkpt lat="45.20368" lon="5.84977">
        <ele>326.79</ele>
        <time>2019-03-25T11:49:26.000Z</time>
      </trkpt>
      <trkpt lat="45.20347" lon="5.84903">
        <ele>320.23</ele>
        <time>2019-03-25T11:49:31.000Z</time>
      </trkpt>
      <trkpt lat="45.2033" lon="5.84817">
        <ele>313.54</ele>
        <time>2019-03-25T11:49:36.000Z</time>
      </trkpt>
      <trkpt lat="45.20313" lon="5.84723">
        <ele>307.89</ele>
        <time>2019-03-25T11:49:41.000Z</time>
      </trkpt>
      <trkpt lat="45.20285" lon="5.84636">
        <ele>296.38</ele>
        <time>2019-03-25T11:49:46.000Z</time>
      </trkpt>
      <trkpt lat="45.20267" lon="5.84534">
        <ele>292.53</ele>
        <time>2019-03-25T11:49:51.000Z</time>
      </trkpt>
      <trkpt lat="45.20245" lon="5.84432">
        <ele>288.41</ele>
        <time>2019-03-25T11:49:56.000Z</time>
      </trkpt>
      <trkpt lat="45.20217" lon="5.8434">
        <ele>283.11</ele>
        <time>2019-03-25T11:50:01.000Z</time>
      </trkpt>
      <trkpt lat="45.20188" lon="5.84257">
        <ele>279.55</ele>
        <time>2019-03-25T11:50:06.000Z</time>
      </trkpt>
      <trkpt lat="45.20144" lon="5.84214">
        <ele>273.07</ele>
        <time>2019-03-25T11:50:11.000Z</time>
      </trkpt>
      <trkpt lat="45.20084" lon="5.84236">
        <ele>269.75</ele>
        <time>2019-03-25T11:50:16.000Z</time>
      </trkpt>
      <trkpt lat="45.20023" lon="5.84247">
        <ele>267.48</ele>
        <time>2019-03-25T11:50:21.000Z</time>
      </trkpt>
      <trkpt lat="45.20004" lon="5.8424">
        <ele>260.95</ele>
        <time>2019-03-25T11:50:26.000Z</time>
      </trkpt>
      <trkpt lat="45.20038" lon="5.84202">
        <ele>254.01</ele>
        <time>2019-03-25T11:50:31.000Z</time>
      </trkpt>
      <trkpt lat="45.20073" lon="5.84164">
        <ele>250.61</ele>
        <time>2019-03-25T11:50:36.000Z</time>
      </trkpt>
      <trkpt lat="45.20094" lon="5.84116">
        <ele>247.34</ele>
        <time>2019-03-25T11:50:41.000Z</time>
      </trkpt>
      <trkpt lat="45.20109" lon="5.84075">
        <ele>241.71</ele>
        <time>2019-03-25T11:50:46.000Z</time>
      </trkpt>
      <trkpt lat="45.20128" lon="5.8405">
        <ele>237.87</ele>
        <time>2019-03-25T11:50:51.000Z</time>
      </trkpt>
      <trkpt lat="45.20136" lon="5.8404">
        <ele>243.95</ele>
        <time>2019-03-25T11:50:57.000Z</time>
      </trkpt>
      <trkpt lat="45.20141" lon="5.84026">
        <ele>247.09</ele>
        <time>2019-03-25T11:51:02.000Z</time>
      </trkpt>
      <trkpt lat="45.20148" lon="5.84006">
        <ele>244.14</ele>
        <time>2019-03-25T11:51:07.000Z</time>
      </trkpt>
      <trkpt lat="45.20155" lon="5.83996">
        <ele>247.06</ele>
        <time>2019-03-25T11:51:18.000Z</time>
      </trkpt>
      <trkpt lat="45.20163" lon="5.83973">
        <ele>244.6</ele>
        <time>2019-03-25T11:51:23.000Z</time>
      </trkpt>
      <trkpt lat="45.20158" lon="5.83937">
        <ele>240.74</ele>
        <time>2019-03-25T11:51:28.000Z</time>
      </trkpt>
      <trkpt lat="45.20154" lon="5.83891">
        <ele>240.95</ele>
        <time>2019-03-25T11:51:33.000Z</time>
      </trkpt>
      <trkpt lat="45.20143" lon="5.83857">
        <ele>240.94</ele>
        <time>2019-03-25T11:51:38.000Z</time>
      </trkpt>
      <trkpt lat="45.20127" lon="5.83858">
        <ele>244.88</ele>
        <time>2019-03-25T11:51:43.000Z</time>
      </trkpt>
      <trkpt lat="45.20102" lon="5.83865">
        <ele>243.32</ele>
        <time>2019-03-25T11:51:48.000Z</time>
      </trkpt>
      <trkpt lat="45.20084" lon="5.83845">
        <ele>239.49</ele>
        <time>2019-03-25T11:51:53.000Z</time>
      </trkpt>
      <trkpt lat="45.20064" lon="5.83825">
        <ele>240.63</ele>
        <time>2019-03-25T11:51:58.000Z</time>
      </trkpt>
      <trkpt lat="45.20043" lon="5.83809">
        <ele>242.46</ele>
        <time>2019-03-25T11:52:03.000Z</time>
      </trkpt>
      <trkpt lat="45.20027" lon="5.83785">
        <ele>240.71</ele>
        <time>2019-03-25T11:52:08.000Z</time>
      </trkpt>
      <trkpt lat="45.20013" lon="5.83765">
        <ele>239.24</ele>
        <time>2019-03-25T11:52:13.000Z</time>
      </trkpt>
      <trkpt lat="45.19992" lon="5.83734">
        <ele>235.6</ele>
        <time>2019-03-25T11:52:18.000Z</time>
      </trkpt>
      <trkpt lat="45.19968" lon="5.8371">
        <ele>231.34</ele>
        <time>2019-03-25T11:52:23.000Z</time>
      </trkpt>
      <trkpt lat="45.19944" lon="5.83685">
        <ele>228.67</ele>
        <time>2019-03-25T11:52:28.000Z</time>
      </trkpt>
      <trkpt lat="45.19923" lon="5.83653">
        <ele>228.39</ele>
        <time>2019-03-25T11:52:33.000Z</time>
      </trkpt>
      <trkpt lat="45.19903" lon="5.83615">
        <ele>227.36</ele>
        <time>2019-03-25T11:52:38.000Z</time>
      </trkpt>
      <trkpt lat="45.19884" lon="5.83585">
        <ele>226.39</ele>
        <time>2019-03-25T11:52:43.000Z</time>
      </trkpt>
      <trkpt lat="45.19871" lon="5.83546">
        <ele>224.5</ele>
        <time>2019-03-25T11:52:48.000Z</time>
      </trkpt>
      <trkpt lat="45.1986" lon="5.8351">
        <ele>223.7</ele>
        <time>2019-03-25T11:52:53.000Z</time>
      </trkpt>
      <trkpt lat="45.19846" lon="5.83474">
        <ele>224.52</ele>
        <time>2019-03-25T11:52:58.000Z</time>
      </trkpt>
      <trkpt lat="45.19829" lon="5.83438">
        <ele>222.39</ele>
        <time>2019-03-25T11:53:03.000Z</time>
      </trkpt>
      <trkpt lat="45.19816" lon="5.83395">
        <ele>224.93</ele>
        <time>2019-03-25T11:53:08.000Z</time>
      </trkpt>
      <trkpt lat="45.198" lon="5.83353">
        <ele>224.44</ele>
        <time>2019-03-25T11:53:13.000Z</time>
      </trkpt>
      <trkpt lat="45.19782" lon="5.83309">
        <ele>221.22</ele>
        <time>2019-03-25T11:53:18.000Z</time>
      </trkpt>
      <trkpt lat="45.1977" lon="5.83266">
        <ele>215.45</ele>
        <time>2019-03-25T11:53:23.000Z</time>
      </trkpt>
      <trkpt lat="45.19757" lon="5.83226">
        <ele>213.95</ele>
        <time>2019-03-25T11:53:28.000Z</time>
      </trkpt>
      <trkpt lat="45.19745" lon="5.83189">
        <ele>213.12</ele>
        <time>2019-03-25T11:53:33.000Z</time>
      </trkpt>
      <trkpt lat="45.19728" lon="5.8315">
        <ele>211.53</ele>
        <time>2019-03-25T11:53:38.000Z</time>
      </trkpt>
      <trkpt lat="45.19714" lon="5.83108">
        <ele>211.48</ele>
        <time>2019-03-25T11:53:43.000Z</time>
      </trkpt>
      <trkpt lat="45.19699" lon="5.83069">
        <ele>210.98</ele>
        <time>2019-03-25T11:53:48.000Z</time>
      </trkpt>
      <trkpt lat="45.19684" lon="5.83027">
        <ele>212.21</ele>
        <time>2019-03-25T11:53:53.000Z</time>
      </trkpt>
      <trkpt lat="45.19671" lon="5.82983">
        <ele>208.97</ele>
        <time>2019-03-25T11:53:58.000Z</time>
      </trkpt>
      <trkpt lat="45.19671" lon="5.82941">
        <ele>208.97</ele>
        <time>2019-03-25T11:54:03.000Z</time>
      </trkpt>
      <trkpt lat="45.19664" lon="5.82919">
        <ele>210.62</ele>
        <time>2019-03-25T11:54:08.000Z</time>
      </trkpt>
      <trkpt lat="45.19651" lon="5.82904">
        <ele>210.35</ele>
        <time>2019-03-25T11:54:13.000Z</time>
      </trkpt>
      <trkpt lat="45.19641" lon="5.82879">
        <ele>210.45</ele>
        <time>2019-03-25T11:54:18.000Z</time>
      </trkpt>
      <trkpt lat="45.19628" lon="5.82854">
        <ele>211.3</ele>
        <time>2019-03-25T11:54:23.000Z</time>
      </trkpt>
      <trkpt lat="45.19621" lon="5.82825">
        <ele>210.05</ele>
        <time>2019-03-25T11:54:28.000Z</time>
      </trkpt>
      <trkpt lat="45.19613" lon="5.82794">
        <ele>207.81</ele>
        <time>2019-03-25T11:54:33.000Z</time>
      </trkpt>
      <trkpt lat="45.19602" lon="5.82765">
        <ele>207.99</ele>
        <time>2019-03-25T11:54:38.000Z</time>
      </trkpt>
      <trkpt lat="45.19588" lon="5.82737">
        <ele>208.19</ele>
        <time>2019-03-25T11:54:43.000Z</time>
      </trkpt>
      <trkpt lat="45.19575" lon="5.82705">
        <ele>211.6</ele>
        <time>2019-03-25T11:54:48.000Z</time>
      </trkpt>
      <trkpt lat="45.19564" lon="5.82669">
        <ele>215.05</ele>
        <time>2019-03-25T11:54:53.000Z</time>
      </trkpt>
      <trkpt lat="45.19553" lon="5.82636">
        <ele>214.66</ele>
        <time>2019-03-25T11:54:58.000Z</time>
      </trkpt>
      <trkpt lat="45.1954" lon="5.82598">
        <ele>212.21</ele>
        <time>2019-03-25T11:55:03.000Z</time>
      </trkpt>
      <trkpt lat="45.19528" lon="5.82568">
        <ele>212.11</ele>
        <time>2019-03-25T11:55:08.000Z</time>
      </trkpt>
      <trkpt lat="45.19516" lon="5.82533">
        <ele>209.19</ele>
        <time>2019-03-25T11:55:13.000Z</time>
      </trkpt>
      <trkpt lat="45.19508" lon="5.82505">
        <ele>202.45</ele>
        <time>2019-03-25T11:55:18.000Z</time>
      </trkpt>
      <trkpt lat="45.19501" lon="5.82474">
        <ele>203.37</ele>
        <time>2019-03-25T11:55:23.000Z</time>
      </trkpt>
      <trkpt lat="45.19488" lon="5.82445">
        <ele>207.86</ele>
        <time>2019-03-25T11:55:28.000Z</time>
      </trkpt>
      <trkpt lat="45.19474" lon="5.82415">
        <ele>209.62</ele>
        <time>2019-03-25T11:55:33.000Z</time>
      </trkpt>
      <trkpt lat="45.19462" lon="5.82381">
        <ele>212.35</ele>
        <time>2019-03-25T11:55:38.000Z</time>
      </trkpt>
      <trkpt lat="45.19449" lon="5.82347">
        <ele>212.2</ele>
        <time>2019-03-25T11:55:43.000Z</time>
      </trkpt>
      <trkpt lat="45.19437" lon="5.82314">
        <ele>211.67</ele>
        <time>2019-03-25T11:55:48.000Z</time>
      </trkpt>
      <trkpt lat="45.19423" lon="5.82278">
        <ele>212.18</ele>
        <time>2019-03-25T11:55:53.000Z</time>
      </trkpt>
      <trkpt lat="45.19412" lon="5.82244">
        <ele>212.16</ele>
        <time>2019-03-25T11:55:58.000Z</time>
      </trkpt>
      <trkpt lat="45.194" lon="5.82209">
        <ele>216.88</ele>
        <time>2019-03-25T11:56:03.000Z</time>
      </trkpt>
      <trkpt lat="45.19388" lon="5.82178">
        <ele>217.58</ele>
        <time>2019-03-25T11:56:08.000Z</time>
      </trkpt>
      <trkpt lat="45.19376" lon="5.82146">
        <ele>216.97</ele>
        <time>2019-03-25T11:56:13.000Z</time>
      </trkpt>
      <trkpt lat="45.19364" lon="5.82117">
        <ele>217.15</ele>
        <time>2019-03-25T11:56:18.000Z</time>
      </trkpt>
      <trkpt lat="45.19353" lon="5.82085">
        <ele>219.23</ele>
        <time>2019-03-25T11:56:23.000Z</time>
      </trkpt>
      <trkpt lat="45.19342" lon="5.82052">
        <ele>218.85</ele>
        <time>2019-03-25T11:56:28.000Z</time>
      </trkpt>
      <trkpt lat="45.19331" lon="5.82022">
        <ele>217.51</ele>
        <time>2019-03-25T11:56:33.000Z</time>
      </trkpt>
      <trkpt lat="45.19322" lon="5.81998">
        <ele>218.22</ele>
        <time>2019-03-25T11:56:38.000Z</time>
      </trkpt>
      <trkpt lat="45.19314" lon="5.81967">
        <ele>218.72</ele>
        <time>2019-03-25T11:56:43.000Z</time>
      </trkpt>
      <trkpt lat="45.19305" lon="5.81942">
        <ele>221.53</ele>
        <time>2019-03-25T11:56:48.000Z</time>
      </trkpt>
      <trkpt lat="45.19295" lon="5.81918">
        <ele>219.69</ele>
        <time>2019-03-25T11:56:53.000Z</time>
      </trkpt>
      <trkpt lat="45.19285" lon="5.81888">
        <ele>217.68</ele>
        <time>2019-03-25T11:56:58.000Z</time>
      </trkpt>
      <trkpt lat="45.19275" lon="5.81859">
        <ele>216.32</ele>
        <time>2019-03-25T11:57:03.000Z</time>
      </trkpt>
      <trkpt lat="45.19268" lon="5.8183">
        <ele>212.62</ele>
        <time>2019-03-25T11:57:08.000Z</time>
      </trkpt>
      <trkpt lat="45.19256" lon="5.818">
        <ele>214.38</ele>
        <time>2019-03-25T11:57:13.000Z</time>
      </trkpt>
      <trkpt lat="45.19246" lon="5.81769">
        <ele>216.78</ele>
        <time>2019-03-25T11:57:18.000Z</time>
      </trkpt>
      <trkpt lat="45.19236" lon="5.81738">
        <ele>216.08</ele>
        <time>2019-03-25T11:57:23.000Z</time>
      </trkpt>
      <trkpt lat="45.19221" lon="5.81716">
        <ele>217.14</ele>
        <time>2019-03-25T11:57:28.000Z</time>
      </trkpt>
      <trkpt lat="45.19209" lon="5.8168">
        <ele>218.63</ele>
        <time>2019-03-25T11:57:33.000Z</time>
      </trkpt>
      <trkpt lat="45.19194" lon="5.81643">
        <ele>215.73</ele>
        <time>2019-03-25T11:57:38.000Z</time>
      </trkpt>
      <trkpt lat="45.19174" lon="5.81606">
        <ele>214.03</ele>
        <time>2019-03-25T11:57:43.000Z</time>
      </trkpt>
      <trkpt lat="45.19157" lon="5.81564">
        <ele>214.85</ele>
        <time>2019-03-25T11:57:48.000Z</time>
      </trkpt>
      <trkpt lat="45.19138" lon="5.81521">
        <ele>213.3</ele>
        <time>2019-03-25T11:57:53.000Z</time>
      </trkpt>
      <trkpt lat="45.19124" lon="5.81481">
        <ele>212.93</ele>
        <time>2019-03-25T11:57:58.000Z</time>
      </trkpt>
      <trkpt lat="45.19105" lon="5.81446">
        <ele>210.67</ele>
        <time>2019-03-25T11:58:03.000Z</time>
      </trkpt>
      <trkpt lat="45.19087" lon="5.81405">
        <ele>213.58</ele>
        <time>2019-03-25T11:58:08.000Z</time>
      </trkpt>
      <trkpt lat="45.19075" lon="5.81375">
        <ele>214.24</ele>
        <time>2019-03-25T11:58:13.000Z</time>
      </trkpt>
      <trkpt lat="45.19061" lon="5.81346">
        <ele>211.05</ele>
        <time>2019-03-25T11:58:18.000Z</time>
      </trkpt>
      <trkpt lat="45.19046" lon="5.81314">
        <ele>211.73</ele>
        <time>2019-03-25T11:58:23.000Z</time>
      </trkpt>
      <trkpt lat="45.19031" lon="5.8128">
        <ele>207.6</ele>
        <time>2019-03-25T11:58:28.000Z</time>
      </trkpt>
      <trkpt lat="45.19015" lon="5.81252">
        <ele>204.4</ele>
        <time>2019-03-25T11:58:33.000Z</time>
      </trkpt>
      <trkpt lat="45.19" lon="5.81218">
        <ele>208.4</ele>
        <time>2019-03-25T11:58:38.000Z</time>
      </trkpt>
      <trkpt lat="45.18989" lon="5.81186">
        <ele>214</ele>
        <time>2019-03-25T11:58:43.000Z</time>
      </trkpt>
      <trkpt lat="45.18976" lon="5.81154">
        <ele>211.86</ele>
        <time>2019-03-25T11:58:48.000Z</time>
      </trkpt>
      <trkpt lat="45.18964" lon="5.81124">
        <ele>208.69</ele>
        <time>2019-03-25T11:58:53.000Z</time>
      </trkpt>
      <trkpt lat="45.18953" lon="5.81095">
        <ele>208.44</ele>
        <time>2019-03-25T11:58:58.000Z</time>
      </trkpt>
      <trkpt lat="45.18939" lon="5.81069">
        <ele>209.21</ele>
        <time>2019-03-25T11:59:03.000Z</time>
      </trkpt>
      <trkpt lat="45.18928" lon="5.81035">
        <ele>208.26</ele>
        <time>2019-03-25T11:59:08.000Z</time>
      </trkpt>
      <trkpt lat="45.18917" lon="5.81005">
        <ele>209.44</ele>
        <time>2019-03-25T11:59:13.000Z</time>
      </trkpt>
      <trkpt lat="45.18904" lon="5.80987">
        <ele>204.96</ele>
        <time>2019-03-25T11:59:18.000Z</time>
      </trkpt>
      <trkpt lat="45.18889" lon="5.80961">
        <ele>204.58</ele>
        <time>2019-03-25T11:59:23.000Z</time>
      </trkpt>
      <trkpt lat="45.18877" lon="5.80932">
        <ele>202.68</ele>
        <time>2019-03-25T11:59:28.000Z</time>
      </trkpt>
      <trkpt lat="45.18863" lon="5.80897">
        <ele>202.87</ele>
        <time>2019-03-25T11:59:33.000Z</time>
      </trkpt>
      <trkpt lat="45.1885" lon="5.80864">
        <ele>206.47</ele>
        <time>2019-03-25T11:59:38.000Z</time>
      </trkpt>
      <trkpt lat="45.18833" lon="5.80832">
        <ele>212.98</ele>
        <time>2019-03-25T11:59:43.000Z</time>
      </trkpt>
      <trkpt lat="45.18816" lon="5.80803">
        <ele>216.3</ele>
        <time>2019-03-25T11:59:48.000Z</time>
      </trkpt>
      <trkpt lat="45.188" lon="5.80779">
        <ele>215.17</ele>
        <time>2019-03-25T11:59:53.000Z</time>
      </trkpt>
      <trkpt lat="45.18783" lon="5.8076">
        <ele>215.3</ele>
        <time>2019-03-25T11:59:58.000Z</time>
      </trkpt>
      <trkpt lat="45.18778" lon="5.80737">
        <ele>214.03</ele>
        <time>2019-03-25T12:00:03.000Z</time>
      </trkpt>
      <trkpt lat="45.18792" lon="5.80727">
        <ele>215.81</ele>
        <time>2019-03-25T12:00:08.000Z</time>
      </trkpt>
      <trkpt lat="45.18818" lon="5.80715">
        <ele>218.22</ele>
        <time>2019-03-25T12:00:13.000Z</time>
      </trkpt>
      <trkpt lat="45.1884" lon="5.80703">
        <ele>217.45</ele>
        <time>2019-03-25T12:00:18.000Z</time>
      </trkpt>
      <trkpt lat="45.18864" lon="5.80685">
        <ele>218.7</ele>
        <time>2019-03-25T12:00:23.000Z</time>
      </trkpt>
      <trkpt lat="45.18861" lon="5.80671">
        <ele>216.3</ele>
        <time>2019-03-25T12:00:28.000Z</time>
      </trkpt>
      <trkpt lat="45.18852" lon="5.80677">
        <ele>215.89</ele>
        <time>2019-03-25T12:02:56.000Z</time>
      </trkpt>
      <trkpt lat="45.18842" lon="5.80668">
        <ele>215.58</ele>
        <time>2019-03-25T12:03:01.000Z</time>
      </trkpt>
      <trkpt lat="45.18829" lon="5.80661">
        <ele>216.02</ele>
        <time>2019-03-25T12:03:06.000Z</time>
      </trkpt>
      <trkpt lat="45.18809" lon="5.80655">
        <ele>216.14</ele>
        <time>2019-03-25T12:03:11.000Z</time>
      </trkpt>
      <trkpt lat="45.18788" lon="5.80647">
        <ele>214.96</ele>
        <time>2019-03-25T12:03:16.000Z</time>
      </trkpt>
      <trkpt lat="45.18767" lon="5.80633">
        <ele>212.89</ele>
        <time>2019-03-25T12:03:21.000Z</time>
      </trkpt>
      <trkpt lat="45.18749" lon="5.80619">
        <ele>211.96</ele>
        <time>2019-03-25T12:03:26.000Z</time>
      </trkpt>
      <trkpt lat="45.18728" lon="5.80598">
        <ele>212.52</ele>
        <time>2019-03-25T12:03:31.000Z</time>
      </trkpt>
      <trkpt lat="45.18713" lon="5.80563">
        <ele>210.3</ele>
        <time>2019-03-25T12:03:36.000Z</time>
      </trkpt>
      <trkpt lat="45.18698" lon="5.80536">
        <ele>207.33</ele>
        <time>2019-03-25T12:03:41.000Z</time>
      </trkpt>
      <trkpt lat="45.18684" lon="5.80503">
        <ele>203.08</ele>
        <time>2019-03-25T12:03:46.000Z</time>
      </trkpt>
      <trkpt lat="45.18675" lon="5.80465">
        <ele>204.24</ele>
        <time>2019-03-25T12:03:51.000Z</time>
      </trkpt>
      <trkpt lat="45.18674" lon="5.80428">
        <ele>204.01</ele>
        <time>2019-03-25T12:03:56.000Z</time>
      </trkpt>
      <trkpt lat="45.18667" lon="5.80388">
        <ele>206.36</ele>
        <time>2019-03-25T12:04:01.000Z</time>
      </trkpt>
      <trkpt lat="45.1866" lon="5.80349">
        <ele>208.06</ele>
        <time>2019-03-25T12:04:06.000Z</time>
      </trkpt>
      <trkpt lat="45.18655" lon="5.80311">
        <ele>209.08</ele>
        <time>2019-03-25T12:04:11.000Z</time>
      </trkpt>
      <trkpt lat="45.18657" lon="5.80271">
        <ele>209.67</ele>
        <time>2019-03-25T12:04:16.000Z</time>
      </trkpt>
      <trkpt lat="45.18662" lon="5.80237">
        <ele>210.87</ele>
        <time>2019-03-25T12:04:21.000Z</time>
      </trkpt>
      <trkpt lat="45.18676" lon="5.80203">
        <ele>210.54</ele>
        <time>2019-03-25T12:04:26.000Z</time>
      </trkpt>
      <trkpt lat="45.18688" lon="5.80167">
        <ele>210.7</ele>
        <time>2019-03-25T12:04:31.000Z</time>
      </trkpt>
      <trkpt lat="45.18696" lon="5.80133">
        <ele>213.43</ele>
        <time>2019-03-25T12:04:36.000Z</time>
      </trkpt>
      <trkpt lat="45.18701" lon="5.80094">
        <ele>214.1</ele>
        <time>2019-03-25T12:04:41.000Z</time>
      </trkpt>
      <trkpt lat="45.18692" lon="5.80053">
        <ele>209.52</ele>
        <time>2019-03-25T12:04:46.000Z</time>
      </trkpt>
      <trkpt lat="45.18677" lon="5.80016">
        <ele>209.8</ele>
        <time>2019-03-25T12:04:51.000Z</time>
      </trkpt>
      <trkpt lat="45.18664" lon="5.79978">
        <ele>210.02</ele>
        <time>2019-03-25T12:04:56.000Z</time>
      </trkpt>
      <trkpt lat="45.18652" lon="5.79941">
        <ele>210.02</ele>
        <time>2019-03-25T12:05:01.000Z</time>
      </trkpt>
      <trkpt lat="45.18634" lon="5.79924">
        <ele>209.45</ele>
        <time>2019-03-25T12:05:06.000Z</time>
      </trkpt>
      <trkpt lat="45.1861" lon="5.79917">
        <ele>208.83</ele>
        <time>2019-03-25T12:05:11.000Z</time>
      </trkpt>
      <trkpt lat="45.18588" lon="5.79906">
        <ele>206.56</ele>
        <time>2019-03-25T12:05:16.000Z</time>
      </trkpt>
      <trkpt lat="45.18567" lon="5.79893">
        <ele>204.44</ele>
        <time>2019-03-25T12:05:21.000Z</time>
      </trkpt>
      <trkpt lat="45.1855" lon="5.79888">
        <ele>203.52</ele>
        <time>2019-03-25T12:05:26.000Z</time>
      </trkpt>
      <trkpt lat="45.18544" lon="5.79872">
        <ele>203.32</ele>
        <time>2019-03-25T12:05:31.000Z</time>
      </trkpt>
      <trkpt lat="45.18548" lon="5.79839">
        <ele>206.97</ele>
        <time>2019-03-25T12:05:36.000Z</time>
      </trkpt>
      <trkpt lat="45.18549" lon="5.798">
        <ele>205.75</ele>
        <time>2019-03-25T12:05:41.000Z</time>
      </trkpt>
      <trkpt lat="45.1855" lon="5.79764">
        <ele>208.66</ele>
        <time>2019-03-25T12:05:46.000Z</time>
      </trkpt>
      <trkpt lat="45.18552" lon="5.79728">
        <ele>204.77</ele>
        <time>2019-03-25T12:05:51.000Z</time>
      </trkpt>
      <trkpt lat="45.18556" lon="5.79684">
        <ele>202.09</ele>
        <time>2019-03-25T12:05:56.000Z</time>
      </trkpt>
      <trkpt lat="45.18558" lon="5.79648">
        <ele>203.17</ele>
        <time>2019-03-25T12:06:01.000Z</time>
      </trkpt>
      <trkpt lat="45.18559" lon="5.79609">
        <ele>204.51</ele>
        <time>2019-03-25T12:06:06.000Z</time>
      </trkpt>
      <trkpt lat="45.18557" lon="5.79573">
        <ele>206.35</ele>
        <time>2019-03-25T12:06:11.000Z</time>
      </trkpt>
      <trkpt lat="45.1855" lon="5.79537">
        <ele>205.64</ele>
        <time>2019-03-25T12:06:16.000Z</time>
      </trkpt>
      <trkpt lat="45.18537" lon="5.79509">
        <ele>209.42</ele>
        <time>2019-03-25T12:06:21.000Z</time>
      </trkpt>
      <trkpt lat="45.1853" lon="5.79476">
        <ele>207.97</ele>
        <time>2019-03-25T12:06:26.000Z</time>
      </trkpt>
      <trkpt lat="45.18526" lon="5.79441">
        <ele>208.56</ele>
        <time>2019-03-25T12:06:31.000Z</time>
      </trkpt>
      <trkpt lat="45.18523" lon="5.79404">
        <ele>208.83</ele>
        <time>2019-03-25T12:06:36.000Z</time>
      </trkpt>
      <trkpt lat="45.1852" lon="5.79372">
        <ele>209.37</ele>
        <time>2019-03-25T12:06:41.000Z</time>
      </trkpt>
      <trkpt lat="45.18524" lon="5.79343">
        <ele>210.98</ele>
        <time>2019-03-25T12:06:46.000Z</time>
      </trkpt>
      <trkpt lat="45.1853" lon="5.79312">
        <ele>210.04</ele>
        <time>2019-03-25T12:06:51.000Z</time>
      </trkpt>
      <trkpt lat="45.18535" lon="5.7928">
        <ele>210.38</ele>
        <time>2019-03-25T12:06:56.000Z</time>
      </trkpt>
      <trkpt lat="45.18545" lon="5.79253">
        <ele>208.64</ele>
        <time>2019-03-25T12:07:01.000Z</time>
      </trkpt>
      <trkpt lat="45.18555" lon="5.79215">
        <ele>209.47</ele>
        <time>2019-03-25T12:07:06.000Z</time>
      </trkpt>
      <trkpt lat="45.18546" lon="5.79186">
        <ele>211.2</ele>
        <time>2019-03-25T12:07:11.000Z</time>
      </trkpt>
      <trkpt lat="45.18532" lon="5.79164">
        <ele>210.67</ele>
        <time>2019-03-25T12:07:16.000Z</time>
      </trkpt>
      <trkpt lat="45.18519" lon="5.79143">
        <ele>212.05</ele>
        <time>2019-03-25T12:07:21.000Z</time>
      </trkpt>
      <trkpt lat="45.18512" lon="5.79113">
        <ele>213.4</ele>
        <time>2019-03-25T12:07:26.000Z</time>
      </trkpt>
      <trkpt lat="45.18507" lon="5.79084">
        <ele>214.63</ele>
        <time>2019-03-25T12:07:31.000Z</time>
      </trkpt>
      <trkpt lat="45.18501" lon="5.79058">
        <ele>214.58</ele>
        <time>2019-03-25T12:07:36.000Z</time>
      </trkpt>
      <trkpt lat="45.18493" lon="5.7905">
        <ele>215.33</ele>
        <time>2019-03-25T12:07:42.000Z</time>
      </trkpt>
      <trkpt lat="45.18478" lon="5.79057">
        <ele>216.06</ele>
        <time>2019-03-25T12:07:47.000Z</time>
      </trkpt>
      <trkpt lat="45.18455" lon="5.7906">
        <ele>211.86</ele>
        <time>2019-03-25T12:07:52.000Z</time>
      </trkpt>
      <trkpt lat="45.1843" lon="5.79061">
        <ele>214.29</ele>
        <time>2019-03-25T12:07:57.000Z</time>
      </trkpt>
      <trkpt lat="45.18405" lon="5.79067">
        <ele>215.29</ele>
        <time>2019-03-25T12:08:02.000Z</time>
      </trkpt>
      <trkpt lat="45.18383" lon="5.79085">
        <ele>216.45</ele>
        <time>2019-03-25T12:08:07.000Z</time>
      </trkpt>
      <trkpt lat="45.18363" lon="5.791">
        <ele>215.13</ele>
        <time>2019-03-25T12:08:12.000Z</time>
      </trkpt>
      <trkpt lat="45.18352" lon="5.79091">
        <ele>217.98</ele>
        <time>2019-03-25T12:08:17.000Z</time>
      </trkpt>
      <trkpt lat="45.18342" lon="5.79066">
        <ele>222.37</ele>
        <time>2019-03-25T12:08:22.000Z</time>
      </trkpt>
      <trkpt lat="45.18329" lon="5.79033">
        <ele>219.96</ele>
        <time>2019-03-25T12:08:27.000Z</time>
      </trkpt>
      <trkpt lat="45.18312" lon="5.7901">
        <ele>222.49</ele>
        <time>2019-03-25T12:08:32.000Z</time>
      </trkpt>
      <trkpt lat="45.18298" lon="5.78973">
        <ele>220.71</ele>
        <time>2019-03-25T12:08:37.000Z</time>
      </trkpt>
      <trkpt lat="45.18297" lon="5.7893">
        <ele>219.84</ele>
        <time>2019-03-25T12:08:42.000Z</time>
      </trkpt>
      <trkpt lat="45.18295" lon="5.78904">
        <ele>220.02</ele>
        <time>2019-03-25T12:08:47.000Z</time>
      </trkpt>
      <trkpt lat="45.18291" lon="5.78871">
        <ele>217.52</ele>
        <time>2019-03-25T12:08:52.000Z</time>
      </trkpt>
      <trkpt lat="45.18283" lon="5.7884">
        <ele>218.55</ele>
        <time>2019-03-25T12:08:57.000Z</time>
      </trkpt>
      <trkpt lat="45.18264" lon="5.78822">
        <ele>218.47</ele>
        <time>2019-03-25T12:09:02.000Z</time>
      </trkpt>
      <trkpt lat="45.18258" lon="5.78788">
        <ele>214.92</ele>
        <time>2019-03-25T12:09:07.000Z</time>
      </trkpt>
      <trkpt lat="45.1825" lon="5.78752">
        <ele>209.38</ele>
        <time>2019-03-25T12:09:12.000Z</time>
      </trkpt>
      <trkpt lat="45.18248" lon="5.78713">
        <ele>211.91</ele>
        <time>2019-03-25T12:09:17.000Z</time>
      </trkpt>
      <trkpt lat="45.1824" lon="5.78684">
        <ele>209.95</ele>
        <time>2019-03-25T12:09:22.000Z</time>
      </trkpt>
      <trkpt lat="45.18229" lon="5.78645">
        <ele>210.16</ele>
        <time>2019-03-25T12:09:27.000Z</time>
      </trkpt>
      <trkpt lat="45.18217" lon="5.78619">
        <ele>212.2</ele>
        <time>2019-03-25T12:09:32.000Z</time>
      </trkpt>
      <trkpt lat="45.18211" lon="5.78597">
        <ele>211.35</ele>
        <time>2019-03-25T12:09:37.000Z</time>
      </trkpt>
      <trkpt lat="45.18208" lon="5.78578">
        <ele>213.67</ele>
        <time>2019-03-25T12:09:42.000Z</time>
      </trkpt>
      <trkpt lat="45.18209" lon="5.78593">
        <ele>214.7</ele>
        <time>2019-03-25T12:09:52.000Z</time>
      </trkpt>
      <trkpt lat="45.18214" lon="5.7861">
        <ele>216.41</ele>
        <time>2019-03-25T12:09:57.000Z</time>
      </trkpt>
      <trkpt lat="45.18203" lon="5.78616">
        <ele>217</ele>
        <time>2019-03-25T12:10:02.000Z</time>
      </trkpt>
      <trkpt lat="45.18186" lon="5.78632">
        <ele>217.42</ele>
        <time>2019-03-25T12:10:07.000Z</time>
      </trkpt>
      <trkpt lat="45.18168" lon="5.78646">
        <ele>213.35</ele>
        <time>2019-03-25T12:10:12.000Z</time>
      </trkpt>
      <trkpt lat="45.18155" lon="5.78653">
        <ele>214.46</ele>
        <time>2019-03-25T12:10:17.000Z</time>
      </trkpt>
      <trkpt lat="45.18146" lon="5.78654">
        <ele>215.35</ele>
        <time>2019-03-25T12:10:36.000Z</time>
      </trkpt>
      <trkpt lat="45.18139" lon="5.78663">
        <ele>222.36</ele>
        <time>2019-03-25T12:10:41.000Z</time>
      </trkpt>
      <trkpt lat="45.18123" lon="5.78663">
        <ele>222.07</ele>
        <time>2019-03-25T12:10:46.000Z</time>
      </trkpt>
      <trkpt lat="45.1811" lon="5.78634">
        <ele>220.34</ele>
        <time>2019-03-25T12:10:51.000Z</time>
      </trkpt>
      <trkpt lat="45.18092" lon="5.78602">
        <ele>219.66</ele>
        <time>2019-03-25T12:10:56.000Z</time>
      </trkpt>
      <trkpt lat="45.18076" lon="5.78558">
        <ele>217.94</ele>
        <time>2019-03-25T12:11:01.000Z</time>
      </trkpt>
      <trkpt lat="45.18066" lon="5.78531">
        <ele>213.36</ele>
        <time>2019-03-25T12:11:06.000Z</time>
      </trkpt>
      <trkpt lat="45.18058" lon="5.78498">
        <ele>213.15</ele>
        <time>2019-03-25T12:11:11.000Z</time>
      </trkpt>
      <trkpt lat="45.18047" lon="5.78473">
        <ele>209.38</ele>
        <time>2019-03-25T12:11:16.000Z</time>
      </trkpt>
      <trkpt lat="45.18037" lon="5.7844">
        <ele>204.29</ele>
        <time>2019-03-25T12:11:21.000Z</time>
      </trkpt>
      <trkpt lat="45.18027" lon="5.78408">
        <ele>203.7</ele>
        <time>2019-03-25T12:11:26.000Z</time>
      </trkpt>
      <trkpt lat="45.18014" lon="5.7838">
        <ele>203.63</ele>
        <time>2019-03-25T12:11:31.000Z</time>
      </trkpt>
      <trkpt lat="45.18003" lon="5.78353">
        <ele>202.63</ele>
        <time>2019-03-25T12:11:36.000Z</time>
      </trkpt>
      <trkpt lat="45.1799" lon="5.78325">
        <ele>202.4</ele>
        <time>2019-03-25T12:11:41.000Z</time>
      </trkpt>
      <trkpt lat="45.17978" lon="5.78291">
        <ele>199.55</ele>
        <time>2019-03-25T12:11:46.000Z</time>
      </trkpt>
      <trkpt lat="45.17966" lon="5.78266">
        <ele>200.31</ele>
        <time>2019-03-25T12:11:51.000Z</time>
      </trkpt>
      <trkpt lat="45.17953" lon="5.7823">
        <ele>204.77</ele>
        <time>2019-03-25T12:11:56.000Z</time>
      </trkpt>
      <trkpt lat="45.17942" lon="5.78197">
        <ele>204</ele>
        <time>2019-03-25T12:12:01.000Z</time>
      </trkpt>
      <trkpt lat="45.17931" lon="5.78164">
        <ele>203.79</ele>
        <time>2019-03-25T12:12:06.000Z</time>
      </trkpt>
      <trkpt lat="45.17917" lon="5.78135">
        <ele>205.23</ele>
        <time>2019-03-25T12:12:11.000Z</time>
      </trkpt>
      <trkpt lat="45.17908" lon="5.78105">
        <ele>201.13</ele>
        <time>2019-03-25T12:12:16.000Z</time>
      </trkpt>
      <trkpt lat="45.17899" lon="5.78084">
        <ele>201.45</ele>
        <time>2019-03-25T12:12:21.000Z</time>
      </trkpt>
      <trkpt lat="45.17892" lon="5.78071">
        <ele>200.97</ele>
        <time>2019-03-25T12:12:26.000Z</time>
      </trkpt>
      <trkpt lat="45.17885" lon="5.78052">
        <ele>200.54</ele>
        <time>2019-03-25T12:12:31.000Z</time>
      </trkpt>
      <trkpt lat="45.17875" lon="5.78029">
        <ele>201.68</ele>
        <time>2019-03-25T12:12:36.000Z</time>
      </trkpt>
      <trkpt lat="45.17866" lon="5.77996">
        <ele>202.22</ele>
        <time>2019-03-25T12:12:41.000Z</time>
      </trkpt>
      <trkpt lat="45.17854" lon="5.77968">
        <ele>203.18</ele>
        <time>2019-03-25T12:12:46.000Z</time>
      </trkpt>
      <trkpt lat="45.17843" lon="5.77943">
        <ele>201.65</ele>
        <time>2019-03-25T12:12:51.000Z</time>
      </trkpt>
      <trkpt lat="45.17831" lon="5.77919">
        <ele>201.5</ele>
        <time>2019-03-25T12:12:56.000Z</time>
      </trkpt>
      <trkpt lat="45.17821" lon="5.77888">
        <ele>203.13</ele>
        <time>2019-03-25T12:13:01.000Z</time>
      </trkpt>
      <trkpt lat="45.17812" lon="5.77862">
        <ele>201.74</ele>
        <time>2019-03-25T12:13:06.000Z</time>
      </trkpt>
      <trkpt lat="45.178" lon="5.77829">
        <ele>205.69</ele>
        <time>2019-03-25T12:13:11.000Z</time>
      </trkpt>
      <trkpt lat="45.1779" lon="5.77811">
        <ele>208.56</ele>
        <time>2019-03-25T12:13:16.000Z</time>
      </trkpt>
      <trkpt lat="45.17782" lon="5.77796">
        <ele>209.45</ele>
        <time>2019-03-25T12:13:21.000Z</time>
      </trkpt>
      <trkpt lat="45.17776" lon="5.77781">
        <ele>208.34</ele>
        <time>2019-03-25T12:13:26.000Z</time>
      </trkpt>
      <trkpt lat="45.1777" lon="5.77755">
        <ele>208.98</ele>
        <time>2019-03-25T12:13:31.000Z</time>
      </trkpt>
      <trkpt lat="45.17764" lon="5.77725">
        <ele>206.2</ele>
        <time>2019-03-25T12:13:36.000Z</time>
      </trkpt>
      <trkpt lat="45.17754" lon="5.77702">
        <ele>208.79</ele>
        <time>2019-03-25T12:13:41.000Z</time>
      </trkpt>
      <trkpt lat="45.17743" lon="5.77675">
        <ele>210.46</ele>
        <time>2019-03-25T12:13:46.000Z</time>
      </trkpt>
      <trkpt lat="45.17723" lon="5.77651">
        <ele>209.32</ele>
        <time>2019-03-25T12:13:51.000Z</time>
      </trkpt>
      <trkpt lat="45.17708" lon="5.77616">
        <ele>212.34</ele>
        <time>2019-03-25T12:13:56.000Z</time>
      </trkpt>
      <trkpt lat="45.17691" lon="5.7759">
        <ele>207.9</ele>
        <time>2019-03-25T12:14:01.000Z</time>
      </trkpt>
      <trkpt lat="45.17676" lon="5.7756">
        <ele>206.65</ele>
        <time>2019-03-25T12:14:06.000Z</time>
      </trkpt>
      <trkpt lat="45.1766" lon="5.77527">
        <ele>207.96</ele>
        <time>2019-03-25T12:14:11.000Z</time>
      </trkpt>
      <trkpt lat="45.17657" lon="5.7749">
        <ele>205.38</ele>
        <time>2019-03-25T12:14:16.000Z</time>
      </trkpt>
      <trkpt lat="45.17648" lon="5.77449">
        <ele>209.63</ele>
        <time>2019-03-25T12:14:21.000Z</time>
      </trkpt>
      <trkpt lat="45.17636" lon="5.77409">
        <ele>209.59</ele>
        <time>2019-03-25T12:14:26.000Z</time>
      </trkpt>
      <trkpt lat="45.17626" lon="5.77375">
        <ele>208.29</ele>
        <time>2019-03-25T12:14:31.000Z</time>
      </trkpt>
      <trkpt lat="45.17612" lon="5.77347">
        <ele>208.62</ele>
        <time>2019-03-25T12:14:36.000Z</time>
      </trkpt>
      <trkpt lat="45.17597" lon="5.77321">
        <ele>207.13</ele>
        <time>2019-03-25T12:14:41.000Z</time>
      </trkpt>
      <trkpt lat="45.1758" lon="5.77296">
        <ele>206.99</ele>
        <time>2019-03-25T12:14:46.000Z</time>
      </trkpt>
      <trkpt lat="45.17565" lon="5.77277">
        <ele>208.75</ele>
        <time>2019-03-25T12:14:51.000Z</time>
      </trkpt>
      <trkpt lat="45.17546" lon="5.77258">
        <ele>208.96</ele>
        <time>2019-03-25T12:14:56.000Z</time>
      </trkpt>
      <trkpt lat="45.17526" lon="5.77233">
        <ele>210.26</ele>
        <time>2019-03-25T12:15:01.000Z</time>
      </trkpt>
      <trkpt lat="45.17508" lon="5.77207">
        <ele>208.03</ele>
        <time>2019-03-25T12:15:06.000Z</time>
      </trkpt>
      <trkpt lat="45.17492" lon="5.77172">
        <ele>206.75</ele>
        <time>2019-03-25T12:15:11.000Z</time>
      </trkpt>
      <trkpt lat="45.17474" lon="5.77141">
        <ele>212.66</ele>
        <time>2019-03-25T12:15:16.000Z</time>
      </trkpt>
      <trkpt lat="45.17447" lon="5.77128">
        <ele>208.07</ele>
        <time>2019-03-25T12:15:21.000Z</time>
      </trkpt>
      <trkpt lat="45.17426" lon="5.77096">
        <ele>207.28</ele>
        <time>2019-03-25T12:15:26.000Z</time>
      </trkpt>
      <trkpt lat="45.17404" lon="5.77067">
        <ele>204.89</ele>
        <time>2019-03-25T12:15:31.000Z</time>
      </trkpt>
      <trkpt lat="45.1738" lon="5.77031">
        <ele>210.51</ele>
        <time>2019-03-25T12:15:36.000Z</time>
      </trkpt>
      <trkpt lat="45.17358" lon="5.77">
        <ele>214.31</ele>
        <time>2019-03-25T12:15:41.000Z</time>
      </trkpt>
      <trkpt lat="45.17332" lon="5.76968">
        <ele>212.2</ele>
        <time>2019-03-25T12:15:46.000Z</time>
      </trkpt>
      <trkpt lat="45.17315" lon="5.7694">
        <ele>210.8</ele>
        <time>2019-03-25T12:15:51.000Z</time>
      </trkpt>
      <trkpt lat="45.17294" lon="5.76923">
        <ele>209.87</ele>
        <time>2019-03-25T12:15:56.000Z</time>
      </trkpt>
      <trkpt lat="45.17268" lon="5.7689">
        <ele>211.5</ele>
        <time>2019-03-25T12:16:01.000Z</time>
      </trkpt>
      <trkpt lat="45.17239" lon="5.76883">
        <ele>211.05</ele>
        <time>2019-03-25T12:16:06.000Z</time>
      </trkpt>
      <trkpt lat="45.17205" lon="5.76876">
        <ele>208.45</ele>
        <time>2019-03-25T12:16:11.000Z</time>
      </trkpt>
      <trkpt lat="45.17174" lon="5.76873">
        <ele>209.31</ele>
        <time>2019-03-25T12:16:16.000Z</time>
      </trkpt>
      <trkpt lat="45.17146" lon="5.76868">
        <ele>209.18</ele>
        <time>2019-03-25T12:16:21.000Z</time>
      </trkpt>
      <trkpt lat="45.17118" lon="5.76862">
        <ele>211.02</ele>
        <time>2019-03-25T12:16:26.000Z</time>
      </trkpt>
      <trkpt lat="45.17086" lon="5.7686">
        <ele>209.2</ele>
        <time>2019-03-25T12:16:31.000Z</time>
      </trkpt>
      <trkpt lat="45.17056" lon="5.76857">
        <ele>211.86</ele>
        <time>2019-03-25T12:16:36.000Z</time>
      </trkpt>
      <trkpt lat="45.17029" lon="5.76859">
        <ele>210.75</ele>
        <time>2019-03-25T12:16:41.000Z</time>
      </trkpt>
      <trkpt lat="45.16999" lon="5.76858">
        <ele>208.84</ele>
        <time>2019-03-25T12:16:46.000Z</time>
      </trkpt>
      <trkpt lat="45.16976" lon="5.7686">
        <ele>210.32</ele>
        <time>2019-03-25T12:16:51.000Z</time>
      </trkpt>
      <trkpt lat="45.1694" lon="5.76856">
        <ele>206.88</ele>
        <time>2019-03-25T12:16:56.000Z</time>
      </trkpt>
      <trkpt lat="45.16916" lon="5.76853">
        <ele>207.18</ele>
        <time>2019-03-25T12:17:01.000Z</time>
      </trkpt>
      <trkpt lat="45.1689" lon="5.76845">
        <ele>209</ele>
        <time>2019-03-25T12:17:06.000Z</time>
      </trkpt>
      <trkpt lat="45.16867" lon="5.76839">
        <ele>210.46</ele>
        <time>2019-03-25T12:17:11.000Z</time>
      </trkpt>
      <trkpt lat="45.16846" lon="5.76824">
        <ele>207.91</ele>
        <time>2019-03-25T12:17:16.000Z</time>
      </trkpt>
      <trkpt lat="45.16827" lon="5.76809">
        <ele>210.09</ele>
        <time>2019-03-25T12:17:21.000Z</time>
      </trkpt>
      <trkpt lat="45.16808" lon="5.76801">
        <ele>207.69</ele>
        <time>2019-03-25T12:17:26.000Z</time>
      </trkpt>
      <trkpt lat="45.16792" lon="5.76794">
        <ele>208.73</ele>
        <time>2019-03-25T12:17:31.000Z</time>
      </trkpt>
      <trkpt lat="45.16781" lon="5.76799">
        <ele>210.7</ele>
        <time>2019-03-25T12:17:36.000Z</time>
      </trkpt>
      <trkpt lat="45.16764" lon="5.76793">
        <ele>211.03</ele>
        <time>2019-03-25T12:17:41.000Z</time>
      </trkpt>
      <trkpt lat="45.16744" lon="5.76772">
        <ele>214.4</ele>
        <time>2019-03-25T12:17:46.000Z</time>
      </trkpt>
      <trkpt lat="45.16716" lon="5.76748">
        <ele>214.57</ele>
        <time>2019-03-25T12:17:51.000Z</time>
      </trkpt>
      <trkpt lat="45.16695" lon="5.76734">
        <ele>218.08</ele>
        <time>2019-03-25T12:17:56.000Z</time>
      </trkpt>
      <trkpt lat="45.16674" lon="5.76712">
        <ele>219.58</ele>
        <time>2019-03-25T12:18:01.000Z</time>
      </trkpt>
      <trkpt lat="45.16655" lon="5.76692">
        <ele>219.17</ele>
        <time>2019-03-25T12:18:06.000Z</time>
      </trkpt>
      <trkpt lat="45.16632" lon="5.76679">
        <ele>222.02</ele>
        <time>2019-03-25T12:18:11.000Z</time>
      </trkpt>
      <trkpt lat="45.16624" lon="5.7667">
        <ele>220.73</ele>
        <time>2019-03-25T12:18:16.000Z</time>
      </trkpt>
      <trkpt lat="45.16604" lon="5.7665">
        <ele>219.05</ele>
        <time>2019-03-25T12:18:21.000Z</time>
      </trkpt>
      <trkpt lat="45.16581" lon="5.76626">
        <ele>216.84</ele>
        <time>2019-03-25T12:18:26.000Z</time>
      </trkpt>
      <trkpt lat="45.16564" lon="5.76608">
        <ele>215.81</ele>
        <time>2019-03-25T12:18:31.000Z</time>
      </trkpt>
      <trkpt lat="45.16558" lon="5.76591">
        <ele>214.51</ele>
        <time>2019-03-25T12:18:36.000Z</time>
      </trkpt>
      <trkpt lat="45.16549" lon="5.7657">
        <ele>214.55</ele>
        <time>2019-03-25T12:18:41.000Z</time>
      </trkpt>
      <trkpt lat="45.1653" lon="5.76554">
        <ele>214.28</ele>
        <time>2019-03-25T12:18:46.000Z</time>
      </trkpt>
      <trkpt lat="45.1651" lon="5.76536">
        <ele>215.98</ele>
        <time>2019-03-25T12:18:51.000Z</time>
      </trkpt>
      <trkpt lat="45.16492" lon="5.76516">
        <ele>214.56</ele>
        <time>2019-03-25T12:18:56.000Z</time>
      </trkpt>
      <trkpt lat="45.16477" lon="5.76493">
        <ele>213.91</ele>
        <time>2019-03-25T12:19:01.000Z</time>
      </trkpt>
      <trkpt lat="45.16454" lon="5.76471">
        <ele>211.71</ele>
        <time>2019-03-25T12:19:06.000Z</time>
      </trkpt>
      <trkpt lat="45.16435" lon="5.76457">
        <ele>212.57</ele>
        <time>2019-03-25T12:19:11.000Z</time>
      </trkpt>
      <trkpt lat="45.1641" lon="5.7644">
        <ele>210.96</ele>
        <time>2019-03-25T12:19:16.000Z</time>
      </trkpt>
      <trkpt lat="45.16387" lon="5.76422">
        <ele>214.76</ele>
        <time>2019-03-25T12:19:21.000Z</time>
      </trkpt>
      <trkpt lat="45.16364" lon="5.76395">
        <ele>214.15</ele>
        <time>2019-03-25T12:19:26.000Z</time>
      </trkpt>
      <trkpt lat="45.16338" lon="5.76372">
        <ele>211.79</ele>
        <time>2019-03-25T12:19:31.000Z</time>
      </trkpt>
      <trkpt lat="45.16316" lon="5.76349">
        <ele>209.68</ele>
        <time>2019-03-25T12:19:36.000Z</time>
      </trkpt>
      <trkpt lat="45.16296" lon="5.76328">
        <ele>207.06</ele>
        <time>2019-03-25T12:19:41.000Z</time>
      </trkpt>
      <trkpt lat="45.16271" lon="5.76311">
        <ele>206.87</ele>
        <time>2019-03-25T12:19:46.000Z</time>
      </trkpt>
      <trkpt lat="45.16248" lon="5.7629">
        <ele>208.96</ele>
        <time>2019-03-25T12:19:51.000Z</time>
      </trkpt>
      <trkpt lat="45.16229" lon="5.76266">
        <ele>209.36</ele>
        <time>2019-03-25T12:19:56.000Z</time>
      </trkpt>
      <trkpt lat="45.16226" lon="5.76251">
        <ele>211.13</ele>
        <time>2019-03-25T12:20:01.000Z</time>
      </trkpt>
      <trkpt lat="45.16219" lon="5.76244">
        <ele>215.5</ele>
        <time>2019-03-25T12:20:25.000Z</time>
      </trkpt>
      <trkpt lat="45.16209" lon="5.76235">
        <ele>213.69</ele>
        <time>2019-03-25T12:20:30.000Z</time>
      </trkpt>
      <trkpt lat="45.1619" lon="5.7623">
        <ele>216.13</ele>
        <time>2019-03-25T12:20:35.000Z</time>
      </trkpt>
      <trkpt lat="45.16174" lon="5.7621">
        <ele>214.97</ele>
        <time>2019-03-25T12:20:40.000Z</time>
      </trkpt>
      <trkpt lat="45.16149" lon="5.76197">
        <ele>217.46</ele>
        <time>2019-03-25T12:20:45.000Z</time>
      </trkpt>
      <trkpt lat="45.16128" lon="5.76203">
        <ele>218.94</ele>
        <time>2019-03-25T12:20:50.000Z</time>
      </trkpt>
      <trkpt lat="45.1611" lon="5.7618">
        <ele>217.89</ele>
        <time>2019-03-25T12:20:55.000Z</time>
      </trkpt>
      <trkpt lat="45.16093" lon="5.76152">
        <ele>216.04</ele>
        <time>2019-03-25T12:21:00.000Z</time>
      </trkpt>
      <trkpt lat="45.16075" lon="5.7613">
        <ele>210.97</ele>
        <time>2019-03-25T12:21:05.000Z</time>
      </trkpt>
      <trkpt lat="45.16058" lon="5.7611">
        <ele>208</ele>
        <time>2019-03-25T12:21:10.000Z</time>
      </trkpt>
      <trkpt lat="45.16044" lon="5.76107">
        <ele>210.9</ele>
        <time>2019-03-25T12:21:15.000Z</time>
      </trkpt>
      <trkpt lat="45.16028" lon="5.76094">
        <ele>208.3</ele>
        <time>2019-03-25T12:21:20.000Z</time>
      </trkpt>
      <trkpt lat="45.16011" lon="5.76078">
        <ele>207.89</ele>
        <time>2019-03-25T12:21:25.000Z</time>
      </trkpt>
      <trkpt lat="45.15992" lon="5.76066">
        <ele>207.39</ele>
        <time>2019-03-25T12:21:30.000Z</time>
      </trkpt>
      <trkpt lat="45.15973" lon="5.76038">
        <ele>206.02</ele>
        <time>2019-03-25T12:21:35.000Z</time>
      </trkpt>
      <trkpt lat="45.15962" lon="5.76015">
        <ele>206.61</ele>
        <time>2019-03-25T12:21:40.000Z</time>
      </trkpt>
      <trkpt lat="45.15946" lon="5.76002">
        <ele>209.74</ele>
        <time>2019-03-25T12:21:45.000Z</time>
      </trkpt>
      <trkpt lat="45.15931" lon="5.75986">
        <ele>209.83</ele>
        <time>2019-03-25T12:21:50.000Z</time>
      </trkpt>
      <trkpt lat="45.15914" lon="5.75964">
        <ele>211.71</ele>
        <time>2019-03-25T12:21:55.000Z</time>
      </trkpt>
      <trkpt lat="45.15901" lon="5.75947">
        <ele>210.88</ele>
        <time>2019-03-25T12:22:00.000Z</time>
      </trkpt>
      <trkpt lat="45.15885" lon="5.75929">
        <ele>209.4</ele>
        <time>2019-03-25T12:22:05.000Z</time>
      </trkpt>
      <trkpt lat="45.15873" lon="5.75912">
        <ele>210.08</ele>
        <time>2019-03-25T12:22:10.000Z</time>
      </trkpt>
      <trkpt lat="45.15868" lon="5.75897">
        <ele>209.84</ele>
        <time>2019-03-25T12:22:15.000Z</time>
      </trkpt>
      <trkpt lat="45.15855" lon="5.75894">
        <ele>211.88</ele>
        <time>2019-03-25T12:22:20.000Z</time>
      </trkpt>
      <trkpt lat="45.15846" lon="5.75877">
        <ele>213.03</ele>
        <time>2019-03-25T12:22:25.000Z</time>
      </trkpt>
      <trkpt lat="45.15832" lon="5.75847">
        <ele>212.04</ele>
        <time>2019-03-25T12:22:30.000Z</time>
      </trkpt>
      <trkpt lat="45.15819" lon="5.75819">
        <ele>212.66</ele>
        <time>2019-03-25T12:22:35.000Z</time>
      </trkpt>
      <trkpt lat="45.15809" lon="5.75796">
        <ele>211.53</ele>
        <time>2019-03-25T12:22:40.000Z</time>
      </trkpt>
      <trkpt lat="45.15795" lon="5.75778">
        <ele>210.58</ele>
        <time>2019-03-25T12:22:45.000Z</time>
      </trkpt>
      <trkpt lat="45.15782" lon="5.75753">
        <ele>211.78</ele>
        <time>2019-03-25T12:22:50.000Z</time>
      </trkpt>
      <trkpt lat="45.15767" lon="5.75733">
        <ele>210.5</ele>
        <time>2019-03-25T12:22:55.000Z</time>
      </trkpt>
      <trkpt lat="45.15754" lon="5.75705">
        <ele>211.24</ele>
        <time>2019-03-25T12:23:00.000Z</time>
      </trkpt>
      <trkpt lat="45.15737" lon="5.75676">
        <ele>210.9</ele>
        <time>2019-03-25T12:23:05.000Z</time>
      </trkpt>
      <trkpt lat="45.1572" lon="5.75648">
        <ele>212.88</ele>
        <time>2019-03-25T12:23:10.000Z</time>
      </trkpt>
      <trkpt lat="45.15707" lon="5.75622">
        <ele>212.72</ele>
        <time>2019-03-25T12:23:15.000Z</time>
      </trkpt>
      <trkpt lat="45.15688" lon="5.75603">
        <ele>212.41</ele>
        <time>2019-03-25T12:23:20.000Z</time>
      </trkpt>
      <trkpt lat="45.1568" lon="5.75571">
        <ele>213.47</ele>
        <time>2019-03-25T12:23:25.000Z</time>
      </trkpt>
      <trkpt lat="45.15666" lon="5.75549">
        <ele>214.91</ele>
        <time>2019-03-25T12:23:30.000Z</time>
      </trkpt>
      <trkpt lat="45.15652" lon="5.75527">
        <ele>215.25</ele>
        <time>2019-03-25T12:23:35.000Z</time>
      </trkpt>
      <trkpt lat="45.15635" lon="5.75508">
        <ele>216.97</ele>
        <time>2019-03-25T12:23:40.000Z</time>
      </trkpt>
      <trkpt lat="45.15624" lon="5.75471">
        <ele>218.29</ele>
        <time>2019-03-25T12:23:45.000Z</time>
      </trkpt>
      <trkpt lat="45.15609" lon="5.75444">
        <ele>216.82</ele>
        <time>2019-03-25T12:23:50.000Z</time>
      </trkpt>
      <trkpt lat="45.15592" lon="5.75419">
        <ele>217.47</ele>
        <time>2019-03-25T12:23:55.000Z</time>
      </trkpt>
      <trkpt lat="45.15573" lon="5.75392">
        <ele>218.57</ele>
        <time>2019-03-25T12:24:00.000Z</time>
      </trkpt>
      <trkpt lat="45.15554" lon="5.75372">
        <ele>220.65</ele>
        <time>2019-03-25T12:24:05.000Z</time>
      </trkpt>
      <trkpt lat="45.15538" lon="5.75348">
        <ele>217.68</ele>
        <time>2019-03-25T12:24:10.000Z</time>
      </trkpt>
      <trkpt lat="45.15519" lon="5.75324">
        <ele>218.28</ele>
        <time>2019-03-25T12:24:15.000Z</time>
      </trkpt>
      <trkpt lat="45.15503" lon="5.75301">
        <ele>217.2</ele>
        <time>2019-03-25T12:24:20.000Z</time>
      </trkpt>
      <trkpt lat="45.15487" lon="5.75276">
        <ele>218.35</ele>
        <time>2019-03-25T12:24:25.000Z</time>
      </trkpt>
      <trkpt lat="45.15472" lon="5.75258">
        <ele>217.22</ele>
        <time>2019-03-25T12:24:30.000Z</time>
      </trkpt>
      <trkpt lat="45.15457" lon="5.75235">
        <ele>217.64</ele>
        <time>2019-03-25T12:24:35.000Z</time>
      </trkpt>
      <trkpt lat="45.15439" lon="5.75214">
        <ele>217</ele>
        <time>2019-03-25T12:24:40.000Z</time>
      </trkpt>
      <trkpt lat="45.15424" lon="5.75192">
        <ele>217.16</ele>
        <time>2019-03-25T12:24:45.000Z</time>
      </trkpt>
      <trkpt lat="45.15405" lon="5.75153">
        <ele>216.23</ele>
        <time>2019-03-25T12:24:50.000Z</time>
      </trkpt>
      <trkpt lat="45.15392" lon="5.75121">
        <ele>215.88</ele>
        <time>2019-03-25T12:24:55.000Z</time>
      </trkpt>
      <trkpt lat="45.15385" lon="5.75082">
        <ele>219.38</ele>
        <time>2019-03-25T12:25:00.000Z</time>
      </trkpt>
      <trkpt lat="45.15378" lon="5.75053">
        <ele>223.46</ele>
        <time>2019-03-25T12:25:05.000Z</time>
      </trkpt>
      <trkpt lat="45.15369" lon="5.75028">
        <ele>222.31</ele>
        <time>2019-03-25T12:25:10.000Z</time>
      </trkpt>
      <trkpt lat="45.15357" lon="5.74994">
        <ele>222.01</ele>
        <time>2019-03-25T12:25:15.000Z</time>
      </trkpt>
      <trkpt lat="45.15343" lon="5.74977">
        <ele>222.18</ele>
        <time>2019-03-25T12:25:20.000Z</time>
      </trkpt>
      <trkpt lat="45.15327" lon="5.74949">
        <ele>220.98</ele>
        <time>2019-03-25T12:25:25.000Z</time>
      </trkpt>
      <trkpt lat="45.15311" lon="5.74927">
        <ele>218.25</ele>
        <time>2019-03-25T12:25:30.000Z</time>
      </trkpt>
      <trkpt lat="45.15297" lon="5.74902">
        <ele>216.09</ele>
        <time>2019-03-25T12:25:35.000Z</time>
      </trkpt>
      <trkpt lat="45.15283" lon="5.74891">
        <ele>218.78</ele>
        <time>2019-03-25T12:25:40.000Z</time>
      </trkpt>
      <trkpt lat="45.15279" lon="5.74879">
        <ele>223.14</ele>
        <time>2019-03-25T12:26:47.000Z</time>
      </trkpt>
      <trkpt lat="45.15262" lon="5.74867">
        <ele>226.65</ele>
        <time>2019-03-25T12:26:52.000Z</time>
      </trkpt>
      <trkpt lat="45.1525" lon="5.74841">
        <ele>225.79</ele>
        <time>2019-03-25T12:26:57.000Z</time>
      </trkpt>
      <trkpt lat="45.15236" lon="5.74814">
        <ele>227.19</ele>
        <time>2019-03-25T12:27:02.000Z</time>
      </trkpt>
      <trkpt lat="45.15221" lon="5.74787">
        <ele>225.96</ele>
        <time>2019-03-25T12:27:07.000Z</time>
      </trkpt>
      <trkpt lat="45.1521" lon="5.74758">
        <ele>223.63</ele>
        <time>2019-03-25T12:27:12.000Z</time>
      </trkpt>
      <trkpt lat="45.15194" lon="5.74735">
        <ele>223.42</ele>
        <time>2019-03-25T12:27:17.000Z</time>
      </trkpt>
      <trkpt lat="45.15181" lon="5.74703">
        <ele>223.46</ele>
        <time>2019-03-25T12:27:22.000Z</time>
      </trkpt>
      <trkpt lat="45.15164" lon="5.7467">
        <ele>225.11</ele>
        <time>2019-03-25T12:27:27.000Z</time>
      </trkpt>
      <trkpt lat="45.15146" lon="5.74649">
        <ele>227</ele>
        <time>2019-03-25T12:27:32.000Z</time>
      </trkpt>
      <trkpt lat="45.1513" lon="5.74622">
        <ele>225.51</ele>
        <time>2019-03-25T12:27:37.000Z</time>
      </trkpt>
      <trkpt lat="45.15109" lon="5.74599">
        <ele>222.27</ele>
        <time>2019-03-25T12:27:42.000Z</time>
      </trkpt>
      <trkpt lat="45.15097" lon="5.74564">
        <ele>223.75</ele>
        <time>2019-03-25T12:27:47.000Z</time>
      </trkpt>
      <trkpt lat="45.15079" lon="5.74533">
        <ele>222.69</ele>
        <time>2019-03-25T12:27:52.000Z</time>
      </trkpt>
      <trkpt lat="45.15061" lon="5.74493">
        <ele>220.46</ele>
        <time>2019-03-25T12:27:57.000Z</time>
      </trkpt>
      <trkpt lat="45.15042" lon="5.74456">
        <ele>219.45</ele>
        <time>2019-03-25T12:28:02.000Z</time>
      </trkpt>
      <trkpt lat="45.15026" lon="5.74409">
        <ele>222.21</ele>
        <time>2019-03-25T12:28:07.000Z</time>
      </trkpt>
      <trkpt lat="45.15009" lon="5.7437">
        <ele>221.62</ele>
        <time>2019-03-25T12:28:12.000Z</time>
      </trkpt>
      <trkpt lat="45.14996" lon="5.74328">
        <ele>220.07</ele>
        <time>2019-03-25T12:28:17.000Z</time>
      </trkpt>
      <trkpt lat="45.14993" lon="5.74312">
        <ele>216.34</ele>
        <time>2019-03-25T12:28:22.000Z</time>
      </trkpt>
      <trkpt lat="45.14982" lon="5.74315">
        <ele>218.4</ele>
        <time>2019-03-25T12:28:44.000Z</time>
      </trkpt>
      <trkpt lat="45.14969" lon="5.7432">
        <ele>215.47</ele>
        <time>2019-03-25T12:28:49.000Z</time>
      </trkpt>
      <trkpt lat="45.1495" lon="5.74323">
        <ele>211.66</ele>
        <time>2019-03-25T12:28:54.000Z</time>
      </trkpt>
      <trkpt lat="45.14935" lon="5.7434">
        <ele>212.01</ele>
        <time>2019-03-25T12:28:59.000Z</time>
      </trkpt>
      <trkpt lat="45.14921" lon="5.7436">
        <ele>213.15</ele>
        <time>2019-03-25T12:29:04.000Z</time>
      </trkpt>
      <trkpt lat="45.14912" lon="5.74382">
        <ele>211.58</ele>
        <time>2019-03-25T12:29:09.000Z</time>
      </trkpt>
      <trkpt lat="45.14904" lon="5.74411">
        <ele>213.03</ele>
        <time>2019-03-25T12:29:14.000Z</time>
      </trkpt>
      <trkpt lat="45.14895" lon="5.74448">
        <ele>213.97</ele>
        <time>2019-03-25T12:29:19.000Z</time>
      </trkpt>
      <trkpt lat="45.14889" lon="5.74484">
        <ele>215.63</ele>
        <time>2019-03-25T12:29:24.000Z</time>
      </trkpt>
      <trkpt lat="45.14884" lon="5.7452">
        <ele>218.06</ele>
        <time>2019-03-25T12:29:29.000Z</time>
      </trkpt>
      <trkpt lat="45.1488" lon="5.74562">
        <ele>222.09</ele>
        <time>2019-03-25T12:29:34.000Z</time>
      </trkpt>
      <trkpt lat="45.14876" lon="5.74597">
        <ele>224.09</ele>
        <time>2019-03-25T12:29:39.000Z</time>
      </trkpt>
      <trkpt lat="45.14868" lon="5.74636">
        <ele>225.91</ele>
        <time>2019-03-25T12:29:44.000Z</time>
      </trkpt>
      <trkpt lat="45.14867" lon="5.74671">
        <ele>228.28</ele>
        <time>2019-03-25T12:29:49.000Z</time>
      </trkpt>
      <trkpt lat="45.14861" lon="5.74708">
        <ele>230.2</ele>
        <time>2019-03-25T12:29:54.000Z</time>
      </trkpt>
      <trkpt lat="45.14857" lon="5.74736">
        <ele>230.08</ele>
        <time>2019-03-25T12:29:59.000Z</time>
      </trkpt>
      <trkpt lat="45.14857" lon="5.74759">
        <ele>231.32</ele>
        <time>2019-03-25T12:30:04.000Z</time>
      </trkpt>
      <trkpt lat="45.14849" lon="5.74765">
        <ele>228.61</ele>
        <time>2019-03-25T12:30:25.000Z</time>
      </trkpt>
      <trkpt lat="45.14824" lon="5.7476">
        <ele>230.3</ele>
        <time>2019-03-25T12:30:30.000Z</time>
      </trkpt>
      <trkpt lat="45.14806" lon="5.74758">
        <ele>230.45</ele>
        <time>2019-03-25T12:30:35.000Z</time>
      </trkpt>
      <trkpt lat="45.14796" lon="5.74739">
        <ele>231.19</ele>
        <time>2019-03-25T12:30:40.000Z</time>
      </trkpt>
      <trkpt lat="45.14787" lon="5.74716">
        <ele>230.14</ele>
        <time>2019-03-25T12:30:45.000Z</time>
      </trkpt>
      <trkpt lat="45.14776" lon="5.74694">
        <ele>229.95</ele>
        <time>2019-03-25T12:30:50.000Z</time>
      </trkpt>
      <trkpt lat="45.14773" lon="5.74708">
        <ele>227.91</ele>
        <time>2019-03-25T12:31:31.000Z</time>
      </trkpt>
      <trkpt lat="45.14791" lon="5.74746">
        <ele>230.07</ele>
        <time>2019-03-25T12:31:36.000Z</time>
      </trkpt>
      <trkpt lat="45.14802" lon="5.74764">
        <ele>232.56</ele>
        <time>2019-03-25T12:31:41.000Z</time>
      </trkpt>
      <trkpt lat="45.14803" lon="5.74782">
        <ele>233.22</ele>
        <time>2019-03-25T12:31:46.000Z</time>
      </trkpt>
      <trkpt lat="45.1479" lon="5.74789">
        <ele>232.61</ele>
        <time>2019-03-25T12:31:51.000Z</time>
      </trkpt>
      <trkpt lat="45.14777" lon="5.74789">
        <ele>229.95</ele>
        <time>2019-03-25T12:31:56.000Z</time>
      </trkpt>
      <trkpt lat="45.14765" lon="5.74791">
        <ele>229.01</ele>
        <time>2019-03-25T12:32:01.000Z</time>
      </trkpt>
      <trkpt lat="45.14757" lon="5.74799">
        <ele>229.31</ele>
        <time>2019-03-25T12:32:06.000Z</time>
      </trkpt>
      <trkpt lat="45.14752" lon="5.74811">
        <ele>230.9</ele>
        <time>2019-03-25T12:32:12.000Z</time>
      </trkpt>
      <trkpt lat="45.14751" lon="5.74827">
        <ele>234.34</ele>
        <time>2019-03-25T12:32:17.000Z</time>
      </trkpt>
      <trkpt lat="45.14743" lon="5.74845">
        <ele>233.02</ele>
        <time>2019-03-25T12:32:22.000Z</time>
      </trkpt>
      <trkpt lat="45.14738" lon="5.74866">
        <ele>231.41</ele>
        <time>2019-03-25T12:32:27.000Z</time>
      </trkpt>
      <trkpt lat="45.14733" lon="5.74889">
        <ele>231.13</ele>
        <time>2019-03-25T12:32:32.000Z</time>
      </trkpt>
      <trkpt lat="45.14727" lon="5.74879">
        <ele>233.72</ele>
        <time>2019-03-25T12:33:03.000Z</time>
      </trkpt>
      <trkpt lat="45.14733" lon="5.7485">
        <ele>234.43</ele>
        <time>2019-03-25T12:33:08.000Z</time>
      </trkpt>
      <trkpt lat="45.14738" lon="5.74818">
        <ele>230.13</ele>
        <time>2019-03-25T12:33:13.000Z</time>
      </trkpt>
      <trkpt lat="45.1473" lon="5.74787">
        <ele>228.79</ele>
        <time>2019-03-25T12:33:18.000Z</time>
      </trkpt>
      <trkpt lat="45.14713" lon="5.74766">
        <ele>233.28</ele>
        <time>2019-03-25T12:33:23.000Z</time>
      </trkpt>
      <trkpt lat="45.14687" lon="5.74768">
        <ele>236.23</ele>
        <time>2019-03-25T12:33:28.000Z</time>
      </trkpt>
      <trkpt lat="45.14666" lon="5.74762">
        <ele>239.87</ele>
        <time>2019-03-25T12:33:33.000Z</time>
      </trkpt>
      <trkpt lat="45.14648" lon="5.7477">
        <ele>245.5</ele>
        <time>2019-03-25T12:33:38.000Z</time>
      </trkpt>
      <trkpt lat="45.1463" lon="5.74778">
        <ele>247.35</ele>
        <time>2019-03-25T12:33:43.000Z</time>
      </trkpt>
      <trkpt lat="45.14613" lon="5.74791">
        <ele>248.16</ele>
        <time>2019-03-25T12:33:48.000Z</time>
      </trkpt>
      <trkpt lat="45.14597" lon="5.74802">
        <ele>246.13</ele>
        <time>2019-03-25T12:33:53.000Z</time>
      </trkpt>
      <trkpt lat="45.14582" lon="5.74813">
        <ele>244.63</ele>
        <time>2019-03-25T12:33:58.000Z</time>
      </trkpt>
      <trkpt lat="45.14553" lon="5.74816">
        <ele>247.72</ele>
        <time>2019-03-25T12:34:03.000Z</time>
      </trkpt>
      <trkpt lat="45.14526" lon="5.74829">
        <ele>246.92</ele>
        <time>2019-03-25T12:34:08.000Z</time>
      </trkpt>
      <trkpt lat="45.14492" lon="5.74834">
        <ele>248.42</ele>
        <time>2019-03-25T12:34:13.000Z</time>
      </trkpt>
      <trkpt lat="45.14462" lon="5.7483">
        <ele>248.9</ele>
        <time>2019-03-25T12:34:18.000Z</time>
      </trkpt>
      <trkpt lat="45.14433" lon="5.74833">
        <ele>246.91</ele>
        <time>2019-03-25T12:34:23.000Z</time>
      </trkpt>
      <trkpt lat="45.14406" lon="5.74842">
        <ele>247.9</ele>
        <time>2019-03-25T12:34:28.000Z</time>
      </trkpt>
      <trkpt lat="45.14375" lon="5.74855">
        <ele>248.89</ele>
        <time>2019-03-25T12:34:33.000Z</time>
      </trkpt>
      <trkpt lat="45.14344" lon="5.74863">
        <ele>246.81</ele>
        <time>2019-03-25T12:34:38.000Z</time>
      </trkpt>
      <trkpt lat="45.14314" lon="5.74878">
        <ele>246.01</ele>
        <time>2019-03-25T12:34:43.000Z</time>
      </trkpt>
      <trkpt lat="45.14286" lon="5.74886">
        <ele>249.88</ele>
        <time>2019-03-25T12:34:48.000Z</time>
      </trkpt>
      <trkpt lat="45.14253" lon="5.74896">
        <ele>250.8</ele>
        <time>2019-03-25T12:34:53.000Z</time>
      </trkpt>
      <trkpt lat="45.14214" lon="5.74912">
        <ele>245.8</ele>
        <time>2019-03-25T12:34:58.000Z</time>
      </trkpt>
      <trkpt lat="45.14182" lon="5.74933">
        <ele>247.69</ele>
        <time>2019-03-25T12:35:03.000Z</time>
      </trkpt>
      <trkpt lat="45.14147" lon="5.74959">
        <ele>245.92</ele>
        <time>2019-03-25T12:35:08.000Z</time>
      </trkpt>
      <trkpt lat="45.14114" lon="5.74975">
        <ele>243.86</ele>
        <time>2019-03-25T12:35:13.000Z</time>
      </trkpt>
      <trkpt lat="45.14081" lon="5.74996">
        <ele>241.48</ele>
        <time>2019-03-25T12:35:18.000Z</time>
      </trkpt>
      <trkpt lat="45.14051" lon="5.75009">
        <ele>242.44</ele>
        <time>2019-03-25T12:35:23.000Z</time>
      </trkpt>
      <trkpt lat="45.14027" lon="5.75024">
        <ele>243.38</ele>
        <time>2019-03-25T12:35:28.000Z</time>
      </trkpt>
      <trkpt lat="45.14" lon="5.75036">
        <ele>241.55</ele>
        <time>2019-03-25T12:35:33.000Z</time>
      </trkpt>
      <trkpt lat="45.13981" lon="5.75045">
        <ele>240.79</ele>
        <time>2019-03-25T12:35:38.000Z</time>
      </trkpt>
      <trkpt lat="45.13958" lon="5.75052">
        <ele>243.21</ele>
        <time>2019-03-25T12:35:43.000Z</time>
      </trkpt>
      <trkpt lat="45.13933" lon="5.75058">
        <ele>246.46</ele>
        <time>2019-03-25T12:35:48.000Z</time>
      </trkpt>
      <trkpt lat="45.13909" lon="5.75058">
        <ele>248.75</ele>
        <time>2019-03-25T12:35:53.000Z</time>
      </trkpt>
      <trkpt lat="45.13882" lon="5.75051">
        <ele>247.31</ele>
        <time>2019-03-25T12:35:58.000Z</time>
      </trkpt>
      <trkpt lat="45.13859" lon="5.75037">
        <ele>244.26</ele>
        <time>2019-03-25T12:36:03.000Z</time>
      </trkpt>
      <trkpt lat="45.13837" lon="5.75015">
        <ele>245.63</ele>
        <time>2019-03-25T12:36:08.000Z</time>
      </trkpt>
      <trkpt lat="45.13821" lon="5.74984">
        <ele>248.23</ele>
        <time>2019-03-25T12:36:13.000Z</time>
      </trkpt>
      <trkpt lat="45.13801" lon="5.74954">
        <ele>246.52</ele>
        <time>2019-03-25T12:36:18.000Z</time>
      </trkpt>
      <trkpt lat="45.13787" lon="5.74924">
        <ele>247.79</ele>
        <time>2019-03-25T12:36:23.000Z</time>
      </trkpt>
      <trkpt lat="45.13768" lon="5.749">
        <ele>245.59</ele>
        <time>2019-03-25T12:36:28.000Z</time>
      </trkpt>
      <trkpt lat="45.13762" lon="5.74883">
        <ele>245</ele>
        <time>2019-03-25T12:36:33.000Z</time>
      </trkpt>
      <trkpt lat="45.13756" lon="5.74873">
        <ele>248.8</ele>
        <time>2019-03-25T12:36:38.000Z</time>
      </trkpt>
      <trkpt lat="45.1375" lon="5.74858">
        <ele>254.26</ele>
        <time>2019-03-25T12:36:43.000Z</time>
      </trkpt>
      <trkpt lat="45.13736" lon="5.7486">
        <ele>260.11</ele>
        <time>2019-03-25T12:36:48.000Z</time>
      </trkpt>
      <trkpt lat="45.13723" lon="5.74867">
        <ele>258.79</ele>
        <time>2019-03-25T12:36:53.000Z</time>
      </trkpt>
      <trkpt lat="45.13706" lon="5.74868">
        <ele>260.21</ele>
        <time>2019-03-25T12:36:58.000Z</time>
      </trkpt>
      <trkpt lat="45.1369" lon="5.74865">
        <ele>261.59</ele>
        <time>2019-03-25T12:37:03.000Z</time>
      </trkpt>
      <trkpt lat="45.13672" lon="5.74864">
        <ele>265.18</ele>
        <time>2019-03-25T12:37:08.000Z</time>
      </trkpt>
      <trkpt lat="45.13652" lon="5.74864">
        <ele>263.74</ele>
        <time>2019-03-25T12:37:13.000Z</time>
      </trkpt>
      <trkpt lat="45.13637" lon="5.74869">
        <ele>266.64</ele>
        <time>2019-03-25T12:37:18.000Z</time>
      </trkpt>
      <trkpt lat="45.13619" lon="5.74885">
        <ele>268.95</ele>
        <time>2019-03-25T12:37:23.000Z</time>
      </trkpt>
      <trkpt lat="45.13603" lon="5.74901">
        <ele>269.53</ele>
        <time>2019-03-25T12:37:28.000Z</time>
      </trkpt>
      <trkpt lat="45.13587" lon="5.74915">
        <ele>273.46</ele>
        <time>2019-03-25T12:37:33.000Z</time>
      </trkpt>
      <trkpt lat="45.13574" lon="5.74917">
        <ele>276.92</ele>
        <time>2019-03-25T12:37:38.000Z</time>
      </trkpt>
      <trkpt lat="45.1356" lon="5.74921">
        <ele>285.33</ele>
        <time>2019-03-25T12:37:43.000Z</time>
      </trkpt>
      <trkpt lat="45.13544" lon="5.74923">
        <ele>286.87</ele>
        <time>2019-03-25T12:37:48.000Z</time>
      </trkpt>
      <trkpt lat="45.13531" lon="5.74927">
        <ele>291.03</ele>
        <time>2019-03-25T12:37:53.000Z</time>
      </trkpt>
      <trkpt lat="45.13516" lon="5.74929">
        <ele>290.59</ele>
        <time>2019-03-25T12:37:58.000Z</time>
      </trkpt>
      <trkpt lat="45.13505" lon="5.74932">
        <ele>293.42</ele>
        <time>2019-03-25T12:38:04.000Z</time>
      </trkpt>
      <trkpt lat="45.13494" lon="5.74956">
        <ele>298.4</ele>
        <time>2019-03-25T12:38:09.000Z</time>
      </trkpt>
      <trkpt lat="45.13488" lon="5.7498">
        <ele>299.84</ele>
        <time>2019-03-25T12:38:14.000Z</time>
      </trkpt>
      <trkpt lat="45.13481" lon="5.75002">
        <ele>300.65</ele>
        <time>2019-03-25T12:38:19.000Z</time>
      </trkpt>
      <trkpt lat="45.13468" lon="5.75018">
        <ele>303.22</ele>
        <time>2019-03-25T12:38:24.000Z</time>
      </trkpt>
      <trkpt lat="45.13455" lon="5.75032">
        <ele>304.57</ele>
        <time>2019-03-25T12:38:29.000Z</time>
      </trkpt>
      <trkpt lat="45.13445" lon="5.75049">
        <ele>312.78</ele>
        <time>2019-03-25T12:38:34.000Z</time>
      </trkpt>
      <trkpt lat="45.13436" lon="5.7506">
        <ele>314.72</ele>
        <time>2019-03-25T12:38:39.000Z</time>
      </trkpt>
      <trkpt lat="45.1342" lon="5.75065">
        <ele>313.78</ele>
        <time>2019-03-25T12:38:44.000Z</time>
      </trkpt>
      <trkpt lat="45.13414" lon="5.75048">
        <ele>316.04</ele>
        <time>2019-03-25T12:38:49.000Z</time>
      </trkpt>
      <trkpt lat="45.1341" lon="5.75027">
        <ele>315.76</ele>
        <time>2019-03-25T12:38:54.000Z</time>
      </trkpt>
      <trkpt lat="45.1341" lon="5.75013">
        <ele>317.3</ele>
        <time>2019-03-25T12:38:59.000Z</time>
      </trkpt>
      <trkpt lat="45.13416" lon="5.75">
        <ele>319.41</ele>
        <time>2019-03-25T12:39:06.000Z</time>
      </trkpt>
      <trkpt lat="45.13426" lon="5.74985">
        <ele>322.99</ele>
        <time>2019-03-25T12:39:11.000Z</time>
      </trkpt>
      <trkpt lat="45.13432" lon="5.74969">
        <ele>324.86</ele>
        <time>2019-03-25T12:39:16.000Z</time>
      </trkpt>
      <trkpt lat="45.13423" lon="5.74975">
        <ele>329.88</ele>
        <time>2019-03-25T12:41:35.000Z</time>
      </trkpt>
      <trkpt lat="45.13404" lon="5.74974">
        <ele>327.64</ele>
        <time>2019-03-25T12:41:40.000Z</time>
      </trkpt>
      <trkpt lat="45.13384" lon="5.74974">
        <ele>330.43</ele>
        <time>2019-03-25T12:41:45.000Z</time>
      </trkpt>
      <trkpt lat="45.13364" lon="5.74979">
        <ele>334.88</ele>
        <time>2019-03-25T12:41:50.000Z</time>
      </trkpt>
      <trkpt lat="45.13346" lon="5.74991">
        <ele>335.16</ele>
        <time>2019-03-25T12:41:55.000Z</time>
      </trkpt>
      <trkpt lat="45.13334" lon="5.75004">
        <ele>337.33</ele>
        <time>2019-03-25T12:42:00.000Z</time>
      </trkpt>
      <trkpt lat="45.13326" lon="5.75011">
        <ele>339.14</ele>
        <time>2019-03-25T12:42:06.000Z</time>
      </trkpt>
      <trkpt lat="45.13317" lon="5.75018">
        <ele>339.59</ele>
        <time>2019-03-25T12:42:11.000Z</time>
      </trkpt>
      <trkpt lat="45.13305" lon="5.75028">
        <ele>344.48</ele>
        <time>2019-03-25T12:42:16.000Z</time>
      </trkpt>
      <trkpt lat="45.13291" lon="5.75039">
        <ele>346.78</ele>
        <time>2019-03-25T12:42:21.000Z</time>
      </trkpt>
      <trkpt lat="45.13275" lon="5.75051">
        <ele>351.01</ele>
        <time>2019-03-25T12:42:26.000Z</time>
      </trkpt>
      <trkpt lat="45.13258" lon="5.75059">
        <ele>353.18</ele>
        <time>2019-03-25T12:42:31.000Z</time>
      </trkpt>
      <trkpt lat="45.13239" lon="5.75068">
        <ele>355.14</ele>
        <time>2019-03-25T12:42:36.000Z</time>
      </trkpt>
      <trkpt lat="45.13224" lon="5.75081">
        <ele>358.34</ele>
        <time>2019-03-25T12:42:41.000Z</time>
      </trkpt>
      <trkpt lat="45.13202" lon="5.75097">
        <ele>360.56</ele>
        <time>2019-03-25T12:42:46.000Z</time>
      </trkpt>
      <trkpt lat="45.13173" lon="5.75112">
        <ele>355.65</ele>
        <time>2019-03-25T12:42:51.000Z</time>
      </trkpt>
      <trkpt lat="45.13151" lon="5.75123">
        <ele>353.6</ele>
        <time>2019-03-25T12:42:56.000Z</time>
      </trkpt>
      <trkpt lat="45.13134" lon="5.75131">
        <ele>353.99</ele>
        <time>2019-03-25T12:43:01.000Z</time>
      </trkpt>
      <trkpt lat="45.13114" lon="5.75142">
        <ele>359.57</ele>
        <time>2019-03-25T12:43:06.000Z</time>
      </trkpt>
      <trkpt lat="45.1309" lon="5.75156">
        <ele>358.6</ele>
        <time>2019-03-25T12:43:11.000Z</time>
      </trkpt>
      <trkpt lat="45.13068" lon="5.75159">
        <ele>357.5</ele>
        <time>2019-03-25T12:43:16.000Z</time>
      </trkpt>
      <trkpt lat="45.1305" lon="5.75167">
        <ele>360.79</ele>
        <time>2019-03-25T12:43:21.000Z</time>
      </trkpt>
      <trkpt lat="45.13025" lon="5.7518">
        <ele>357.27</ele>
        <time>2019-03-25T12:43:26.000Z</time>
      </trkpt>
      <trkpt lat="45.13009" lon="5.7519">
        <ele>359</ele>
        <time>2019-03-25T12:43:31.000Z</time>
      </trkpt>
      <trkpt lat="45.1299" lon="5.75196">
        <ele>358.18</ele>
        <time>2019-03-25T12:43:36.000Z</time>
      </trkpt>
      <trkpt lat="45.12973" lon="5.75211">
        <ele>360.34</ele>
        <time>2019-03-25T12:43:41.000Z</time>
      </trkpt>
      <trkpt lat="45.12956" lon="5.75228">
        <ele>361.77</ele>
        <time>2019-03-25T12:43:46.000Z</time>
      </trkpt>
      <trkpt lat="45.12922" lon="5.75242">
        <ele>361.39</ele>
        <time>2019-03-25T12:43:51.000Z</time>
      </trkpt>
      <trkpt lat="45.12896" lon="5.75259">
        <ele>361.31</ele>
        <time>2019-03-25T12:43:56.000Z</time>
      </trkpt>
      <trkpt lat="45.12871" lon="5.75275">
        <ele>358.27</ele>
        <time>2019-03-25T12:44:01.000Z</time>
      </trkpt>
      <trkpt lat="45.12846" lon="5.75296">
        <ele>356.34</ele>
        <time>2019-03-25T12:44:06.000Z</time>
      </trkpt>
      <trkpt lat="45.12825" lon="5.75311">
        <ele>357.66</ele>
        <time>2019-03-25T12:44:11.000Z</time>
      </trkpt>
      <trkpt lat="45.1281" lon="5.75328">
        <ele>355.92</ele>
        <time>2019-03-25T12:44:16.000Z</time>
      </trkpt>
      <trkpt lat="45.12796" lon="5.75338">
        <ele>358.97</ele>
        <time>2019-03-25T12:44:21.000Z</time>
      </trkpt>
      <trkpt lat="45.12778" lon="5.75348">
        <ele>358.34</ele>
        <time>2019-03-25T12:44:26.000Z</time>
      </trkpt>
      <trkpt lat="45.12756" lon="5.75368">
        <ele>356.97</ele>
        <time>2019-03-25T12:44:31.000Z</time>
      </trkpt>
      <trkpt lat="45.1274" lon="5.75387">
        <ele>357.08</ele>
        <time>2019-03-25T12:44:36.000Z</time>
      </trkpt>
      <trkpt lat="45.12716" lon="5.75408">
        <ele>356.49</ele>
        <time>2019-03-25T12:44:41.000Z</time>
      </trkpt>
      <trkpt lat="45.12713" lon="5.75445">
        <ele>357.13</ele>
        <time>2019-03-25T12:44:46.000Z</time>
      </trkpt>
      <trkpt lat="45.1271" lon="5.75484">
        <ele>358.45</ele>
        <time>2019-03-25T12:44:51.000Z</time>
      </trkpt>
      <trkpt lat="45.12742" lon="5.75527">
        <ele>357.16</ele>
        <time>2019-03-25T12:44:56.000Z</time>
      </trkpt>
      <trkpt lat="45.12769" lon="5.75566">
        <ele>354.88</ele>
        <time>2019-03-25T12:45:01.000Z</time>
      </trkpt>
      <trkpt lat="45.12798" lon="5.75604">
        <ele>355.58</ele>
        <time>2019-03-25T12:45:06.000Z</time>
      </trkpt>
      <trkpt lat="45.1282" lon="5.75628">
        <ele>352.79</ele>
        <time>2019-03-25T12:45:11.000Z</time>
      </trkpt>
      <trkpt lat="45.12828" lon="5.75652">
        <ele>354.38</ele>
        <time>2019-03-25T12:45:16.000Z</time>
      </trkpt>
      <trkpt lat="45.12817" lon="5.75677">
        <ele>352.19</ele>
        <time>2019-03-25T12:45:21.000Z</time>
      </trkpt>
      <trkpt lat="45.12798" lon="5.7571">
        <ele>353.78</ele>
        <time>2019-03-25T12:45:26.000Z</time>
      </trkpt>
      <trkpt lat="45.12799" lon="5.7573">
        <ele>353.34</ele>
        <time>2019-03-25T12:45:31.000Z</time>
      </trkpt>
      <trkpt lat="45.12806" lon="5.75749">
        <ele>353.86</ele>
        <time>2019-03-25T12:45:36.000Z</time>
      </trkpt>
      <trkpt lat="45.12816" lon="5.75766">
        <ele>352.03</ele>
        <time>2019-03-25T12:45:41.000Z</time>
      </trkpt>
      <trkpt lat="45.1283" lon="5.75786">
        <ele>353.52</ele>
        <time>2019-03-25T12:45:46.000Z</time>
      </trkpt>
      <trkpt lat="45.12842" lon="5.75802">
        <ele>355.29</ele>
        <time>2019-03-25T12:45:51.000Z</time>
      </trkpt>
      <trkpt lat="45.12854" lon="5.75821">
        <ele>354.7</ele>
        <time>2019-03-25T12:45:56.000Z</time>
      </trkpt>
      <trkpt lat="45.12858" lon="5.75849">
        <ele>354.52</ele>
        <time>2019-03-25T12:46:01.000Z</time>
      </trkpt>
      <trkpt lat="45.12856" lon="5.75888">
        <ele>354.08</ele>
        <time>2019-03-25T12:46:06.000Z</time>
      </trkpt>
      <trkpt lat="45.12856" lon="5.75926">
        <ele>355.6</ele>
        <time>2019-03-25T12:46:11.000Z</time>
      </trkpt>
      <trkpt lat="45.1285" lon="5.75966">
        <ele>356.65</ele>
        <time>2019-03-25T12:46:16.000Z</time>
      </trkpt>
      <trkpt lat="45.12845" lon="5.76005">
        <ele>357.5</ele>
        <time>2019-03-25T12:46:21.000Z</time>
      </trkpt>
      <trkpt lat="45.12839" lon="5.76041">
        <ele>362.67</ele>
        <time>2019-03-25T12:46:26.000Z</time>
      </trkpt>
      <trkpt lat="45.12839" lon="5.7608">
        <ele>360.64</ele>
        <time>2019-03-25T12:46:31.000Z</time>
      </trkpt>
      <trkpt lat="45.12841" lon="5.76121">
        <ele>362.87</ele>
        <time>2019-03-25T12:46:36.000Z</time>
      </trkpt>
      <trkpt lat="45.12851" lon="5.76162">
        <ele>361.96</ele>
        <time>2019-03-25T12:46:41.000Z</time>
      </trkpt>
      <trkpt lat="45.12856" lon="5.76202">
        <ele>363.29</ele>
        <time>2019-03-25T12:46:46.000Z</time>
      </trkpt>
      <trkpt lat="45.12866" lon="5.76238">
        <ele>361.25</ele>
        <time>2019-03-25T12:46:51.000Z</time>
      </trkpt>
      <trkpt lat="45.12878" lon="5.76279">
        <ele>360.42</ele>
        <time>2019-03-25T12:46:56.000Z</time>
      </trkpt>
      <trkpt lat="45.12882" lon="5.76315">
        <ele>360.69</ele>
        <time>2019-03-25T12:47:01.000Z</time>
      </trkpt>
      <trkpt lat="45.12865" lon="5.76329">
        <ele>359.5</ele>
        <time>2019-03-25T12:47:06.000Z</time>
      </trkpt>
      <trkpt lat="45.12844" lon="5.76331">
        <ele>362.55</ele>
        <time>2019-03-25T12:47:11.000Z</time>
      </trkpt>
      <trkpt lat="45.12834" lon="5.76319">
        <ele>359.56</ele>
        <time>2019-03-25T12:47:16.000Z</time>
      </trkpt>
      <trkpt lat="45.12823" lon="5.76297">
        <ele>359.32</ele>
        <time>2019-03-25T12:47:21.000Z</time>
      </trkpt>
      <trkpt lat="45.12804" lon="5.76272">
        <ele>357.86</ele>
        <time>2019-03-25T12:47:26.000Z</time>
      </trkpt>
      <trkpt lat="45.12783" lon="5.76249">
        <ele>358.51</ele>
        <time>2019-03-25T12:47:31.000Z</time>
      </trkpt>
      <trkpt lat="45.12765" lon="5.76227">
        <ele>361.47</ele>
        <time>2019-03-25T12:47:36.000Z</time>
      </trkpt>
      <trkpt lat="45.12742" lon="5.76204">
        <ele>360.26</ele>
        <time>2019-03-25T12:47:41.000Z</time>
      </trkpt>
      <trkpt lat="45.12721" lon="5.76182">
        <ele>359.54</ele>
        <time>2019-03-25T12:47:46.000Z</time>
      </trkpt>
      <trkpt lat="45.12698" lon="5.76163">
        <ele>361.05</ele>
        <time>2019-03-25T12:47:51.000Z</time>
      </trkpt>
      <trkpt lat="45.12675" lon="5.76149">
        <ele>362.73</ele>
        <time>2019-03-25T12:47:56.000Z</time>
      </trkpt>
      <trkpt lat="45.12653" lon="5.76133">
        <ele>361.93</ele>
        <time>2019-03-25T12:48:01.000Z</time>
      </trkpt>
      <trkpt lat="45.12637" lon="5.76114">
        <ele>364.03</ele>
        <time>2019-03-25T12:48:06.000Z</time>
      </trkpt>
      <trkpt lat="45.12613" lon="5.76095">
        <ele>363.55</ele>
        <time>2019-03-25T12:48:11.000Z</time>
      </trkpt>
      <trkpt lat="45.12595" lon="5.76087">
        <ele>364.23</ele>
        <time>2019-03-25T12:48:16.000Z</time>
      </trkpt>
      <trkpt lat="45.12573" lon="5.76082">
        <ele>367.3</ele>
        <time>2019-03-25T12:48:21.000Z</time>
      </trkpt>
      <trkpt lat="45.12543" lon="5.76064">
        <ele>361.86</ele>
        <time>2019-03-25T12:48:26.000Z</time>
      </trkpt>
      <trkpt lat="45.12517" lon="5.76048">
        <ele>357.54</ele>
        <time>2019-03-25T12:48:31.000Z</time>
      </trkpt>
      <trkpt lat="45.12484" lon="5.76029">
        <ele>358.38</ele>
        <time>2019-03-25T12:48:36.000Z</time>
      </trkpt>
      <trkpt lat="45.12452" lon="5.7601">
        <ele>362</ele>
        <time>2019-03-25T12:48:41.000Z</time>
      </trkpt>
      <trkpt lat="45.12421" lon="5.75995">
        <ele>365.58</ele>
        <time>2019-03-25T12:48:46.000Z</time>
      </trkpt>
      <trkpt lat="45.12393" lon="5.75984">
        <ele>366.67</ele>
        <time>2019-03-25T12:48:51.000Z</time>
      </trkpt>
      <trkpt lat="45.1236" lon="5.7598">
        <ele>368.5</ele>
        <time>2019-03-25T12:48:56.000Z</time>
      </trkpt>
      <trkpt lat="45.12324" lon="5.7598">
        <ele>372.78</ele>
        <time>2019-03-25T12:49:01.000Z</time>
      </trkpt>
      <trkpt lat="45.12289" lon="5.75978">
        <ele>372.99</ele>
        <time>2019-03-25T12:49:06.000Z</time>
      </trkpt>
      <trkpt lat="45.12257" lon="5.75972">
        <ele>373.39</ele>
        <time>2019-03-25T12:49:11.000Z</time>
      </trkpt>
      <trkpt lat="45.12231" lon="5.75959">
        <ele>371.21</ele>
        <time>2019-03-25T12:49:16.000Z</time>
      </trkpt>
      <trkpt lat="45.12201" lon="5.75956">
        <ele>371.66</ele>
        <time>2019-03-25T12:49:21.000Z</time>
      </trkpt>
      <trkpt lat="45.12168" lon="5.75955">
        <ele>371.27</ele>
        <time>2019-03-25T12:49:26.000Z</time>
      </trkpt>
      <trkpt lat="45.12142" lon="5.75956">
        <ele>372.11</ele>
        <time>2019-03-25T12:49:31.000Z</time>
      </trkpt>
      <trkpt lat="45.12117" lon="5.75954">
        <ele>373.72</ele>
        <time>2019-03-25T12:49:36.000Z</time>
      </trkpt>
      <trkpt lat="45.1209" lon="5.75956">
        <ele>375.96</ele>
        <time>2019-03-25T12:49:41.000Z</time>
      </trkpt>
      <trkpt lat="45.12061" lon="5.75954">
        <ele>378.03</ele>
        <time>2019-03-25T12:49:46.000Z</time>
      </trkpt>
      <trkpt lat="45.12032" lon="5.75959">
        <ele>380.89</ele>
        <time>2019-03-25T12:49:51.000Z</time>
      </trkpt>
      <trkpt lat="45.12" lon="5.75964">
        <ele>381.49</ele>
        <time>2019-03-25T12:49:56.000Z</time>
      </trkpt>
      <trkpt lat="45.1197" lon="5.75972">
        <ele>382.86</ele>
        <time>2019-03-25T12:50:01.000Z</time>
      </trkpt>
      <trkpt lat="45.11939" lon="5.75973">
        <ele>379.3</ele>
        <time>2019-03-25T12:50:06.000Z</time>
      </trkpt>
      <trkpt lat="45.11913" lon="5.75985">
        <ele>383.2</ele>
        <time>2019-03-25T12:50:11.000Z</time>
      </trkpt>
      <trkpt lat="45.11883" lon="5.75996">
        <ele>385.1</ele>
        <time>2019-03-25T12:50:16.000Z</time>
      </trkpt>
      <trkpt lat="45.11852" lon="5.76003">
        <ele>383.83</ele>
        <time>2019-03-25T12:50:21.000Z</time>
      </trkpt>
      <trkpt lat="45.11828" lon="5.76004">
        <ele>387.14</ele>
        <time>2019-03-25T12:50:26.000Z</time>
      </trkpt>
      <trkpt lat="45.118" lon="5.7601">
        <ele>388.14</ele>
        <time>2019-03-25T12:50:31.000Z</time>
      </trkpt>
      <trkpt lat="45.11769" lon="5.76009">
        <ele>389.67</ele>
        <time>2019-03-25T12:50:36.000Z</time>
      </trkpt>
      <trkpt lat="45.11741" lon="5.76002">
        <ele>389.43</ele>
        <time>2019-03-25T12:50:41.000Z</time>
      </trkpt>
      <trkpt lat="45.1171" lon="5.75995">
        <ele>389.93</ele>
        <time>2019-03-25T12:50:46.000Z</time>
      </trkpt>
      <trkpt lat="45.11685" lon="5.75983">
        <ele>388.46</ele>
        <time>2019-03-25T12:50:51.000Z</time>
      </trkpt>
      <trkpt lat="45.11659" lon="5.75983">
        <ele>391.16</ele>
        <time>2019-03-25T12:50:56.000Z</time>
      </trkpt>
      <trkpt lat="45.1163" lon="5.75987">
        <ele>389.84</ele>
        <time>2019-03-25T12:51:01.000Z</time>
      </trkpt>
      <trkpt lat="45.11603" lon="5.75979">
        <ele>388.98</ele>
        <time>2019-03-25T12:51:06.000Z</time>
      </trkpt>
      <trkpt lat="45.11587" lon="5.75969">
        <ele>387.79</ele>
        <time>2019-03-25T12:51:11.000Z</time>
      </trkpt>
      <trkpt lat="45.11578" lon="5.75976">
        <ele>388.48</ele>
        <time>2019-03-25T12:51:19.000Z</time>
      </trkpt>
      <trkpt lat="45.11572" lon="5.75996">
        <ele>391.65</ele>
        <time>2019-03-25T12:51:24.000Z</time>
      </trkpt>
      <trkpt lat="45.11567" lon="5.76023">
        <ele>393.67</ele>
        <time>2019-03-25T12:51:29.000Z</time>
      </trkpt>
      <trkpt lat="45.11561" lon="5.76049">
        <ele>393.99</ele>
        <time>2019-03-25T12:51:34.000Z</time>
      </trkpt>
      <trkpt lat="45.11553" lon="5.76073">
        <ele>393.12</ele>
        <time>2019-03-25T12:51:39.000Z</time>
      </trkpt>
      <trkpt lat="45.11544" lon="5.76094">
        <ele>395</ele>
        <time>2019-03-25T12:51:44.000Z</time>
      </trkpt>
      <trkpt lat="45.11533" lon="5.76118">
        <ele>396.59</ele>
        <time>2019-03-25T12:51:49.000Z</time>
      </trkpt>
      <trkpt lat="45.11522" lon="5.76146">
        <ele>400.89</ele>
        <time>2019-03-25T12:51:54.000Z</time>
      </trkpt>
      <trkpt lat="45.11516" lon="5.76173">
        <ele>402.57</ele>
        <time>2019-03-25T12:51:59.000Z</time>
      </trkpt>
      <trkpt lat="45.11508" lon="5.76207">
        <ele>403.91</ele>
        <time>2019-03-25T12:52:04.000Z</time>
      </trkpt>
      <trkpt lat="45.11504" lon="5.7624">
        <ele>404.51</ele>
        <time>2019-03-25T12:52:09.000Z</time>
      </trkpt>
      <trkpt lat="45.11498" lon="5.76268">
        <ele>403.49</ele>
        <time>2019-03-25T12:52:14.000Z</time>
      </trkpt>
      <trkpt lat="45.11489" lon="5.76286">
        <ele>404.89</ele>
        <time>2019-03-25T12:52:19.000Z</time>
      </trkpt>
      <trkpt lat="45.11479" lon="5.76308">
        <ele>404.15</ele>
        <time>2019-03-25T12:52:24.000Z</time>
      </trkpt>
      <trkpt lat="45.11468" lon="5.7633">
        <ele>404</ele>
        <time>2019-03-25T12:52:29.000Z</time>
      </trkpt>
      <trkpt lat="45.11458" lon="5.76358">
        <ele>406.19</ele>
        <time>2019-03-25T12:52:34.000Z</time>
      </trkpt>
      <trkpt lat="45.11449" lon="5.76384">
        <ele>409.41</ele>
        <time>2019-03-25T12:52:39.000Z</time>
      </trkpt>
      <trkpt lat="45.11439" lon="5.76408">
        <ele>406.99</ele>
        <time>2019-03-25T12:52:44.000Z</time>
      </trkpt>
      <trkpt lat="45.11428" lon="5.76437">
        <ele>406.59</ele>
        <time>2019-03-25T12:52:49.000Z</time>
      </trkpt>
      <trkpt lat="45.11414" lon="5.76469">
        <ele>408.03</ele>
        <time>2019-03-25T12:52:54.000Z</time>
      </trkpt>
      <trkpt lat="45.11402" lon="5.765">
        <ele>410.07</ele>
        <time>2019-03-25T12:52:59.000Z</time>
      </trkpt>
      <trkpt lat="45.11401" lon="5.7653">
        <ele>410.38</ele>
        <time>2019-03-25T12:53:04.000Z</time>
      </trkpt>
      <trkpt lat="45.11396" lon="5.76568">
        <ele>409.55</ele>
        <time>2019-03-25T12:53:09.000Z</time>
      </trkpt>
      <trkpt lat="45.114" lon="5.766">
        <ele>409.74</ele>
        <time>2019-03-25T12:53:14.000Z</time>
      </trkpt>
      <trkpt lat="45.11412" lon="5.76623">
        <ele>410.05</ele>
        <time>2019-03-25T12:53:19.000Z</time>
      </trkpt>
      <trkpt lat="45.11432" lon="5.76644">
        <ele>414.12</ele>
        <time>2019-03-25T12:53:24.000Z</time>
      </trkpt>
      <trkpt lat="45.11449" lon="5.76665">
        <ele>414.73</ele>
        <time>2019-03-25T12:53:29.000Z</time>
      </trkpt>
      <trkpt lat="45.11462" lon="5.76693">
        <ele>418.28</ele>
        <time>2019-03-25T12:53:34.000Z</time>
      </trkpt>
      <trkpt lat="45.11475" lon="5.76718">
        <ele>418.97</ele>
        <time>2019-03-25T12:53:39.000Z</time>
      </trkpt>
      <trkpt lat="45.11473" lon="5.7675">
        <ele>422.17</ele>
        <time>2019-03-25T12:53:44.000Z</time>
      </trkpt>
      <trkpt lat="45.11461" lon="5.76774">
        <ele>423.22</ele>
        <time>2019-03-25T12:53:49.000Z</time>
      </trkpt>
      <trkpt lat="45.1145" lon="5.768">
        <ele>423.93</ele>
        <time>2019-03-25T12:53:54.000Z</time>
      </trkpt>
      <trkpt lat="45.11441" lon="5.76836">
        <ele>425.08</ele>
        <time>2019-03-25T12:53:59.000Z</time>
      </trkpt>
      <trkpt lat="45.11441" lon="5.76874">
        <ele>426.63</ele>
        <time>2019-03-25T12:54:04.000Z</time>
      </trkpt>
      <trkpt lat="45.11448" lon="5.769">
        <ele>428.69</ele>
        <time>2019-03-25T12:54:09.000Z</time>
      </trkpt>
      <trkpt lat="45.11455" lon="5.76922">
        <ele>430.83</ele>
        <time>2019-03-25T12:54:14.000Z</time>
      </trkpt>
      <trkpt lat="45.11458" lon="5.76948">
        <ele>432.56</ele>
        <time>2019-03-25T12:54:19.000Z</time>
      </trkpt>
      <trkpt lat="45.1145" lon="5.76977">
        <ele>435.17</ele>
        <time>2019-03-25T12:54:24.000Z</time>
      </trkpt>
      <trkpt lat="45.11445" lon="5.77011">
        <ele>440.38</ele>
        <time>2019-03-25T12:54:29.000Z</time>
      </trkpt>
      <trkpt lat="45.11444" lon="5.77044">
        <ele>442.74</ele>
        <time>2019-03-25T12:54:34.000Z</time>
      </trkpt>
      <trkpt lat="45.1145" lon="5.77071">
        <ele>443.12</ele>
        <time>2019-03-25T12:54:39.000Z</time>
      </trkpt>
      <trkpt lat="45.11458" lon="5.77089">
        <ele>444.5</ele>
        <time>2019-03-25T12:54:44.000Z</time>
      </trkpt>
      <trkpt lat="45.11468" lon="5.77109">
        <ele>446.26</ele>
        <time>2019-03-25T12:54:49.000Z</time>
      </trkpt>
      <trkpt lat="45.11475" lon="5.77131">
        <ele>447.48</ele>
        <time>2019-03-25T12:54:54.000Z</time>
      </trkpt>
      <trkpt lat="45.11474" lon="5.77157">
        <ele>453.36</ele>
        <time>2019-03-25T12:54:59.000Z</time>
      </trkpt>
      <trkpt lat="45.11472" lon="5.77182">
        <ele>455.3</ele>
        <time>2019-03-25T12:55:04.000Z</time>
      </trkpt>
      <trkpt lat="45.11473" lon="5.77209">
        <ele>456.75</ele>
        <time>2019-03-25T12:55:09.000Z</time>
      </trkpt>
      <trkpt lat="45.11475" lon="5.77234">
        <ele>456.36</ele>
        <time>2019-03-25T12:55:14.000Z</time>
      </trkpt>
      <trkpt lat="45.11476" lon="5.77256">
        <ele>460.14</ele>
        <time>2019-03-25T12:55:19.000Z</time>
      </trkpt>
      <trkpt lat="45.11473" lon="5.77274">
        <ele>461.94</ele>
        <time>2019-03-25T12:55:24.000Z</time>
      </trkpt>
      <trkpt lat="45.11468" lon="5.77297">
        <ele>462.84</ele>
        <time>2019-03-25T12:55:29.000Z</time>
      </trkpt>
      <trkpt lat="45.11465" lon="5.77323">
        <ele>463.7</ele>
        <time>2019-03-25T12:55:34.000Z</time>
      </trkpt>
      <trkpt lat="45.11461" lon="5.77348">
        <ele>464.79</ele>
        <time>2019-03-25T12:55:39.000Z</time>
      </trkpt>
      <trkpt lat="45.1146" lon="5.77372">
        <ele>469.77</ele>
        <time>2019-03-25T12:55:44.000Z</time>
      </trkpt>
      <trkpt lat="45.11462" lon="5.77397">
        <ele>473.32</ele>
        <time>2019-03-25T12:55:49.000Z</time>
      </trkpt>
      <trkpt lat="45.11462" lon="5.77425">
        <ele>475</ele>
        <time>2019-03-25T12:55:54.000Z</time>
      </trkpt>
      <trkpt lat="45.11464" lon="5.77452">
        <ele>474.86</ele>
        <time>2019-03-25T12:55:59.000Z</time>
      </trkpt>
      <trkpt lat="45.11465" lon="5.77479">
        <ele>477.33</ele>
        <time>2019-03-25T12:56:04.000Z</time>
      </trkpt>
      <trkpt lat="45.11472" lon="5.77501">
        <ele>481.56</ele>
        <time>2019-03-25T12:56:09.000Z</time>
      </trkpt>
      <trkpt lat="45.11479" lon="5.77522">
        <ele>484.16</ele>
        <time>2019-03-25T12:56:14.000Z</time>
      </trkpt>
      <trkpt lat="45.11487" lon="5.7754">
        <ele>484.71</ele>
        <time>2019-03-25T12:56:19.000Z</time>
      </trkpt>
      <trkpt lat="45.11488" lon="5.77564">
        <ele>488.12</ele>
        <time>2019-03-25T12:56:24.000Z</time>
      </trkpt>
      <trkpt lat="45.11485" lon="5.77586">
        <ele>489.01</ele>
        <time>2019-03-25T12:56:29.000Z</time>
      </trkpt>
      <trkpt lat="45.1148" lon="5.77607">
        <ele>492.38</ele>
        <time>2019-03-25T12:56:34.000Z</time>
      </trkpt>
      <trkpt lat="45.11474" lon="5.77625">
        <ele>491.56</ele>
        <time>2019-03-25T12:56:39.000Z</time>
      </trkpt>
      <trkpt lat="45.11468" lon="5.77642">
        <ele>492.51</ele>
        <time>2019-03-25T12:56:44.000Z</time>
      </trkpt>
      <trkpt lat="45.11461" lon="5.77658">
        <ele>492.78</ele>
        <time>2019-03-25T12:56:49.000Z</time>
      </trkpt>
      <trkpt lat="45.1145" lon="5.77682">
        <ele>491.78</ele>
        <time>2019-03-25T12:56:54.000Z</time>
      </trkpt>
      <trkpt lat="45.11441" lon="5.77706">
        <ele>489.02</ele>
        <time>2019-03-25T12:56:59.000Z</time>
      </trkpt>
      <trkpt lat="45.11427" lon="5.77731">
        <ele>487.75</ele>
        <time>2019-03-25T12:57:04.000Z</time>
      </trkpt>
      <trkpt lat="45.11415" lon="5.77762">
        <ele>487.77</ele>
        <time>2019-03-25T12:57:09.000Z</time>
      </trkpt>
      <trkpt lat="45.11409" lon="5.77793">
        <ele>491.31</ele>
        <time>2019-03-25T12:57:14.000Z</time>
      </trkpt>
      <trkpt lat="45.1141" lon="5.77829">
        <ele>492.6</ele>
        <time>2019-03-25T12:57:19.000Z</time>
      </trkpt>
      <trkpt lat="45.11409" lon="5.77863">
        <ele>489.62</ele>
        <time>2019-03-25T12:57:24.000Z</time>
      </trkpt>
      <trkpt lat="45.11411" lon="5.77899">
        <ele>487.75</ele>
        <time>2019-03-25T12:57:29.000Z</time>
      </trkpt>
      <trkpt lat="45.11419" lon="5.77933">
        <ele>488.27</ele>
        <time>2019-03-25T12:57:34.000Z</time>
      </trkpt>
      <trkpt lat="45.11423" lon="5.77957">
        <ele>488.1</ele>
        <time>2019-03-25T12:57:39.000Z</time>
      </trkpt>
      <trkpt lat="45.11428" lon="5.77969">
        <ele>487.71</ele>
        <time>2019-03-25T12:58:19.000Z</time>
      </trkpt>
      <trkpt lat="45.11435" lon="5.77994">
        <ele>487.12</ele>
        <time>2019-03-25T12:58:24.000Z</time>
      </trkpt>
      <trkpt lat="45.11443" lon="5.78032">
        <ele>487.9</ele>
        <time>2019-03-25T12:58:29.000Z</time>
      </trkpt>
      <trkpt lat="45.11452" lon="5.78071">
        <ele>485.16</ele>
        <time>2019-03-25T12:58:34.000Z</time>
      </trkpt>
      <trkpt lat="45.11467" lon="5.78119">
        <ele>488.01</ele>
        <time>2019-03-25T12:58:39.000Z</time>
      </trkpt>
      <trkpt lat="45.11481" lon="5.7816">
        <ele>486.85</ele>
        <time>2019-03-25T12:58:44.000Z</time>
      </trkpt>
      <trkpt lat="45.11493" lon="5.78219">
        <ele>487.14</ele>
        <time>2019-03-25T12:58:49.000Z</time>
      </trkpt>
      <trkpt lat="45.11497" lon="5.78276">
        <ele>487.45</ele>
        <time>2019-03-25T12:58:54.000Z</time>
      </trkpt>
      <trkpt lat="45.11503" lon="5.78325">
        <ele>486.68</ele>
        <time>2019-03-25T12:58:59.000Z</time>
      </trkpt>
      <trkpt lat="45.11498" lon="5.78369">
        <ele>483.18</ele>
        <time>2019-03-25T12:59:04.000Z</time>
      </trkpt>
      <trkpt lat="45.11484" lon="5.784">
        <ele>480.61</ele>
        <time>2019-03-25T12:59:09.000Z</time>
      </trkpt>
      <trkpt lat="45.11482" lon="5.78417">
        <ele>481.48</ele>
        <time>2019-03-25T12:59:14.000Z</time>
      </trkpt>
      <trkpt lat="45.11473" lon="5.78428">
        <ele>482.56</ele>
        <time>2019-03-25T12:59:43.000Z</time>
      </trkpt>
      <trkpt lat="45.11454" lon="5.78444">
        <ele>477.67</ele>
        <time>2019-03-25T12:59:48.000Z</time>
      </trkpt>
      <trkpt lat="45.11449" lon="5.78487">
        <ele>477.5</ele>
        <time>2019-03-25T12:59:53.000Z</time>
      </trkpt>
      <trkpt lat="45.11432" lon="5.78522">
        <ele>476.86</ele>
        <time>2019-03-25T12:59:58.000Z</time>
      </trkpt>
      <trkpt lat="45.11422" lon="5.78561">
        <ele>476.3</ele>
        <time>2019-03-25T13:00:03.000Z</time>
      </trkpt>
      <trkpt lat="45.11414" lon="5.786">
        <ele>477.27</ele>
        <time>2019-03-25T13:00:08.000Z</time>
      </trkpt>
      <trkpt lat="45.11407" lon="5.78642">
        <ele>478.2</ele>
        <time>2019-03-25T13:00:13.000Z</time>
      </trkpt>
      <trkpt lat="45.11401" lon="5.78687">
        <ele>477.6</ele>
        <time>2019-03-25T13:00:18.000Z</time>
      </trkpt>
      <trkpt lat="45.11389" lon="5.78722">
        <ele>474.9</ele>
        <time>2019-03-25T13:00:23.000Z</time>
      </trkpt>
      <trkpt lat="45.11376" lon="5.78764">
        <ele>473.05</ele>
        <time>2019-03-25T13:00:28.000Z</time>
      </trkpt>
      <trkpt lat="45.11363" lon="5.78802">
        <ele>473.96</ele>
        <time>2019-03-25T13:00:33.000Z</time>
      </trkpt>
      <trkpt lat="45.11354" lon="5.78845">
        <ele>472.6</ele>
        <time>2019-03-25T13:00:38.000Z</time>
      </trkpt>
      <trkpt lat="45.11351" lon="5.7889">
        <ele>472.87</ele>
        <time>2019-03-25T13:00:43.000Z</time>
      </trkpt>
      <trkpt lat="45.11357" lon="5.78937">
        <ele>475.51</ele>
        <time>2019-03-25T13:00:48.000Z</time>
      </trkpt>
      <trkpt lat="45.11367" lon="5.7898">
        <ele>476.34</ele>
        <time>2019-03-25T13:00:53.000Z</time>
      </trkpt>
      <trkpt lat="45.11377" lon="5.79023">
        <ele>477.89</ele>
        <time>2019-03-25T13:00:58.000Z</time>
      </trkpt>
      <trkpt lat="45.11382" lon="5.79062">
        <ele>478</ele>
        <time>2019-03-25T13:01:03.000Z</time>
      </trkpt>
      <trkpt lat="45.1139" lon="5.791">
        <ele>477.44</ele>
        <time>2019-03-25T13:01:08.000Z</time>
      </trkpt>
      <trkpt lat="45.11398" lon="5.79137">
        <ele>477.82</ele>
        <time>2019-03-25T13:01:13.000Z</time>
      </trkpt>
      <trkpt lat="45.11407" lon="5.79176">
        <ele>480.71</ele>
        <time>2019-03-25T13:01:18.000Z</time>
      </trkpt>
      <trkpt lat="45.11414" lon="5.79206">
        <ele>478.88</ele>
        <time>2019-03-25T13:01:23.000Z</time>
      </trkpt>
      <trkpt lat="45.11422" lon="5.79247">
        <ele>479.11</ele>
        <time>2019-03-25T13:01:28.000Z</time>
      </trkpt>
      <trkpt lat="45.11429" lon="5.7929">
        <ele>477.46</ele>
        <time>2019-03-25T13:01:33.000Z</time>
      </trkpt>
      <trkpt lat="45.11435" lon="5.79334">
        <ele>479.38</ele>
        <time>2019-03-25T13:01:38.000Z</time>
      </trkpt>
      <trkpt lat="45.11451" lon="5.79373">
        <ele>479.26</ele>
        <time>2019-03-25T13:01:43.000Z</time>
      </trkpt>
      <trkpt lat="45.11466" lon="5.79403">
        <ele>482.63</ele>
        <time>2019-03-25T13:01:48.000Z</time>
      </trkpt>
      <trkpt lat="45.11483" lon="5.7943">
        <ele>481.14</ele>
        <time>2019-03-25T13:01:53.000Z</time>
      </trkpt>
      <trkpt lat="45.11494" lon="5.79451">
        <ele>480.7</ele>
        <time>2019-03-25T13:01:58.000Z</time>
      </trkpt>
      <trkpt lat="45.11504" lon="5.79467">
        <ele>479.03</ele>
        <time>2019-03-25T13:02:03.000Z</time>
      </trkpt>
      <trkpt lat="45.11513" lon="5.79483">
        <ele>478.74</ele>
        <time>2019-03-25T13:02:08.000Z</time>
      </trkpt>
      <trkpt lat="45.11519" lon="5.79497">
        <ele>483.75</ele>
        <time>2019-03-25T13:02:29.000Z</time>
      </trkpt>
      <trkpt lat="45.11537" lon="5.79534">
        <ele>483.44</ele>
        <time>2019-03-25T13:02:34.000Z</time>
      </trkpt>
      <trkpt lat="45.11559" lon="5.79565">
        <ele>481.93</ele>
        <time>2019-03-25T13:02:39.000Z</time>
      </trkpt>
      <trkpt lat="45.1158" lon="5.79609">
        <ele>481.44</ele>
        <time>2019-03-25T13:02:44.000Z</time>
      </trkpt>
      <trkpt lat="45.11613" lon="5.79673">
        <ele>479.95</ele>
        <time>2019-03-25T13:02:49.000Z</time>
      </trkpt>
      <trkpt lat="45.11647" lon="5.79732">
        <ele>475.6</ele>
        <time>2019-03-25T13:02:54.000Z</time>
      </trkpt>
      <trkpt lat="45.11682" lon="5.79799">
        <ele>474.59</ele>
        <time>2019-03-25T13:02:59.000Z</time>
      </trkpt>
      <trkpt lat="45.11717" lon="5.79881">
        <ele>473.63</ele>
        <time>2019-03-25T13:03:04.000Z</time>
      </trkpt>
      <trkpt lat="45.11758" lon="5.79958">
        <ele>472.16</ele>
        <time>2019-03-25T13:03:09.000Z</time>
      </trkpt>
      <trkpt lat="45.11802" lon="5.80026">
        <ele>468.14</ele>
        <time>2019-03-25T13:03:14.000Z</time>
      </trkpt>
      <trkpt lat="45.11841" lon="5.80078">
        <ele>455.94</ele>
        <time>2019-03-25T13:03:19.000Z</time>
      </trkpt>
      <trkpt lat="45.11858" lon="5.80097">
        <ele>448.34</ele>
        <time>2019-03-25T13:03:24.000Z</time>
      </trkpt>
      <trkpt lat="45.11864" lon="5.8011">
        <ele>446.47</ele>
        <time>2019-03-25T13:03:43.000Z</time>
      </trkpt>
      <trkpt lat="45.11876" lon="5.80147">
        <ele>440.28</ele>
        <time>2019-03-25T13:03:48.000Z</time>
      </trkpt>
      <trkpt lat="45.11884" lon="5.80171">
        <ele>438.45</ele>
        <time>2019-03-25T13:03:53.000Z</time>
      </trkpt>
      <trkpt lat="45.11891" lon="5.80219">
        <ele>440.07</ele>
        <time>2019-03-25T13:03:58.000Z</time>
      </trkpt>
      <trkpt lat="45.11903" lon="5.80281">
        <ele>437.18</ele>
        <time>2019-03-25T13:04:03.000Z</time>
      </trkpt>
      <trkpt lat="45.11916" lon="5.80334">
        <ele>436.6</ele>
        <time>2019-03-25T13:04:08.000Z</time>
      </trkpt>
      <trkpt lat="45.11929" lon="5.80388">
        <ele>429.44</ele>
        <time>2019-03-25T13:04:13.000Z</time>
      </trkpt>
      <trkpt lat="45.1194" lon="5.80439">
        <ele>422.6</ele>
        <time>2019-03-25T13:04:18.000Z</time>
      </trkpt>
      <trkpt lat="45.11949" lon="5.80474">
        <ele>418.36</ele>
        <time>2019-03-25T13:04:23.000Z</time>
      </trkpt>
      <trkpt lat="45.11982" lon="5.80525">
        <ele>413.11</ele>
        <time>2019-03-25T13:04:28.000Z</time>
      </trkpt>
      <trkpt lat="45.1202" lon="5.80566">
        <ele>405.55</ele>
        <time>2019-03-25T13:04:33.000Z</time>
      </trkpt>
      <trkpt lat="45.12045" lon="5.80609">
        <ele>401.82</ele>
        <time>2019-03-25T13:04:38.000Z</time>
      </trkpt>
      <trkpt lat="45.12053" lon="5.80649">
        <ele>399.4</ele>
        <time>2019-03-25T13:04:43.000Z</time>
      </trkpt>
      <trkpt lat="45.12065" lon="5.80713">
        <ele>397.56</ele>
        <time>2019-03-25T13:04:48.000Z</time>
      </trkpt>
      <trkpt lat="45.12079" lon="5.80754">
        <ele>394.84</ele>
        <time>2019-03-25T13:04:53.000Z</time>
      </trkpt>
      <trkpt lat="45.12098" lon="5.808">
        <ele>390.36</ele>
        <time>2019-03-25T13:04:58.000Z</time>
      </trkpt>
      <trkpt lat="45.12105" lon="5.8084">
        <ele>390.15</ele>
        <time>2019-03-25T13:05:03.000Z</time>
      </trkpt>
      <trkpt lat="45.12106" lon="5.80887">
        <ele>393.37</ele>
        <time>2019-03-25T13:05:08.000Z</time>
      </trkpt>
      <trkpt lat="45.12119" lon="5.80926">
        <ele>389.41</ele>
        <time>2019-03-25T13:05:13.000Z</time>
      </trkpt>
      <trkpt lat="45.12133" lon="5.80969">
        <ele>383.74</ele>
        <time>2019-03-25T13:05:18.000Z</time>
      </trkpt>
      <trkpt lat="45.12145" lon="5.81014">
        <ele>379.59</ele>
        <time>2019-03-25T13:05:23.000Z</time>
      </trkpt>
      <trkpt lat="45.12147" lon="5.81059">
        <ele>377.75</ele>
        <time>2019-03-25T13:05:28.000Z</time>
      </trkpt>
      <trkpt lat="45.12141" lon="5.81094">
        <ele>374.82</ele>
        <time>2019-03-25T13:05:33.000Z</time>
      </trkpt>
      <trkpt lat="45.12135" lon="5.81116">
        <ele>374.21</ele>
        <time>2019-03-25T13:05:38.000Z</time>
      </trkpt>
      <trkpt lat="45.12124" lon="5.81122">
        <ele>370.73</ele>
        <time>2019-03-25T13:05:43.000Z</time>
      </trkpt>
      <trkpt lat="45.12111" lon="5.81132">
        <ele>368.58</ele>
        <time>2019-03-25T13:05:48.000Z</time>
      </trkpt>
      <trkpt lat="45.12095" lon="5.8114">
        <ele>366.87</ele>
        <time>2019-03-25T13:05:53.000Z</time>
      </trkpt>
      <trkpt lat="45.1207" lon="5.81157">
        <ele>363.13</ele>
        <time>2019-03-25T13:05:58.000Z</time>
      </trkpt>
      <trkpt lat="45.12055" lon="5.81166">
        <ele>363.42</ele>
        <time>2019-03-25T13:06:03.000Z</time>
      </trkpt>
      <trkpt lat="45.12037" lon="5.81164">
        <ele>363.21</ele>
        <time>2019-03-25T13:06:08.000Z</time>
      </trkpt>
      <trkpt lat="45.12015" lon="5.81168">
        <ele>362.28</ele>
        <time>2019-03-25T13:06:13.000Z</time>
      </trkpt>
      <trkpt lat="45.12002" lon="5.81161">
        <ele>361.35</ele>
        <time>2019-03-25T13:06:18.000Z</time>
      </trkpt>
      <trkpt lat="45.11981" lon="5.81141">
        <ele>357.9</ele>
        <time>2019-03-25T13:06:23.000Z</time>
      </trkpt>
      <trkpt lat="45.11954" lon="5.81118">
        <ele>355.48</ele>
        <time>2019-03-25T13:06:28.000Z</time>
      </trkpt>
      <trkpt lat="45.11929" lon="5.81099">
        <ele>357.29</ele>
        <time>2019-03-25T13:06:33.000Z</time>
      </trkpt>
      <trkpt lat="45.119" lon="5.81089">
        <ele>360.47</ele>
        <time>2019-03-25T13:06:38.000Z</time>
      </trkpt>
      <trkpt lat="45.11868" lon="5.81083">
        <ele>359.79</ele>
        <time>2019-03-25T13:06:43.000Z</time>
      </trkpt>
      <trkpt lat="45.11839" lon="5.81071">
        <ele>359.14</ele>
        <time>2019-03-25T13:06:48.000Z</time>
      </trkpt>
      <trkpt lat="45.11813" lon="5.81065">
        <ele>356.42</ele>
        <time>2019-03-25T13:06:53.000Z</time>
      </trkpt>
      <trkpt lat="45.11787" lon="5.81058">
        <ele>355.9</ele>
        <time>2019-03-25T13:06:58.000Z</time>
      </trkpt>
      <trkpt lat="45.11767" lon="5.81051">
        <ele>356.08</ele>
        <time>2019-03-25T13:07:03.000Z</time>
      </trkpt>
      <trkpt lat="45.11752" lon="5.81071">
        <ele>352.94</ele>
        <time>2019-03-25T13:07:08.000Z</time>
      </trkpt>
      <trkpt lat="45.11727" lon="5.81096">
        <ele>351.91</ele>
        <time>2019-03-25T13:07:13.000Z</time>
      </trkpt>
      <trkpt lat="45.11707" lon="5.81098">
        <ele>347.28</ele>
        <time>2019-03-25T13:07:18.000Z</time>
      </trkpt>
      <trkpt lat="45.1169" lon="5.81121">
        <ele>348.26</ele>
        <time>2019-03-25T13:07:23.000Z</time>
      </trkpt>
      <trkpt lat="45.11679" lon="5.81144">
        <ele>346.57</ele>
        <time>2019-03-25T13:07:28.000Z</time>
      </trkpt>
      <trkpt lat="45.11664" lon="5.81165">
        <ele>346.72</ele>
        <time>2019-03-25T13:07:33.000Z</time>
      </trkpt>
      <trkpt lat="45.11638" lon="5.8118">
        <ele>346.5</ele>
        <time>2019-03-25T13:07:38.000Z</time>
      </trkpt>
      <trkpt lat="45.11619" lon="5.81189">
        <ele>345.33</ele>
        <time>2019-03-25T13:07:43.000Z</time>
      </trkpt>
      <trkpt lat="45.11603" lon="5.81202">
        <ele>342.03</ele>
        <time>2019-03-25T13:07:48.000Z</time>
      </trkpt>
      <trkpt lat="45.1159" lon="5.81218">
        <ele>343.01</ele>
        <time>2019-03-25T13:07:53.000Z</time>
      </trkpt>
      <trkpt lat="45.11578" lon="5.81238">
        <ele>343.98</ele>
        <time>2019-03-25T13:07:58.000Z</time>
      </trkpt>
      <trkpt lat="45.11567" lon="5.81259">
        <ele>344.85</ele>
        <time>2019-03-25T13:08:03.000Z</time>
      </trkpt>
      <trkpt lat="45.11557" lon="5.8128">
        <ele>346.87</ele>
        <time>2019-03-25T13:08:08.000Z</time>
      </trkpt>
      <trkpt lat="45.11549" lon="5.81302">
        <ele>349.35</ele>
        <time>2019-03-25T13:08:13.000Z</time>
      </trkpt>
      <trkpt lat="45.11538" lon="5.8132">
        <ele>348.15</ele>
        <time>2019-03-25T13:08:18.000Z</time>
      </trkpt>
      <trkpt lat="45.11523" lon="5.81339">
        <ele>349.55</ele>
        <time>2019-03-25T13:08:23.000Z</time>
      </trkpt>
      <trkpt lat="45.11506" lon="5.81357">
        <ele>351.81</ele>
        <time>2019-03-25T13:08:28.000Z</time>
      </trkpt>
      <trkpt lat="45.11492" lon="5.81375">
        <ele>353.27</ele>
        <time>2019-03-25T13:08:33.000Z</time>
      </trkpt>
      <trkpt lat="45.11476" lon="5.81393">
        <ele>359.01</ele>
        <time>2019-03-25T13:08:38.000Z</time>
      </trkpt>
      <trkpt lat="45.11461" lon="5.81412">
        <ele>362.05</ele>
        <time>2019-03-25T13:08:43.000Z</time>
      </trkpt>
      <trkpt lat="45.11447" lon="5.81428">
        <ele>364.25</ele>
        <time>2019-03-25T13:08:48.000Z</time>
      </trkpt>
      <trkpt lat="45.11435" lon="5.81447">
        <ele>369.88</ele>
        <time>2019-03-25T13:08:53.000Z</time>
      </trkpt>
      <trkpt lat="45.11428" lon="5.81462">
        <ele>369.61</ele>
        <time>2019-03-25T13:08:58.000Z</time>
      </trkpt>
      <trkpt lat="45.11422" lon="5.81479">
        <ele>370.68</ele>
        <time>2019-03-25T13:09:03.000Z</time>
      </trkpt>
      <trkpt lat="45.11415" lon="5.81497">
        <ele>371.45</ele>
        <time>2019-03-25T13:09:08.000Z</time>
      </trkpt>
      <trkpt lat="45.11405" lon="5.8152">
        <ele>373.02</ele>
        <time>2019-03-25T13:09:13.000Z</time>
      </trkpt>
      <trkpt lat="45.11393" lon="5.81537">
        <ele>375.96</ele>
        <time>2019-03-25T13:09:18.000Z</time>
      </trkpt>
      <trkpt lat="45.11381" lon="5.81556">
        <ele>378.93</ele>
        <time>2019-03-25T13:09:23.000Z</time>
      </trkpt>
      <trkpt lat="45.11371" lon="5.81572">
        <ele>379.33</ele>
        <time>2019-03-25T13:09:28.000Z</time>
      </trkpt>
      <trkpt lat="45.11359" lon="5.81591">
        <ele>380.22</ele>
        <time>2019-03-25T13:09:33.000Z</time>
      </trkpt>
      <trkpt lat="45.11347" lon="5.81607">
        <ele>381.24</ele>
        <time>2019-03-25T13:09:38.000Z</time>
      </trkpt>
      <trkpt lat="45.11335" lon="5.81622">
        <ele>378.57</ele>
        <time>2019-03-25T13:09:43.000Z</time>
      </trkpt>
      <trkpt lat="45.11322" lon="5.81642">
        <ele>381.05</ele>
        <time>2019-03-25T13:09:48.000Z</time>
      </trkpt>
      <trkpt lat="45.1131" lon="5.81658">
        <ele>384.15</ele>
        <time>2019-03-25T13:09:53.000Z</time>
      </trkpt>
      <trkpt lat="45.11301" lon="5.81675">
        <ele>381.92</ele>
        <time>2019-03-25T13:09:58.000Z</time>
      </trkpt>
      <trkpt lat="45.11295" lon="5.81693">
        <ele>381.01</ele>
        <time>2019-03-25T13:10:03.000Z</time>
      </trkpt>
      <trkpt lat="45.11288" lon="5.81718">
        <ele>382.58</ele>
        <time>2019-03-25T13:10:08.000Z</time>
      </trkpt>
      <trkpt lat="45.11281" lon="5.8174">
        <ele>381.99</ele>
        <time>2019-03-25T13:10:13.000Z</time>
      </trkpt>
      <trkpt lat="45.11271" lon="5.81756">
        <ele>381.78</ele>
        <time>2019-03-25T13:10:18.000Z</time>
      </trkpt>
      <trkpt lat="45.11263" lon="5.81773">
        <ele>384.07</ele>
        <time>2019-03-25T13:10:23.000Z</time>
      </trkpt>
      <trkpt lat="45.11254" lon="5.81791">
        <ele>382.08</ele>
        <time>2019-03-25T13:10:28.000Z</time>
      </trkpt>
      <trkpt lat="45.1124" lon="5.81808">
        <ele>382.13</ele>
        <time>2019-03-25T13:10:33.000Z</time>
      </trkpt>
      <trkpt lat="45.11223" lon="5.81823">
        <ele>382.68</ele>
        <time>2019-03-25T13:10:38.000Z</time>
      </trkpt>
      <trkpt lat="45.11211" lon="5.81839">
        <ele>383.1</ele>
        <time>2019-03-25T13:10:43.000Z</time>
      </trkpt>
      <trkpt lat="45.11201" lon="5.81852">
        <ele>387.12</ele>
        <time>2019-03-25T13:10:48.000Z</time>
      </trkpt>
      <trkpt lat="45.11187" lon="5.81864">
        <ele>392.49</ele>
        <time>2019-03-25T13:10:53.000Z</time>
      </trkpt>
      <trkpt lat="45.11175" lon="5.81879">
        <ele>394.04</ele>
        <time>2019-03-25T13:10:58.000Z</time>
      </trkpt>
      <trkpt lat="45.11163" lon="5.81894">
        <ele>395.28</ele>
        <time>2019-03-25T13:11:03.000Z</time>
      </trkpt>
      <trkpt lat="45.11146" lon="5.81904">
        <ele>401.21</ele>
        <time>2019-03-25T13:11:08.000Z</time>
      </trkpt>
      <trkpt lat="45.11131" lon="5.81905">
        <ele>402.51</ele>
        <time>2019-03-25T13:11:13.000Z</time>
      </trkpt>
      <trkpt lat="45.11113" lon="5.81897">
        <ele>404.12</ele>
        <time>2019-03-25T13:11:18.000Z</time>
      </trkpt>
      <trkpt lat="45.11095" lon="5.81886">
        <ele>406.49</ele>
        <time>2019-03-25T13:11:23.000Z</time>
      </trkpt>
      <trkpt lat="45.1108" lon="5.81875">
        <ele>408.82</ele>
        <time>2019-03-25T13:11:28.000Z</time>
      </trkpt>
      <trkpt lat="45.11065" lon="5.81861">
        <ele>412.32</ele>
        <time>2019-03-25T13:11:33.000Z</time>
      </trkpt>
      <trkpt lat="45.11036" lon="5.81858">
        <ele>410.86</ele>
        <time>2019-03-25T13:11:38.000Z</time>
      </trkpt>
      <trkpt lat="45.1102" lon="5.81875">
        <ele>415.9</ele>
        <time>2019-03-25T13:11:43.000Z</time>
      </trkpt>
      <trkpt lat="45.11015" lon="5.819">
        <ele>423.79</ele>
        <time>2019-03-25T13:11:48.000Z</time>
      </trkpt>
      <trkpt lat="45.11006" lon="5.81919">
        <ele>420.87</ele>
        <time>2019-03-25T13:11:53.000Z</time>
      </trkpt>
      <trkpt lat="45.11004" lon="5.81941">
        <ele>426.37</ele>
        <time>2019-03-25T13:11:58.000Z</time>
      </trkpt>
      <trkpt lat="45.11002" lon="5.81966">
        <ele>430.03</ele>
        <time>2019-03-25T13:12:03.000Z</time>
      </trkpt>
      <trkpt lat="45.11006" lon="5.81992">
        <ele>433.84</ele>
        <time>2019-03-25T13:12:08.000Z</time>
      </trkpt>
      <trkpt lat="45.11008" lon="5.82017">
        <ele>435.86</ele>
        <time>2019-03-25T13:12:13.000Z</time>
      </trkpt>
      <trkpt lat="45.11007" lon="5.82042">
        <ele>435.14</ele>
        <time>2019-03-25T13:12:18.000Z</time>
      </trkpt>
      <trkpt lat="45.11009" lon="5.82068">
        <ele>436.87</ele>
        <time>2019-03-25T13:12:23.000Z</time>
      </trkpt>
      <trkpt lat="45.11008" lon="5.82094">
        <ele>441.24</ele>
        <time>2019-03-25T13:12:28.000Z</time>
      </trkpt>
      <trkpt lat="45.11005" lon="5.82117">
        <ele>446.77</ele>
        <time>2019-03-25T13:12:33.000Z</time>
      </trkpt>
      <trkpt lat="45.11002" lon="5.82138">
        <ele>447.75</ele>
        <time>2019-03-25T13:12:38.000Z</time>
      </trkpt>
      <trkpt lat="45.10997" lon="5.8216">
        <ele>450.29</ele>
        <time>2019-03-25T13:12:43.000Z</time>
      </trkpt>
      <trkpt lat="45.10996" lon="5.82182">
        <ele>450.81</ele>
        <time>2019-03-25T13:12:48.000Z</time>
      </trkpt>
      <trkpt lat="45.10995" lon="5.82203">
        <ele>452.92</ele>
        <time>2019-03-25T13:12:53.000Z</time>
      </trkpt>
      <trkpt lat="45.11006" lon="5.82217">
        <ele>455.08</ele>
        <time>2019-03-25T13:12:58.000Z</time>
      </trkpt>
      <trkpt lat="45.11021" lon="5.82228">
        <ele>456.38</ele>
        <time>2019-03-25T13:13:03.000Z</time>
      </trkpt>
      <trkpt lat="45.11038" lon="5.82242">
        <ele>457.79</ele>
        <time>2019-03-25T13:13:08.000Z</time>
      </trkpt>
      <trkpt lat="45.11053" lon="5.82251">
        <ele>458.56</ele>
        <time>2019-03-25T13:13:13.000Z</time>
      </trkpt>
      <trkpt lat="45.11068" lon="5.82256">
        <ele>457.58</ele>
        <time>2019-03-25T13:13:18.000Z</time>
      </trkpt>
      <trkpt lat="45.11089" lon="5.82253">
        <ele>459.71</ele>
        <time>2019-03-25T13:13:23.000Z</time>
      </trkpt>
      <trkpt lat="45.11104" lon="5.82247">
        <ele>460.67</ele>
        <time>2019-03-25T13:13:28.000Z</time>
      </trkpt>
      <trkpt lat="45.1111" lon="5.82228">
        <ele>462.74</ele>
        <time>2019-03-25T13:13:33.000Z</time>
      </trkpt>
      <trkpt lat="45.11113" lon="5.822">
        <ele>462.06</ele>
        <time>2019-03-25T13:13:38.000Z</time>
      </trkpt>
      <trkpt lat="45.11131" lon="5.82156">
        <ele>457.06</ele>
        <time>2019-03-25T13:13:43.000Z</time>
      </trkpt>
      <trkpt lat="45.11138" lon="5.82146">
        <ele>457.79</ele>
        <time>2019-03-25T13:13:50.000Z</time>
      </trkpt>
      <trkpt lat="45.11151" lon="5.82125">
        <ele>453.54</ele>
        <time>2019-03-25T13:13:55.000Z</time>
      </trkpt>
      <trkpt lat="45.11165" lon="5.82114">
        <ele>452.36</ele>
        <time>2019-03-25T13:14:00.000Z</time>
      </trkpt>
      <trkpt lat="45.11184" lon="5.82108">
        <ele>448.67</ele>
        <time>2019-03-25T13:14:05.000Z</time>
      </trkpt>
      <trkpt lat="45.11204" lon="5.82096">
        <ele>457.76</ele>
        <time>2019-03-25T13:14:10.000Z</time>
      </trkpt>
      <trkpt lat="45.11218" lon="5.82073">
        <ele>467.95</ele>
        <time>2019-03-25T13:14:15.000Z</time>
      </trkpt>
      <trkpt lat="45.11233" lon="5.82054">
        <ele>474.15</ele>
        <time>2019-03-25T13:14:20.000Z</time>
      </trkpt>
      <trkpt lat="45.11249" lon="5.82039">
        <ele>478.3</ele>
        <time>2019-03-25T13:14:25.000Z</time>
      </trkpt>
      <trkpt lat="45.11266" lon="5.82033">
        <ele>480.34</ele>
        <time>2019-03-25T13:14:30.000Z</time>
      </trkpt>
      <trkpt lat="45.11284" lon="5.82033">
        <ele>482.05</ele>
        <time>2019-03-25T13:14:35.000Z</time>
      </trkpt>
      <trkpt lat="45.11303" lon="5.82035">
        <ele>483.53</ele>
        <time>2019-03-25T13:14:40.000Z</time>
      </trkpt>
      <trkpt lat="45.11322" lon="5.82038">
        <ele>486.76</ele>
        <time>2019-03-25T13:14:45.000Z</time>
      </trkpt>
      <trkpt lat="45.11339" lon="5.82043">
        <ele>488.94</ele>
        <time>2019-03-25T13:14:50.000Z</time>
      </trkpt>
      <trkpt lat="45.11351" lon="5.82056">
        <ele>491.26</ele>
        <time>2019-03-25T13:14:55.000Z</time>
      </trkpt>
      <trkpt lat="45.11357" lon="5.82072">
        <ele>493.59</ele>
        <time>2019-03-25T13:15:00.000Z</time>
      </trkpt>
      <trkpt lat="45.11354" lon="5.82092">
        <ele>495.2</ele>
        <time>2019-03-25T13:15:05.000Z</time>
      </trkpt>
      <trkpt lat="45.11349" lon="5.82114">
        <ele>496.09</ele>
        <time>2019-03-25T13:15:10.000Z</time>
      </trkpt>
      <trkpt lat="45.11345" lon="5.82136">
        <ele>498.59</ele>
        <time>2019-03-25T13:15:15.000Z</time>
      </trkpt>
      <trkpt lat="45.11345" lon="5.82159">
        <ele>499.72</ele>
        <time>2019-03-25T13:15:20.000Z</time>
      </trkpt>
      <trkpt lat="45.11346" lon="5.82181">
        <ele>503.38</ele>
        <time>2019-03-25T13:15:25.000Z</time>
      </trkpt>
      <trkpt lat="45.11352" lon="5.82202">
        <ele>504.65</ele>
        <time>2019-03-25T13:15:30.000Z</time>
      </trkpt>
      <trkpt lat="45.11361" lon="5.82208">
        <ele>504.65</ele>
        <time>2019-03-25T13:16:55.000Z</time>
      </trkpt>
      <trkpt lat="45.11375" lon="5.82219">
        <ele>510.3</ele>
        <time>2019-03-25T13:17:00.000Z</time>
      </trkpt>
      <trkpt lat="45.11391" lon="5.82229">
        <ele>510.82</ele>
        <time>2019-03-25T13:17:05.000Z</time>
      </trkpt>
      <trkpt lat="45.11412" lon="5.82241">
        <ele>511.71</ele>
        <time>2019-03-25T13:17:10.000Z</time>
      </trkpt>
      <trkpt lat="45.11434" lon="5.82251">
        <ele>509.52</ele>
        <time>2019-03-25T13:17:15.000Z</time>
      </trkpt>
      <trkpt lat="45.11454" lon="5.82263">
        <ele>508.94</ele>
        <time>2019-03-25T13:17:20.000Z</time>
      </trkpt>
      <trkpt lat="45.11479" lon="5.82276">
        <ele>507.35</ele>
        <time>2019-03-25T13:17:25.000Z</time>
      </trkpt>
      <trkpt lat="45.11497" lon="5.82287">
        <ele>508.16</ele>
        <time>2019-03-25T13:17:30.000Z</time>
      </trkpt>
      <trkpt lat="45.11519" lon="5.82303">
        <ele>511.56</ele>
        <time>2019-03-25T13:17:35.000Z</time>
      </trkpt>
      <trkpt lat="45.11544" lon="5.82317">
        <ele>511.02</ele>
        <time>2019-03-25T13:17:40.000Z</time>
      </trkpt>
      <trkpt lat="45.11566" lon="5.82331">
        <ele>508.35</ele>
        <time>2019-03-25T13:17:45.000Z</time>
      </trkpt>
      <trkpt lat="45.11586" lon="5.82342">
        <ele>508.24</ele>
        <time>2019-03-25T13:17:50.000Z</time>
      </trkpt>
      <trkpt lat="45.11607" lon="5.82353">
        <ele>505.45</ele>
        <time>2019-03-25T13:17:55.000Z</time>
      </trkpt>
      <trkpt lat="45.11626" lon="5.82367">
        <ele>506.11</ele>
        <time>2019-03-25T13:18:00.000Z</time>
      </trkpt>
      <trkpt lat="45.11648" lon="5.8238">
        <ele>507.07</ele>
        <time>2019-03-25T13:18:05.000Z</time>
      </trkpt>
      <trkpt lat="45.11666" lon="5.82393">
        <ele>509.22</ele>
        <time>2019-03-25T13:18:10.000Z</time>
      </trkpt>
      <trkpt lat="45.11684" lon="5.82407">
        <ele>511.99</ele>
        <time>2019-03-25T13:18:15.000Z</time>
      </trkpt>
      <trkpt lat="45.11701" lon="5.82423">
        <ele>516.64</ele>
        <time>2019-03-25T13:18:20.000Z</time>
      </trkpt>
      <trkpt lat="45.11718" lon="5.82437">
        <ele>520.51</ele>
        <time>2019-03-25T13:18:25.000Z</time>
      </trkpt>
      <trkpt lat="45.11732" lon="5.82457">
        <ele>520.04</ele>
        <time>2019-03-25T13:18:30.000Z</time>
      </trkpt>
      <trkpt lat="45.11746" lon="5.82483">
        <ele>520.56</ele>
        <time>2019-03-25T13:18:35.000Z</time>
      </trkpt>
      <trkpt lat="45.1176" lon="5.82501">
        <ele>522.62</ele>
        <time>2019-03-25T13:18:40.000Z</time>
      </trkpt>
      <trkpt lat="45.1177" lon="5.8252">
        <ele>524.48</ele>
        <time>2019-03-25T13:18:45.000Z</time>
      </trkpt>
      <trkpt lat="45.11779" lon="5.82542">
        <ele>528.01</ele>
        <time>2019-03-25T13:18:50.000Z</time>
      </trkpt>
      <trkpt lat="45.11792" lon="5.8257">
        <ele>531.88</ele>
        <time>2019-03-25T13:18:55.000Z</time>
      </trkpt>
      <trkpt lat="45.11803" lon="5.82593">
        <ele>533.16</ele>
        <time>2019-03-25T13:19:00.000Z</time>
      </trkpt>
      <trkpt lat="45.11817" lon="5.82617">
        <ele>535.48</ele>
        <time>2019-03-25T13:19:05.000Z</time>
      </trkpt>
      <trkpt lat="45.11829" lon="5.82642">
        <ele>538.1</ele>
        <time>2019-03-25T13:19:10.000Z</time>
      </trkpt>
      <trkpt lat="45.11839" lon="5.82666">
        <ele>538.88</ele>
        <time>2019-03-25T13:19:15.000Z</time>
      </trkpt>
      <trkpt lat="45.11855" lon="5.82692">
        <ele>539.94</ele>
        <time>2019-03-25T13:19:20.000Z</time>
      </trkpt>
      <trkpt lat="45.11871" lon="5.8272">
        <ele>539.34</ele>
        <time>2019-03-25T13:19:25.000Z</time>
      </trkpt>
      <trkpt lat="45.11886" lon="5.82742">
        <ele>536.9</ele>
        <time>2019-03-25T13:19:30.000Z</time>
      </trkpt>
      <trkpt lat="45.11898" lon="5.82759">
        <ele>538.18</ele>
        <time>2019-03-25T13:19:35.000Z</time>
      </trkpt>
      <trkpt lat="45.11914" lon="5.82782">
        <ele>539.47</ele>
        <time>2019-03-25T13:19:40.000Z</time>
      </trkpt>
      <trkpt lat="45.11927" lon="5.82798">
        <ele>539.98</ele>
        <time>2019-03-25T13:19:45.000Z</time>
      </trkpt>
      <trkpt lat="45.11946" lon="5.82812">
        <ele>542.4</ele>
        <time>2019-03-25T13:19:50.000Z</time>
      </trkpt>
      <trkpt lat="45.11961" lon="5.82831">
        <ele>542.92</ele>
        <time>2019-03-25T13:19:55.000Z</time>
      </trkpt>
      <trkpt lat="45.1197" lon="5.82843">
        <ele>543.85</ele>
        <time>2019-03-25T13:20:00.000Z</time>
      </trkpt>
      <trkpt lat="45.11987" lon="5.82845">
        <ele>542.69</ele>
        <time>2019-03-25T13:20:05.000Z</time>
      </trkpt>
      <trkpt lat="45.12013" lon="5.82852">
        <ele>540.58</ele>
        <time>2019-03-25T13:20:10.000Z</time>
      </trkpt>
      <trkpt lat="45.12034" lon="5.82862">
        <ele>541.7</ele>
        <time>2019-03-25T13:20:15.000Z</time>
      </trkpt>
      <trkpt lat="45.12058" lon="5.82874">
        <ele>541.99</ele>
        <time>2019-03-25T13:20:20.000Z</time>
      </trkpt>
      <trkpt lat="45.1208" lon="5.8289">
        <ele>542.12</ele>
        <time>2019-03-25T13:20:25.000Z</time>
      </trkpt>
      <trkpt lat="45.1211" lon="5.82911">
        <ele>541.72</ele>
        <time>2019-03-25T13:20:30.000Z</time>
      </trkpt>
      <trkpt lat="45.1214" lon="5.82927">
        <ele>541.63</ele>
        <time>2019-03-25T13:20:35.000Z</time>
      </trkpt>
      <trkpt lat="45.12173" lon="5.82935">
        <ele>539.34</ele>
        <time>2019-03-25T13:20:40.000Z</time>
      </trkpt>
      <trkpt lat="45.12199" lon="5.82946">
        <ele>541.39</ele>
        <time>2019-03-25T13:20:45.000Z</time>
      </trkpt>
      <trkpt lat="45.12231" lon="5.82965">
        <ele>541.22</ele>
        <time>2019-03-25T13:20:50.000Z</time>
      </trkpt>
      <trkpt lat="45.12239" lon="5.82972">
        <ele>540.71</ele>
        <time>2019-03-25T13:20:55.000Z</time>
      </trkpt>
      <trkpt lat="45.12256" lon="5.82987">
        <ele>541.32</ele>
        <time>2019-03-25T13:21:00.000Z</time>
      </trkpt>
      <trkpt lat="45.1228" lon="5.83">
        <ele>539.55</ele>
        <time>2019-03-25T13:21:05.000Z</time>
      </trkpt>
      <trkpt lat="45.12302" lon="5.83012">
        <ele>540.6</ele>
        <time>2019-03-25T13:21:10.000Z</time>
      </trkpt>
      <trkpt lat="45.12322" lon="5.83022">
        <ele>542.42</ele>
        <time>2019-03-25T13:21:15.000Z</time>
      </trkpt>
      <trkpt lat="45.12345" lon="5.83034">
        <ele>541.31</ele>
        <time>2019-03-25T13:21:20.000Z</time>
      </trkpt>
      <trkpt lat="45.12367" lon="5.83042">
        <ele>539.89</ele>
        <time>2019-03-25T13:21:25.000Z</time>
      </trkpt>
      <trkpt lat="45.12384" lon="5.83065">
        <ele>542.53</ele>
        <time>2019-03-25T13:21:30.000Z</time>
      </trkpt>
      <trkpt lat="45.12402" lon="5.83088">
        <ele>539.1</ele>
        <time>2019-03-25T13:21:35.000Z</time>
      </trkpt>
      <trkpt lat="45.12424" lon="5.83103">
        <ele>538.94</ele>
        <time>2019-03-25T13:21:40.000Z</time>
      </trkpt>
      <trkpt lat="45.12452" lon="5.83121">
        <ele>538.8</ele>
        <time>2019-03-25T13:21:45.000Z</time>
      </trkpt>
      <trkpt lat="45.12478" lon="5.83139">
        <ele>543.9</ele>
        <time>2019-03-25T13:21:50.000Z</time>
      </trkpt>
      <trkpt lat="45.12496" lon="5.83151">
        <ele>544.22</ele>
        <time>2019-03-25T13:21:55.000Z</time>
      </trkpt>
      <trkpt lat="45.12513" lon="5.83169">
        <ele>541.79</ele>
        <time>2019-03-25T13:22:00.000Z</time>
      </trkpt>
      <trkpt lat="45.1253" lon="5.83189">
        <ele>542.17</ele>
        <time>2019-03-25T13:22:05.000Z</time>
      </trkpt>
      <trkpt lat="45.12553" lon="5.8321">
        <ele>541.73</ele>
        <time>2019-03-25T13:22:10.000Z</time>
      </trkpt>
      <trkpt lat="45.12573" lon="5.83233">
        <ele>543.07</ele>
        <time>2019-03-25T13:22:15.000Z</time>
      </trkpt>
      <trkpt lat="45.12595" lon="5.83259">
        <ele>543.99</ele>
        <time>2019-03-25T13:22:20.000Z</time>
      </trkpt>
      <trkpt lat="45.12618" lon="5.83281">
        <ele>544.72</ele>
        <time>2019-03-25T13:22:25.000Z</time>
      </trkpt>
      <trkpt lat="45.1264" lon="5.83307">
        <ele>543.71</ele>
        <time>2019-03-25T13:22:30.000Z</time>
      </trkpt>
      <trkpt lat="45.12658" lon="5.83336">
        <ele>542.37</ele>
        <time>2019-03-25T13:22:35.000Z</time>
      </trkpt>
      <trkpt lat="45.12675" lon="5.83361">
        <ele>544.74</ele>
        <time>2019-03-25T13:22:40.000Z</time>
      </trkpt>
      <trkpt lat="45.12687" lon="5.83386">
        <ele>543.84</ele>
        <time>2019-03-25T13:22:45.000Z</time>
      </trkpt>
      <trkpt lat="45.12704" lon="5.83415">
        <ele>543.15</ele>
        <time>2019-03-25T13:22:50.000Z</time>
      </trkpt>
      <trkpt lat="45.1272" lon="5.83448">
        <ele>547.48</ele>
        <time>2019-03-25T13:22:55.000Z</time>
      </trkpt>
      <trkpt lat="45.12736" lon="5.83475">
        <ele>546.7</ele>
        <time>2019-03-25T13:23:00.000Z</time>
      </trkpt>
      <trkpt lat="45.1275" lon="5.83495">
        <ele>546.78</ele>
        <time>2019-03-25T13:23:05.000Z</time>
      </trkpt>
      <trkpt lat="45.12777" lon="5.83498">
        <ele>551.04</ele>
        <time>2019-03-25T13:23:10.000Z</time>
      </trkpt>
      <trkpt lat="45.12806" lon="5.83504">
        <ele>551.93</ele>
        <time>2019-03-25T13:23:15.000Z</time>
      </trkpt>
      <trkpt lat="45.12833" lon="5.83514">
        <ele>553.55</ele>
        <time>2019-03-25T13:23:20.000Z</time>
      </trkpt>
      <trkpt lat="45.12857" lon="5.83516">
        <ele>553.13</ele>
        <time>2019-03-25T13:23:25.000Z</time>
      </trkpt>
      <trkpt lat="45.12879" lon="5.83526">
        <ele>552.81</ele>
        <time>2019-03-25T13:23:30.000Z</time>
      </trkpt>
      <trkpt lat="45.12901" lon="5.83542">
        <ele>555.46</ele>
        <time>2019-03-25T13:23:35.000Z</time>
      </trkpt>
      <trkpt lat="45.12918" lon="5.83565">
        <ele>556.92</ele>
        <time>2019-03-25T13:23:40.000Z</time>
      </trkpt>
      <trkpt lat="45.12933" lon="5.83582">
        <ele>558.34</ele>
        <time>2019-03-25T13:23:45.000Z</time>
      </trkpt>
      <trkpt lat="45.12951" lon="5.83593">
        <ele>558.96</ele>
        <time>2019-03-25T13:23:50.000Z</time>
      </trkpt>
      <trkpt lat="45.12974" lon="5.83595">
        <ele>563.09</ele>
        <time>2019-03-25T13:23:55.000Z</time>
      </trkpt>
      <trkpt lat="45.12996" lon="5.83598">
        <ele>561.54</ele>
        <time>2019-03-25T13:24:00.000Z</time>
      </trkpt>
      <trkpt lat="45.13013" lon="5.83614">
        <ele>562.75</ele>
        <time>2019-03-25T13:24:05.000Z</time>
      </trkpt>
      <trkpt lat="45.13027" lon="5.83643">
        <ele>564.19</ele>
        <time>2019-03-25T13:24:10.000Z</time>
      </trkpt>
      <trkpt lat="45.13042" lon="5.83671">
        <ele>568.12</ele>
        <time>2019-03-25T13:24:15.000Z</time>
      </trkpt>
      <trkpt lat="45.13049" lon="5.83696">
        <ele>566.73</ele>
        <time>2019-03-25T13:24:20.000Z</time>
      </trkpt>
      <trkpt lat="45.1306" lon="5.83724">
        <ele>568.09</ele>
        <time>2019-03-25T13:24:25.000Z</time>
      </trkpt>
      <trkpt lat="45.1307" lon="5.83745">
        <ele>567.29</ele>
        <time>2019-03-25T13:24:30.000Z</time>
      </trkpt>
      <trkpt lat="45.13085" lon="5.83763">
        <ele>570.5</ele>
        <time>2019-03-25T13:24:35.000Z</time>
      </trkpt>
      <trkpt lat="45.1311" lon="5.8378">
        <ele>569.93</ele>
        <time>2019-03-25T13:24:40.000Z</time>
      </trkpt>
      <trkpt lat="45.13134" lon="5.8379">
        <ele>568.7</ele>
        <time>2019-03-25T13:24:45.000Z</time>
      </trkpt>
      <trkpt lat="45.13149" lon="5.8378">
        <ele>564.03</ele>
        <time>2019-03-25T13:24:50.000Z</time>
      </trkpt>
      <trkpt lat="45.13164" lon="5.83767">
        <ele>565.04</ele>
        <time>2019-03-25T13:24:55.000Z</time>
      </trkpt>
      <trkpt lat="45.13179" lon="5.83757">
        <ele>567.29</ele>
        <time>2019-03-25T13:25:00.000Z</time>
      </trkpt>
      <trkpt lat="45.13193" lon="5.83748">
        <ele>568.91</ele>
        <time>2019-03-25T13:25:05.000Z</time>
      </trkpt>
      <trkpt lat="45.13212" lon="5.83746">
        <ele>569.51</ele>
        <time>2019-03-25T13:25:10.000Z</time>
      </trkpt>
      <trkpt lat="45.13238" lon="5.83753">
        <ele>568.05</ele>
        <time>2019-03-25T13:25:15.000Z</time>
      </trkpt>
      <trkpt lat="45.13264" lon="5.83759">
        <ele>570.66</ele>
        <time>2019-03-25T13:25:20.000Z</time>
      </trkpt>
      <trkpt lat="45.13293" lon="5.83767">
        <ele>571.22</ele>
        <time>2019-03-25T13:25:25.000Z</time>
      </trkpt>
      <trkpt lat="45.13319" lon="5.8378">
        <ele>570.3</ele>
        <time>2019-03-25T13:25:30.000Z</time>
      </trkpt>
      <trkpt lat="45.13346" lon="5.8379">
        <ele>568.35</ele>
        <time>2019-03-25T13:25:35.000Z</time>
      </trkpt>
      <trkpt lat="45.13373" lon="5.83799">
        <ele>570.02</ele>
        <time>2019-03-25T13:25:40.000Z</time>
      </trkpt>
      <trkpt lat="45.13402" lon="5.83812">
        <ele>570.01</ele>
        <time>2019-03-25T13:25:45.000Z</time>
      </trkpt>
      <trkpt lat="45.13429" lon="5.83822">
        <ele>569.55</ele>
        <time>2019-03-25T13:25:50.000Z</time>
      </trkpt>
      <trkpt lat="45.13457" lon="5.83832">
        <ele>569.04</ele>
        <time>2019-03-25T13:25:55.000Z</time>
      </trkpt>
      <trkpt lat="45.13482" lon="5.8384">
        <ele>570.43</ele>
        <time>2019-03-25T13:26:00.000Z</time>
      </trkpt>
      <trkpt lat="45.13505" lon="5.83849">
        <ele>569.62</ele>
        <time>2019-03-25T13:26:05.000Z</time>
      </trkpt>
      <trkpt lat="45.13532" lon="5.8386">
        <ele>569.17</ele>
        <time>2019-03-25T13:26:10.000Z</time>
      </trkpt>
      <trkpt lat="45.13556" lon="5.83875">
        <ele>565.33</ele>
        <time>2019-03-25T13:26:15.000Z</time>
      </trkpt>
      <trkpt lat="45.13588" lon="5.83887">
        <ele>562.04</ele>
        <time>2019-03-25T13:26:20.000Z</time>
      </trkpt>
      <trkpt lat="45.13624" lon="5.83902">
        <ele>562.74</ele>
        <time>2019-03-25T13:26:25.000Z</time>
      </trkpt>
      <trkpt lat="45.13654" lon="5.8392">
        <ele>560.34</ele>
        <time>2019-03-25T13:26:30.000Z</time>
      </trkpt>
      <trkpt lat="45.13679" lon="5.83928">
        <ele>561.16</ele>
        <time>2019-03-25T13:26:35.000Z</time>
      </trkpt>
      <trkpt lat="45.13704" lon="5.83934">
        <ele>563.94</ele>
        <time>2019-03-25T13:26:40.000Z</time>
      </trkpt>
      <trkpt lat="45.13727" lon="5.83944">
        <ele>565.31</ele>
        <time>2019-03-25T13:26:45.000Z</time>
      </trkpt>
      <trkpt lat="45.13748" lon="5.83949">
        <ele>567.05</ele>
        <time>2019-03-25T13:26:50.000Z</time>
      </trkpt>
      <trkpt lat="45.13763" lon="5.83944">
        <ele>569.08</ele>
        <time>2019-03-25T13:26:55.000Z</time>
      </trkpt>
      <trkpt lat="45.13778" lon="5.83956">
        <ele>570.37</ele>
        <time>2019-03-25T13:27:00.000Z</time>
      </trkpt>
      <trkpt lat="45.13798" lon="5.83972">
        <ele>569.88</ele>
        <time>2019-03-25T13:27:05.000Z</time>
      </trkpt>
      <trkpt lat="45.13819" lon="5.83985">
        <ele>570.56</ele>
        <time>2019-03-25T13:27:10.000Z</time>
      </trkpt>
      <trkpt lat="45.13837" lon="5.83993">
        <ele>569.69</ele>
        <time>2019-03-25T13:27:15.000Z</time>
      </trkpt>
      <trkpt lat="45.13859" lon="5.84001">
        <ele>570.9</ele>
        <time>2019-03-25T13:27:20.000Z</time>
      </trkpt>
      <trkpt lat="45.13878" lon="5.84006">
        <ele>571.03</ele>
        <time>2019-03-25T13:27:25.000Z</time>
      </trkpt>
      <trkpt lat="45.13899" lon="5.84013">
        <ele>571.4</ele>
        <time>2019-03-25T13:27:30.000Z</time>
      </trkpt>
      <trkpt lat="45.13918" lon="5.84027">
        <ele>570.69</ele>
        <time>2019-03-25T13:27:35.000Z</time>
      </trkpt>
      <trkpt lat="45.13937" lon="5.84044">
        <ele>568.98</ele>
        <time>2019-03-25T13:27:40.000Z</time>
      </trkpt>
      <trkpt lat="45.13955" lon="5.84057">
        <ele>568.7</ele>
        <time>2019-03-25T13:27:45.000Z</time>
      </trkpt>
      <trkpt lat="45.13975" lon="5.84062">
        <ele>568.9</ele>
        <time>2019-03-25T13:27:50.000Z</time>
      </trkpt>
      <trkpt lat="45.13998" lon="5.8407">
        <ele>570.72</ele>
        <time>2019-03-25T13:27:55.000Z</time>
      </trkpt>
      <trkpt lat="45.14021" lon="5.84075">
        <ele>573.77</ele>
        <time>2019-03-25T13:28:00.000Z</time>
      </trkpt>
      <trkpt lat="45.14042" lon="5.84081">
        <ele>572.96</ele>
        <time>2019-03-25T13:28:05.000Z</time>
      </trkpt>
      <trkpt lat="45.14065" lon="5.84086">
        <ele>573.08</ele>
        <time>2019-03-25T13:28:10.000Z</time>
      </trkpt>
      <trkpt lat="45.14093" lon="5.8407">
        <ele>578.47</ele>
        <time>2019-03-25T13:28:15.000Z</time>
      </trkpt>
      <trkpt lat="45.14118" lon="5.84061">
        <ele>579.14</ele>
        <time>2019-03-25T13:28:20.000Z</time>
      </trkpt>
      <trkpt lat="45.14149" lon="5.84047">
        <ele>576.05</ele>
        <time>2019-03-25T13:28:25.000Z</time>
      </trkpt>
      <trkpt lat="45.14178" lon="5.84035">
        <ele>576.27</ele>
        <time>2019-03-25T13:28:30.000Z</time>
      </trkpt>
      <trkpt lat="45.14209" lon="5.84044">
        <ele>572.22</ele>
        <time>2019-03-25T13:28:35.000Z</time>
      </trkpt>
      <trkpt lat="45.14232" lon="5.84067">
        <ele>574.83</ele>
        <time>2019-03-25T13:28:40.000Z</time>
      </trkpt>
      <trkpt lat="45.14244" lon="5.84106">
        <ele>576.27</ele>
        <time>2019-03-25T13:28:45.000Z</time>
      </trkpt>
      <trkpt lat="45.14262" lon="5.8414">
        <ele>575.86</ele>
        <time>2019-03-25T13:28:50.000Z</time>
      </trkpt>
      <trkpt lat="45.1429" lon="5.84138">
        <ele>577.68</ele>
        <time>2019-03-25T13:28:55.000Z</time>
      </trkpt>
      <trkpt lat="45.14317" lon="5.84111">
        <ele>579.13</ele>
        <time>2019-03-25T13:29:00.000Z</time>
      </trkpt>
      <trkpt lat="45.14336" lon="5.84089">
        <ele>578.72</ele>
        <time>2019-03-25T13:29:05.000Z</time>
      </trkpt>
      <trkpt lat="45.14353" lon="5.84068">
        <ele>579.02</ele>
        <time>2019-03-25T13:29:10.000Z</time>
      </trkpt>
      <trkpt lat="45.14369" lon="5.84049">
        <ele>578</ele>
        <time>2019-03-25T13:29:15.000Z</time>
      </trkpt>
      <trkpt lat="45.14392" lon="5.84021">
        <ele>580.22</ele>
        <time>2019-03-25T13:29:20.000Z</time>
      </trkpt>
      <trkpt lat="45.14401" lon="5.83993">
        <ele>580.07</ele>
        <time>2019-03-25T13:29:25.000Z</time>
      </trkpt>
      <trkpt lat="45.14414" lon="5.83971">
        <ele>582.41</ele>
        <time>2019-03-25T13:29:30.000Z</time>
      </trkpt>
      <trkpt lat="45.14439" lon="5.83969">
        <ele>582.68</ele>
        <time>2019-03-25T13:29:35.000Z</time>
      </trkpt>
      <trkpt lat="45.14465" lon="5.83957">
        <ele>582.91</ele>
        <time>2019-03-25T13:29:40.000Z</time>
      </trkpt>
      <trkpt lat="45.14495" lon="5.8395">
        <ele>581.33</ele>
        <time>2019-03-25T13:29:45.000Z</time>
      </trkpt>
      <trkpt lat="45.14522" lon="5.83932">
        <ele>583.51</ele>
        <time>2019-03-25T13:29:50.000Z</time>
      </trkpt>
      <trkpt lat="45.14549" lon="5.8392">
        <ele>583.48</ele>
        <time>2019-03-25T13:29:55.000Z</time>
      </trkpt>
      <trkpt lat="45.14581" lon="5.83906">
        <ele>584.75</ele>
        <time>2019-03-25T13:30:00.000Z</time>
      </trkpt>
      <trkpt lat="45.14612" lon="5.83901">
        <ele>580.63</ele>
        <time>2019-03-25T13:30:05.000Z</time>
      </trkpt>
      <trkpt lat="45.14643" lon="5.83899">
        <ele>584.18</ele>
        <time>2019-03-25T13:30:10.000Z</time>
      </trkpt>
      <trkpt lat="45.14677" lon="5.83907">
        <ele>584.41</ele>
        <time>2019-03-25T13:30:15.000Z</time>
      </trkpt>
      <trkpt lat="45.14704" lon="5.83911">
        <ele>584.89</ele>
        <time>2019-03-25T13:30:20.000Z</time>
      </trkpt>
      <trkpt lat="45.14734" lon="5.83908">
        <ele>586.58</ele>
        <time>2019-03-25T13:30:25.000Z</time>
      </trkpt>
      <trkpt lat="45.14765" lon="5.83905">
        <ele>589.01</ele>
        <time>2019-03-25T13:30:30.000Z</time>
      </trkpt>
      <trkpt lat="45.14793" lon="5.83893">
        <ele>590.72</ele>
        <time>2019-03-25T13:30:35.000Z</time>
      </trkpt>
      <trkpt lat="45.14825" lon="5.83884">
        <ele>588.01</ele>
        <time>2019-03-25T13:30:40.000Z</time>
      </trkpt>
      <trkpt lat="45.14852" lon="5.83875">
        <ele>591.58</ele>
        <time>2019-03-25T13:30:45.000Z</time>
      </trkpt>
      <trkpt lat="45.14884" lon="5.83865">
        <ele>590.06</ele>
        <time>2019-03-25T13:30:50.000Z</time>
      </trkpt>
      <trkpt lat="45.14911" lon="5.83852">
        <ele>590</ele>
        <time>2019-03-25T13:30:55.000Z</time>
      </trkpt>
      <trkpt lat="45.14938" lon="5.83837">
        <ele>587.85</ele>
        <time>2019-03-25T13:31:00.000Z</time>
      </trkpt>
      <trkpt lat="45.1497" lon="5.83824">
        <ele>587.33</ele>
        <time>2019-03-25T13:31:05.000Z</time>
      </trkpt>
      <trkpt lat="45.14997" lon="5.83809">
        <ele>586.75</ele>
        <time>2019-03-25T13:31:10.000Z</time>
      </trkpt>
      <trkpt lat="45.15029" lon="5.83794">
        <ele>587.3</ele>
        <time>2019-03-25T13:31:15.000Z</time>
      </trkpt>
      <trkpt lat="45.15056" lon="5.8377">
        <ele>586.05</ele>
        <time>2019-03-25T13:31:20.000Z</time>
      </trkpt>
      <trkpt lat="45.15075" lon="5.83751">
        <ele>584.95</ele>
        <time>2019-03-25T13:31:25.000Z</time>
      </trkpt>
      <trkpt lat="45.1508" lon="5.83712">
        <ele>585.16</ele>
        <time>2019-03-25T13:31:30.000Z</time>
      </trkpt>
      <trkpt lat="45.15105" lon="5.83719">
        <ele>581.34</ele>
        <time>2019-03-25T13:31:35.000Z</time>
      </trkpt>
      <trkpt lat="45.15121" lon="5.83732">
        <ele>579.25</ele>
        <time>2019-03-25T13:31:40.000Z</time>
      </trkpt>
      <trkpt lat="45.15138" lon="5.83746">
        <ele>579.2</ele>
        <time>2019-03-25T13:31:45.000Z</time>
      </trkpt>
      <trkpt lat="45.15152" lon="5.83761">
        <ele>578.75</ele>
        <time>2019-03-25T13:31:50.000Z</time>
      </trkpt>
      <trkpt lat="45.15175" lon="5.83775">
        <ele>579.03</ele>
        <time>2019-03-25T13:31:55.000Z</time>
      </trkpt>
      <trkpt lat="45.1519" lon="5.83787">
        <ele>584.4</ele>
        <time>2019-03-25T13:32:00.000Z</time>
      </trkpt>
      <trkpt lat="45.15206" lon="5.83807">
        <ele>588.12</ele>
        <time>2019-03-25T13:32:05.000Z</time>
      </trkpt>
      <trkpt lat="45.15221" lon="5.83823">
        <ele>587.94</ele>
        <time>2019-03-25T13:32:10.000Z</time>
      </trkpt>
      <trkpt lat="45.15231" lon="5.83834">
        <ele>588.87</ele>
        <time>2019-03-25T13:32:15.000Z</time>
      </trkpt>
      <trkpt lat="45.15241" lon="5.83838">
        <ele>595.57</ele>
        <time>2019-03-25T13:38:13.000Z</time>
      </trkpt>
      <trkpt lat="45.15256" lon="5.83842">
        <ele>597.92</ele>
        <time>2019-03-25T13:38:18.000Z</time>
      </trkpt>
      <trkpt lat="45.15274" lon="5.83844">
        <ele>595.67</ele>
        <time>2019-03-25T13:38:23.000Z</time>
      </trkpt>
      <trkpt lat="45.15294" lon="5.83849">
        <ele>594.45</ele>
        <time>2019-03-25T13:38:28.000Z</time>
      </trkpt>
      <trkpt lat="45.15315" lon="5.83858">
        <ele>594.82</ele>
        <time>2019-03-25T13:38:33.000Z</time>
      </trkpt>
      <trkpt lat="45.15334" lon="5.83871">
        <ele>595.12</ele>
        <time>2019-03-25T13:38:38.000Z</time>
      </trkpt>
      <trkpt lat="45.15344" lon="5.83894">
        <ele>598.85</ele>
        <time>2019-03-25T13:38:43.000Z</time>
      </trkpt>
      <trkpt lat="45.15355" lon="5.83915">
        <ele>597.03</ele>
        <time>2019-03-25T13:38:48.000Z</time>
      </trkpt>
      <trkpt lat="45.15357" lon="5.83941">
        <ele>599.87</ele>
        <time>2019-03-25T13:38:53.000Z</time>
      </trkpt>
      <trkpt lat="45.15356" lon="5.83965">
        <ele>602.29</ele>
        <time>2019-03-25T13:38:58.000Z</time>
      </trkpt>
      <trkpt lat="45.15355" lon="5.83993">
        <ele>604.18</ele>
        <time>2019-03-25T13:39:03.000Z</time>
      </trkpt>
      <trkpt lat="45.15357" lon="5.84018">
        <ele>607.66</ele>
        <time>2019-03-25T13:39:08.000Z</time>
      </trkpt>
      <trkpt lat="45.15358" lon="5.8404">
        <ele>606.74</ele>
        <time>2019-03-25T13:39:13.000Z</time>
      </trkpt>
      <trkpt lat="45.15359" lon="5.84055">
        <ele>605.16</ele>
        <time>2019-03-25T13:39:33.000Z</time>
      </trkpt>
      <trkpt lat="45.1536" lon="5.84071">
        <ele>605.32</ele>
        <time>2019-03-25T13:39:38.000Z</time>
      </trkpt>
      <trkpt lat="45.15357" lon="5.84084">
        <ele>611.39</ele>
        <time>2019-03-25T13:39:49.000Z</time>
      </trkpt>
      <trkpt lat="45.15356" lon="5.84098">
        <ele>612.11</ele>
        <time>2019-03-25T13:39:57.000Z</time>
      </trkpt>
      <trkpt lat="45.15343" lon="5.84115">
        <ele>614.5</ele>
        <time>2019-03-25T13:40:02.000Z</time>
      </trkpt>
      <trkpt lat="45.1534" lon="5.84138">
        <ele>617.99</ele>
        <time>2019-03-25T13:40:07.000Z</time>
      </trkpt>
      <trkpt lat="45.15345" lon="5.84154">
        <ele>617.46</ele>
        <time>2019-03-25T13:40:12.000Z</time>
      </trkpt>
      <trkpt lat="45.15348" lon="5.84177">
        <ele>619.66</ele>
        <time>2019-03-25T13:40:17.000Z</time>
      </trkpt>
      <trkpt lat="45.15352" lon="5.842">
        <ele>624</ele>
        <time>2019-03-25T13:40:22.000Z</time>
      </trkpt>
      <trkpt lat="45.15354" lon="5.84222">
        <ele>623.19</ele>
        <time>2019-03-25T13:40:27.000Z</time>
      </trkpt>
      <trkpt lat="45.15351" lon="5.84241">
        <ele>623.37</ele>
        <time>2019-03-25T13:40:32.000Z</time>
      </trkpt>
      <trkpt lat="45.15351" lon="5.84258">
        <ele>626.45</ele>
        <time>2019-03-25T13:40:37.000Z</time>
      </trkpt>
      <trkpt lat="45.15347" lon="5.84278">
        <ele>630.2</ele>
        <time>2019-03-25T13:40:42.000Z</time>
      </trkpt>
      <trkpt lat="45.15342" lon="5.843">
        <ele>630.8</ele>
        <time>2019-03-25T13:40:47.000Z</time>
      </trkpt>
      <trkpt lat="45.1534" lon="5.84321">
        <ele>633.89</ele>
        <time>2019-03-25T13:40:52.000Z</time>
      </trkpt>
      <trkpt lat="45.1534" lon="5.84341">
        <ele>635.7</ele>
        <time>2019-03-25T13:40:57.000Z</time>
      </trkpt>
      <trkpt lat="45.1534" lon="5.84358">
        <ele>637.43</ele>
        <time>2019-03-25T13:41:02.000Z</time>
      </trkpt>
      <trkpt lat="45.1534" lon="5.8438">
        <ele>640.89</ele>
        <time>2019-03-25T13:41:07.000Z</time>
      </trkpt>
      <trkpt lat="45.1534" lon="5.84404">
        <ele>644.53</ele>
        <time>2019-03-25T13:41:12.000Z</time>
      </trkpt>
      <trkpt lat="45.15342" lon="5.84421">
        <ele>650.58</ele>
        <time>2019-03-25T13:41:17.000Z</time>
      </trkpt>
      <trkpt lat="45.15342" lon="5.84443">
        <ele>654.65</ele>
        <time>2019-03-25T13:41:22.000Z</time>
      </trkpt>
      <trkpt lat="45.15347" lon="5.84464">
        <ele>656.64</ele>
        <time>2019-03-25T13:41:27.000Z</time>
      </trkpt>
      <trkpt lat="45.15347" lon="5.84479">
        <ele>655.75</ele>
        <time>2019-03-25T13:41:32.000Z</time>
      </trkpt>
      <trkpt lat="45.15346" lon="5.84494">
        <ele>655.98</ele>
        <time>2019-03-25T13:41:37.000Z</time>
      </trkpt>
      <trkpt lat="45.15338" lon="5.84509">
        <ele>657.12</ele>
        <time>2019-03-25T13:41:42.000Z</time>
      </trkpt>
      <trkpt lat="45.15329" lon="5.8452">
        <ele>656.1</ele>
        <time>2019-03-25T13:41:47.000Z</time>
      </trkpt>
      <trkpt lat="45.15318" lon="5.84535">
        <ele>658.31</ele>
        <time>2019-03-25T13:41:52.000Z</time>
      </trkpt>
      <trkpt lat="45.15309" lon="5.84551">
        <ele>661.22</ele>
        <time>2019-03-25T13:41:57.000Z</time>
      </trkpt>
      <trkpt lat="45.15301" lon="5.84573">
        <ele>661.48</ele>
        <time>2019-03-25T13:42:02.000Z</time>
      </trkpt>
      <trkpt lat="45.15292" lon="5.8459">
        <ele>666.33</ele>
        <time>2019-03-25T13:42:07.000Z</time>
      </trkpt>
      <trkpt lat="45.15281" lon="5.84606">
        <ele>668.48</ele>
        <time>2019-03-25T13:42:12.000Z</time>
      </trkpt>
      <trkpt lat="45.15271" lon="5.84619">
        <ele>671.88</ele>
        <time>2019-03-25T13:42:17.000Z</time>
      </trkpt>
      <trkpt lat="45.1526" lon="5.8463">
        <ele>677.17</ele>
        <time>2019-03-25T13:42:22.000Z</time>
      </trkpt>
      <trkpt lat="45.15256" lon="5.84643">
        <ele>685.32</ele>
        <time>2019-03-25T13:42:32.000Z</time>
      </trkpt>
      <trkpt lat="45.15261" lon="5.84663">
        <ele>689.81</ele>
        <time>2019-03-25T13:42:37.000Z</time>
      </trkpt>
      <trkpt lat="45.15265" lon="5.84686">
        <ele>693.08</ele>
        <time>2019-03-25T13:42:42.000Z</time>
      </trkpt>
      <trkpt lat="45.15267" lon="5.84705">
        <ele>694.79</ele>
        <time>2019-03-25T13:42:47.000Z</time>
      </trkpt>
      <trkpt lat="45.15279" lon="5.84723">
        <ele>694.13</ele>
        <time>2019-03-25T13:42:52.000Z</time>
      </trkpt>
      <trkpt lat="45.15293" lon="5.84742">
        <ele>691.77</ele>
        <time>2019-03-25T13:42:57.000Z</time>
      </trkpt>
      <trkpt lat="45.15306" lon="5.84762">
        <ele>691</ele>
        <time>2019-03-25T13:43:02.000Z</time>
      </trkpt>
      <trkpt lat="45.15321" lon="5.84781">
        <ele>692.13</ele>
        <time>2019-03-25T13:43:07.000Z</time>
      </trkpt>
      <trkpt lat="45.15332" lon="5.84803">
        <ele>690.89</ele>
        <time>2019-03-25T13:43:12.000Z</time>
      </trkpt>
      <trkpt lat="45.15349" lon="5.84829">
        <ele>690.74</ele>
        <time>2019-03-25T13:43:17.000Z</time>
      </trkpt>
      <trkpt lat="45.15361" lon="5.84859">
        <ele>691.52</ele>
        <time>2019-03-25T13:43:22.000Z</time>
      </trkpt>
      <trkpt lat="45.15371" lon="5.84897">
        <ele>694.28</ele>
        <time>2019-03-25T13:43:27.000Z</time>
      </trkpt>
      <trkpt lat="45.15363" lon="5.84926">
        <ele>691.11</ele>
        <time>2019-03-25T13:43:32.000Z</time>
      </trkpt>
      <trkpt lat="45.15357" lon="5.84959">
        <ele>688.91</ele>
        <time>2019-03-25T13:43:37.000Z</time>
      </trkpt>
      <trkpt lat="45.15366" lon="5.84998">
        <ele>686.14</ele>
        <time>2019-03-25T13:43:42.000Z</time>
      </trkpt>
      <trkpt lat="45.15376" lon="5.85047">
        <ele>686.95</ele>
        <time>2019-03-25T13:43:47.000Z</time>
      </trkpt>
      <trkpt lat="45.15397" lon="5.85058">
        <ele>689.41</ele>
        <time>2019-03-25T13:43:52.000Z</time>
      </trkpt>
      <trkpt lat="45.15408" lon="5.8502">
        <ele>686.35</ele>
        <time>2019-03-25T13:43:57.000Z</time>
      </trkpt>
      <trkpt lat="45.15418" lon="5.84994">
        <ele>692.39</ele>
        <time>2019-03-25T13:44:02.000Z</time>
      </trkpt>
      <trkpt lat="45.15431" lon="5.84975">
        <ele>689.35</ele>
        <time>2019-03-25T13:44:07.000Z</time>
      </trkpt>
      <trkpt lat="45.15445" lon="5.84958">
        <ele>690.08</ele>
        <time>2019-03-25T13:44:12.000Z</time>
      </trkpt>
      <trkpt lat="45.1546" lon="5.84939">
        <ele>691.18</ele>
        <time>2019-03-25T13:44:17.000Z</time>
      </trkpt>
      <trkpt lat="45.15471" lon="5.84924">
        <ele>692.24</ele>
        <time>2019-03-25T13:44:22.000Z</time>
      </trkpt>
      <trkpt lat="45.15466" lon="5.84938">
        <ele>693.5</ele>
        <time>2019-03-25T13:44:31.000Z</time>
      </trkpt>
      <trkpt lat="45.15469" lon="5.84951">
        <ele>692.38</ele>
        <time>2019-03-25T13:44:36.000Z</time>
      </trkpt>
      <trkpt lat="45.15481" lon="5.84946">
        <ele>694.1</ele>
        <time>2019-03-25T13:44:41.000Z</time>
      </trkpt>
      <trkpt lat="45.15494" lon="5.84947">
        <ele>694.53</ele>
        <time>2019-03-25T13:44:46.000Z</time>
      </trkpt>
      <trkpt lat="45.15507" lon="5.84947">
        <ele>697.58</ele>
        <time>2019-03-25T13:44:51.000Z</time>
      </trkpt>
      <trkpt lat="45.15519" lon="5.84943">
        <ele>697.42</ele>
        <time>2019-03-25T13:44:56.000Z</time>
      </trkpt>
      <trkpt lat="45.15531" lon="5.84935">
        <ele>700.1</ele>
        <time>2019-03-25T13:45:01.000Z</time>
      </trkpt>
      <trkpt lat="45.15546" lon="5.84926">
        <ele>704.53</ele>
        <time>2019-03-25T13:45:06.000Z</time>
      </trkpt>
      <trkpt lat="45.15562" lon="5.84917">
        <ele>706.46</ele>
        <time>2019-03-25T13:45:11.000Z</time>
      </trkpt>
      <trkpt lat="45.15578" lon="5.84913">
        <ele>705.31</ele>
        <time>2019-03-25T13:45:16.000Z</time>
      </trkpt>
      <trkpt lat="45.15594" lon="5.84914">
        <ele>703.98</ele>
        <time>2019-03-25T13:45:21.000Z</time>
      </trkpt>
      <trkpt lat="45.15608" lon="5.84905">
        <ele>706.41</ele>
        <time>2019-03-25T13:45:26.000Z</time>
      </trkpt>
      <trkpt lat="45.15624" lon="5.84907">
        <ele>709.12</ele>
        <time>2019-03-25T13:45:31.000Z</time>
      </trkpt>
      <trkpt lat="45.15641" lon="5.84905">
        <ele>712.29</ele>
        <time>2019-03-25T13:45:36.000Z</time>
      </trkpt>
      <trkpt lat="45.1566" lon="5.84901">
        <ele>715.09</ele>
        <time>2019-03-25T13:45:41.000Z</time>
      </trkpt>
      <trkpt lat="45.15677" lon="5.84896">
        <ele>715.17</ele>
        <time>2019-03-25T13:45:46.000Z</time>
      </trkpt>
      <trkpt lat="45.15694" lon="5.84891">
        <ele>719.59</ele>
        <time>2019-03-25T13:45:51.000Z</time>
      </trkpt>
      <trkpt lat="45.15711" lon="5.84889">
        <ele>721.9</ele>
        <time>2019-03-25T13:45:56.000Z</time>
      </trkpt>
      <trkpt lat="45.15728" lon="5.84886">
        <ele>725.39</ele>
        <time>2019-03-25T13:46:01.000Z</time>
      </trkpt>
      <trkpt lat="45.15744" lon="5.84886">
        <ele>728.91</ele>
        <time>2019-03-25T13:46:06.000Z</time>
      </trkpt>
      <trkpt lat="45.1576" lon="5.84888">
        <ele>732.26</ele>
        <time>2019-03-25T13:46:11.000Z</time>
      </trkpt>
      <trkpt lat="45.15777" lon="5.84895">
        <ele>732.57</ele>
        <time>2019-03-25T13:46:16.000Z</time>
      </trkpt>
      <trkpt lat="45.15792" lon="5.84908">
        <ele>734.84</ele>
        <time>2019-03-25T13:46:21.000Z</time>
      </trkpt>
      <trkpt lat="45.15805" lon="5.8492">
        <ele>738.82</ele>
        <time>2019-03-25T13:46:26.000Z</time>
      </trkpt>
      <trkpt lat="45.15819" lon="5.84911">
        <ele>740.5</ele>
        <time>2019-03-25T13:46:31.000Z</time>
      </trkpt>
      <trkpt lat="45.1583" lon="5.84893">
        <ele>741.45</ele>
        <time>2019-03-25T13:46:36.000Z</time>
      </trkpt>
      <trkpt lat="45.15844" lon="5.84875">
        <ele>739.96</ele>
        <time>2019-03-25T13:46:41.000Z</time>
      </trkpt>
      <trkpt lat="45.15862" lon="5.84862">
        <ele>739.43</ele>
        <time>2019-03-25T13:46:46.000Z</time>
      </trkpt>
      <trkpt lat="45.15877" lon="5.84876">
        <ele>739.78</ele>
        <time>2019-03-25T13:46:51.000Z</time>
      </trkpt>
      <trkpt lat="45.15884" lon="5.84903">
        <ele>739.58</ele>
        <time>2019-03-25T13:46:56.000Z</time>
      </trkpt>
      <trkpt lat="45.15897" lon="5.84919">
        <ele>741.09</ele>
        <time>2019-03-25T13:47:01.000Z</time>
      </trkpt>
      <trkpt lat="45.15914" lon="5.84926">
        <ele>740.7</ele>
        <time>2019-03-25T13:47:06.000Z</time>
      </trkpt>
      <trkpt lat="45.15934" lon="5.84927">
        <ele>741.88</ele>
        <time>2019-03-25T13:47:11.000Z</time>
      </trkpt>
      <trkpt lat="45.15955" lon="5.84927">
        <ele>742.87</ele>
        <time>2019-03-25T13:47:16.000Z</time>
      </trkpt>
      <trkpt lat="45.15976" lon="5.84929">
        <ele>746.88</ele>
        <time>2019-03-25T13:47:21.000Z</time>
      </trkpt>
      <trkpt lat="45.15997" lon="5.84934">
        <ele>750.26</ele>
        <time>2019-03-25T13:47:26.000Z</time>
      </trkpt>
      <trkpt lat="45.16017" lon="5.84936">
        <ele>753.48</ele>
        <time>2019-03-25T13:47:31.000Z</time>
      </trkpt>
      <trkpt lat="45.16038" lon="5.84939">
        <ele>757.75</ele>
        <time>2019-03-25T13:47:36.000Z</time>
      </trkpt>
      <trkpt lat="45.16057" lon="5.84944">
        <ele>759.98</ele>
        <time>2019-03-25T13:47:41.000Z</time>
      </trkpt>
      <trkpt lat="45.16076" lon="5.84953">
        <ele>762.86</ele>
        <time>2019-03-25T13:47:46.000Z</time>
      </trkpt>
      <trkpt lat="45.16089" lon="5.84974">
        <ele>765.55</ele>
        <time>2019-03-25T13:47:51.000Z</time>
      </trkpt>
      <trkpt lat="45.16097" lon="5.84998">
        <ele>766.14</ele>
        <time>2019-03-25T13:47:56.000Z</time>
      </trkpt>
      <trkpt lat="45.16104" lon="5.85023">
        <ele>767.72</ele>
        <time>2019-03-25T13:48:01.000Z</time>
      </trkpt>
      <trkpt lat="45.16114" lon="5.85047">
        <ele>769.25</ele>
        <time>2019-03-25T13:48:06.000Z</time>
      </trkpt>
      <trkpt lat="45.16128" lon="5.85069">
        <ele>771.32</ele>
        <time>2019-03-25T13:48:11.000Z</time>
      </trkpt>
      <trkpt lat="45.16143" lon="5.85089">
        <ele>773.85</ele>
        <time>2019-03-25T13:48:16.000Z</time>
      </trkpt>
      <trkpt lat="45.16159" lon="5.85106">
        <ele>774.31</ele>
        <time>2019-03-25T13:48:21.000Z</time>
      </trkpt>
      <trkpt lat="45.16177" lon="5.85118">
        <ele>776.55</ele>
        <time>2019-03-25T13:48:26.000Z</time>
      </trkpt>
      <trkpt lat="45.162" lon="5.85132">
        <ele>776.49</ele>
        <time>2019-03-25T13:48:31.000Z</time>
      </trkpt>
      <trkpt lat="45.16224" lon="5.85149">
        <ele>777.11</ele>
        <time>2019-03-25T13:48:36.000Z</time>
      </trkpt>
      <trkpt lat="45.16245" lon="5.85168">
        <ele>773.81</ele>
        <time>2019-03-25T13:48:41.000Z</time>
      </trkpt>
      <trkpt lat="45.16267" lon="5.85181">
        <ele>774.9</ele>
        <time>2019-03-25T13:48:46.000Z</time>
      </trkpt>
      <trkpt lat="45.16291" lon="5.85182">
        <ele>774.74</ele>
        <time>2019-03-25T13:48:51.000Z</time>
      </trkpt>
      <trkpt lat="45.16307" lon="5.85152">
        <ele>774.88</ele>
        <time>2019-03-25T13:48:56.000Z</time>
      </trkpt>
      <trkpt lat="45.16313" lon="5.85113">
        <ele>778.4</ele>
        <time>2019-03-25T13:49:01.000Z</time>
      </trkpt>
      <trkpt lat="45.16317" lon="5.85078">
        <ele>781.99</ele>
        <time>2019-03-25T13:49:06.000Z</time>
      </trkpt>
      <trkpt lat="45.16326" lon="5.85046">
        <ele>782.81</ele>
        <time>2019-03-25T13:49:11.000Z</time>
      </trkpt>
      <trkpt lat="45.16346" lon="5.85022">
        <ele>781.83</ele>
        <time>2019-03-25T13:49:16.000Z</time>
      </trkpt>
      <trkpt lat="45.16363" lon="5.85009">
        <ele>783.07</ele>
        <time>2019-03-25T13:49:21.000Z</time>
      </trkpt>
      <trkpt lat="45.16381" lon="5.8499">
        <ele>785.88</ele>
        <time>2019-03-25T13:49:26.000Z</time>
      </trkpt>
      <trkpt lat="45.16396" lon="5.84966">
        <ele>789.44</ele>
        <time>2019-03-25T13:49:31.000Z</time>
      </trkpt>
      <trkpt lat="45.16412" lon="5.84944">
        <ele>786.45</ele>
        <time>2019-03-25T13:49:36.000Z</time>
      </trkpt>
      <trkpt lat="45.16432" lon="5.84921">
        <ele>789.27</ele>
        <time>2019-03-25T13:49:41.000Z</time>
      </trkpt>
      <trkpt lat="45.16447" lon="5.849">
        <ele>789.02</ele>
        <time>2019-03-25T13:49:46.000Z</time>
      </trkpt>
      <trkpt lat="45.16467" lon="5.84877">
        <ele>793.92</ele>
        <time>2019-03-25T13:49:51.000Z</time>
      </trkpt>
      <trkpt lat="45.16478" lon="5.84858">
        <ele>792.77</ele>
        <time>2019-03-25T13:49:56.000Z</time>
      </trkpt>
      <trkpt lat="45.16495" lon="5.84852">
        <ele>795.4</ele>
        <time>2019-03-25T13:50:01.000Z</time>
      </trkpt>
      <trkpt lat="45.16514" lon="5.84862">
        <ele>793.71</ele>
        <time>2019-03-25T13:50:06.000Z</time>
      </trkpt>
      <trkpt lat="45.16526" lon="5.84884">
        <ele>797.33</ele>
        <time>2019-03-25T13:50:11.000Z</time>
      </trkpt>
      <trkpt lat="45.16529" lon="5.84911">
        <ele>799.57</ele>
        <time>2019-03-25T13:50:16.000Z</time>
      </trkpt>
      <trkpt lat="45.16529" lon="5.84932">
        <ele>800.94</ele>
        <time>2019-03-25T13:50:21.000Z</time>
      </trkpt>
      <trkpt lat="45.16531" lon="5.84955">
        <ele>800.21</ele>
        <time>2019-03-25T13:50:26.000Z</time>
      </trkpt>
      <trkpt lat="45.16533" lon="5.84974">
        <ele>805.45</ele>
        <time>2019-03-25T13:50:31.000Z</time>
      </trkpt>
      <trkpt lat="45.16532" lon="5.84992">
        <ele>810.15</ele>
        <time>2019-03-25T13:50:36.000Z</time>
      </trkpt>
      <trkpt lat="45.1654" lon="5.85">
        <ele>811.75</ele>
        <time>2019-03-25T13:51:52.000Z</time>
      </trkpt>
      <trkpt lat="45.16546" lon="5.85031">
        <ele>808.19</ele>
        <time>2019-03-25T13:51:57.000Z</time>
      </trkpt>
      <trkpt lat="45.16549" lon="5.85067">
        <ele>808.16</ele>
        <time>2019-03-25T13:52:02.000Z</time>
      </trkpt>
      <trkpt lat="45.16562" lon="5.85107">
        <ele>808.62</ele>
        <time>2019-03-25T13:52:07.000Z</time>
      </trkpt>
      <trkpt lat="45.1658" lon="5.85145">
        <ele>806.99</ele>
        <time>2019-03-25T13:52:12.000Z</time>
      </trkpt>
      <trkpt lat="45.16601" lon="5.85188">
        <ele>802.94</ele>
        <time>2019-03-25T13:52:17.000Z</time>
      </trkpt>
      <trkpt lat="45.16626" lon="5.8523">
        <ele>803.18</ele>
        <time>2019-03-25T13:52:22.000Z</time>
      </trkpt>
      <trkpt lat="45.16652" lon="5.85271">
        <ele>800.79</ele>
        <time>2019-03-25T13:52:27.000Z</time>
      </trkpt>
      <trkpt lat="45.16673" lon="5.85312">
        <ele>799.29</ele>
        <time>2019-03-25T13:52:32.000Z</time>
      </trkpt>
      <trkpt lat="45.16691" lon="5.85363">
        <ele>793.81</ele>
        <time>2019-03-25T13:52:37.000Z</time>
      </trkpt>
      <trkpt lat="45.16706" lon="5.85416">
        <ele>792.13</ele>
        <time>2019-03-25T13:52:42.000Z</time>
      </trkpt>
      <trkpt lat="45.16715" lon="5.85475">
        <ele>789.37</ele>
        <time>2019-03-25T13:52:47.000Z</time>
      </trkpt>
      <trkpt lat="45.16727" lon="5.85525">
        <ele>788.28</ele>
        <time>2019-03-25T13:52:52.000Z</time>
      </trkpt>
      <trkpt lat="45.16732" lon="5.85562">
        <ele>786.39</ele>
        <time>2019-03-25T13:52:57.000Z</time>
      </trkpt>
      <trkpt lat="45.16742" lon="5.85598">
        <ele>786.87</ele>
        <time>2019-03-25T13:53:02.000Z</time>
      </trkpt>
      <trkpt lat="45.16751" lon="5.85634">
        <ele>783.93</ele>
        <time>2019-03-25T13:53:07.000Z</time>
      </trkpt>
      <trkpt lat="45.16761" lon="5.85669">
        <ele>786.83</ele>
        <time>2019-03-25T13:53:12.000Z</time>
      </trkpt>
      <trkpt lat="45.16763" lon="5.85704">
        <ele>790.47</ele>
        <time>2019-03-25T13:53:17.000Z</time>
      </trkpt>
      <trkpt lat="45.1676" lon="5.85741">
        <ele>790.71</ele>
        <time>2019-03-25T13:53:22.000Z</time>
      </trkpt>
      <trkpt lat="45.16752" lon="5.85777">
        <ele>789.8</ele>
        <time>2019-03-25T13:53:27.000Z</time>
      </trkpt>
      <trkpt lat="45.16751" lon="5.85808">
        <ele>790.03</ele>
        <time>2019-03-25T13:53:32.000Z</time>
      </trkpt>
      <trkpt lat="45.16756" lon="5.85836">
        <ele>792.64</ele>
        <time>2019-03-25T13:53:37.000Z</time>
      </trkpt>
      <trkpt lat="45.16759" lon="5.85867">
        <ele>795.32</ele>
        <time>2019-03-25T13:53:42.000Z</time>
      </trkpt>
      <trkpt lat="45.16765" lon="5.85899">
        <ele>795.74</ele>
        <time>2019-03-25T13:53:47.000Z</time>
      </trkpt>
      <trkpt lat="45.16774" lon="5.8593">
        <ele>796.93</ele>
        <time>2019-03-25T13:53:52.000Z</time>
      </trkpt>
      <trkpt lat="45.16782" lon="5.85965">
        <ele>798.77</ele>
        <time>2019-03-25T13:53:57.000Z</time>
      </trkpt>
      <trkpt lat="45.16785" lon="5.86001">
        <ele>801.05</ele>
        <time>2019-03-25T13:54:02.000Z</time>
      </trkpt>
      <trkpt lat="45.16786" lon="5.86037">
        <ele>801.06</ele>
        <time>2019-03-25T13:54:07.000Z</time>
      </trkpt>
      <trkpt lat="45.1678" lon="5.86073">
        <ele>801.91</ele>
        <time>2019-03-25T13:54:12.000Z</time>
      </trkpt>
      <trkpt lat="45.16774" lon="5.86111">
        <ele>803.76</ele>
        <time>2019-03-25T13:54:17.000Z</time>
      </trkpt>
      <trkpt lat="45.16767" lon="5.86148">
        <ele>800.71</ele>
        <time>2019-03-25T13:54:22.000Z</time>
      </trkpt>
      <trkpt lat="45.16762" lon="5.86189">
        <ele>802.09</ele>
        <time>2019-03-25T13:54:27.000Z</time>
      </trkpt>
      <trkpt lat="45.16763" lon="5.86226">
        <ele>803.25</ele>
        <time>2019-03-25T13:54:32.000Z</time>
      </trkpt>
      <trkpt lat="45.16771" lon="5.86264">
        <ele>807.44</ele>
        <time>2019-03-25T13:54:37.000Z</time>
      </trkpt>
      <trkpt lat="45.16796" lon="5.86296">
        <ele>809.23</ele>
        <time>2019-03-25T13:54:42.000Z</time>
      </trkpt>
      <trkpt lat="45.16819" lon="5.86321">
        <ele>811.36</ele>
        <time>2019-03-25T13:54:47.000Z</time>
      </trkpt>
      <trkpt lat="45.16835" lon="5.86348">
        <ele>808.68</ele>
        <time>2019-03-25T13:54:52.000Z</time>
      </trkpt>
      <trkpt lat="45.16854" lon="5.86378">
        <ele>808.88</ele>
        <time>2019-03-25T13:54:57.000Z</time>
      </trkpt>
      <trkpt lat="45.16866" lon="5.86415">
        <ele>808.19</ele>
        <time>2019-03-25T13:55:02.000Z</time>
      </trkpt>
      <trkpt lat="45.16882" lon="5.86455">
        <ele>809.16</ele>
        <time>2019-03-25T13:55:07.000Z</time>
      </trkpt>
      <trkpt lat="45.16886" lon="5.86496">
        <ele>808.28</ele>
        <time>2019-03-25T13:55:12.000Z</time>
      </trkpt>
      <trkpt lat="45.16895" lon="5.86538">
        <ele>807.59</ele>
        <time>2019-03-25T13:55:17.000Z</time>
      </trkpt>
      <trkpt lat="45.16912" lon="5.86576">
        <ele>811.24</ele>
        <time>2019-03-25T13:55:22.000Z</time>
      </trkpt>
      <trkpt lat="45.1693" lon="5.86617">
        <ele>806.45</ele>
        <time>2019-03-25T13:55:27.000Z</time>
      </trkpt>
      <trkpt lat="45.1695" lon="5.86653">
        <ele>805.74</ele>
        <time>2019-03-25T13:55:32.000Z</time>
      </trkpt>
      <trkpt lat="45.16966" lon="5.86694">
        <ele>809.59</ele>
        <time>2019-03-25T13:55:37.000Z</time>
      </trkpt>
      <trkpt lat="45.16983" lon="5.86734">
        <ele>810.77</ele>
        <time>2019-03-25T13:55:42.000Z</time>
      </trkpt>
      <trkpt lat="45.17" lon="5.86773">
        <ele>816.16</ele>
        <time>2019-03-25T13:55:47.000Z</time>
      </trkpt>
      <trkpt lat="45.17016" lon="5.86808">
        <ele>814.88</ele>
        <time>2019-03-25T13:55:52.000Z</time>
      </trkpt>
      <trkpt lat="45.17029" lon="5.86838">
        <ele>814.57</ele>
        <time>2019-03-25T13:55:57.000Z</time>
      </trkpt>
      <trkpt lat="45.17047" lon="5.86868">
        <ele>818.69</ele>
        <time>2019-03-25T13:56:02.000Z</time>
      </trkpt>
      <trkpt lat="45.17061" lon="5.86905">
        <ele>820.14</ele>
        <time>2019-03-25T13:56:07.000Z</time>
      </trkpt>
      <trkpt lat="45.17074" lon="5.86938">
        <ele>819.21</ele>
        <time>2019-03-25T13:56:12.000Z</time>
      </trkpt>
      <trkpt lat="45.17089" lon="5.86974">
        <ele>822.37</ele>
        <time>2019-03-25T13:56:17.000Z</time>
      </trkpt>
      <trkpt lat="45.17108" lon="5.87014">
        <ele>821.31</ele>
        <time>2019-03-25T13:56:22.000Z</time>
      </trkpt>
      <trkpt lat="45.17124" lon="5.87049">
        <ele>822.66</ele>
        <time>2019-03-25T13:56:27.000Z</time>
      </trkpt>
      <trkpt lat="45.17136" lon="5.87079">
        <ele>820.48</ele>
        <time>2019-03-25T13:56:32.000Z</time>
      </trkpt>
      <trkpt lat="45.17146" lon="5.8711">
        <ele>821.62</ele>
        <time>2019-03-25T13:56:37.000Z</time>
      </trkpt>
      <trkpt lat="45.17162" lon="5.87139">
        <ele>824.93</ele>
        <time>2019-03-25T13:56:42.000Z</time>
      </trkpt>
      <trkpt lat="45.17176" lon="5.8718">
        <ele>828.45</ele>
        <time>2019-03-25T13:56:47.000Z</time>
      </trkpt>
      <trkpt lat="45.1719" lon="5.87213">
        <ele>831.22</ele>
        <time>2019-03-25T13:56:52.000Z</time>
      </trkpt>
      <trkpt lat="45.17197" lon="5.87251">
        <ele>832.06</ele>
        <time>2019-03-25T13:56:57.000Z</time>
      </trkpt>
      <trkpt lat="45.17202" lon="5.87294">
        <ele>830.87</ele>
        <time>2019-03-25T13:57:02.000Z</time>
      </trkpt>
      <trkpt lat="45.17211" lon="5.8734">
        <ele>832.17</ele>
        <time>2019-03-25T13:57:07.000Z</time>
      </trkpt>
      <trkpt lat="45.17231" lon="5.87374">
        <ele>830.47</ele>
        <time>2019-03-25T13:57:12.000Z</time>
      </trkpt>
      <trkpt lat="45.1725" lon="5.87402">
        <ele>832.8</ele>
        <time>2019-03-25T13:57:17.000Z</time>
      </trkpt>
      <trkpt lat="45.17273" lon="5.87423">
        <ele>833.14</ele>
        <time>2019-03-25T13:57:22.000Z</time>
      </trkpt>
      <trkpt lat="45.17298" lon="5.87442">
        <ele>838.91</ele>
        <time>2019-03-25T13:57:27.000Z</time>
      </trkpt>
      <trkpt lat="45.1732" lon="5.87464">
        <ele>841.88</ele>
        <time>2019-03-25T13:57:32.000Z</time>
      </trkpt>
      <trkpt lat="45.1734" lon="5.87499">
        <ele>841.88</ele>
        <time>2019-03-25T13:57:37.000Z</time>
      </trkpt>
      <trkpt lat="45.17356" lon="5.87537">
        <ele>843.24</ele>
        <time>2019-03-25T13:57:42.000Z</time>
      </trkpt>
      <trkpt lat="45.17368" lon="5.87578">
        <ele>847.09</ele>
        <time>2019-03-25T13:57:47.000Z</time>
      </trkpt>
      <trkpt lat="45.17373" lon="5.87616">
        <ele>846.93</ele>
        <time>2019-03-25T13:57:52.000Z</time>
      </trkpt>
      <trkpt lat="45.17372" lon="5.87646">
        <ele>839.31</ele>
        <time>2019-03-25T13:57:57.000Z</time>
      </trkpt>
      <trkpt lat="45.17365" lon="5.87658">
        <ele>835.14</ele>
        <time>2019-03-25T13:58:02.000Z</time>
      </trkpt>
      <trkpt lat="45.1736" lon="5.87669">
        <ele>838.81</ele>
        <time>2019-03-25T13:59:14.000Z</time>
      </trkpt>
      <trkpt lat="45.17355" lon="5.87685">
        <ele>834.21</ele>
        <time>2019-03-25T13:59:19.000Z</time>
      </trkpt>
      <trkpt lat="45.17351" lon="5.87706">
        <ele>834.49</ele>
        <time>2019-03-25T13:59:24.000Z</time>
      </trkpt>
      <trkpt lat="45.1734" lon="5.87728">
        <ele>834.78</ele>
        <time>2019-03-25T13:59:29.000Z</time>
      </trkpt>
      <trkpt lat="45.17324" lon="5.87751">
        <ele>834.76</ele>
        <time>2019-03-25T13:59:34.000Z</time>
      </trkpt>
      <trkpt lat="45.17315" lon="5.87772">
        <ele>833.19</ele>
        <time>2019-03-25T13:59:39.000Z</time>
      </trkpt>
      <trkpt lat="45.17302" lon="5.87794">
        <ele>835.41</ele>
        <time>2019-03-25T13:59:44.000Z</time>
      </trkpt>
      <trkpt lat="45.1729" lon="5.87816">
        <ele>835.52</ele>
        <time>2019-03-25T13:59:49.000Z</time>
      </trkpt>
      <trkpt lat="45.17277" lon="5.87839">
        <ele>841.05</ele>
        <time>2019-03-25T13:59:54.000Z</time>
      </trkpt>
      <trkpt lat="45.17258" lon="5.87863">
        <ele>841.59</ele>
        <time>2019-03-25T13:59:59.000Z</time>
      </trkpt>
      <trkpt lat="45.17241" lon="5.87889">
        <ele>839.5</ele>
        <time>2019-03-25T14:00:04.000Z</time>
      </trkpt>
      <trkpt lat="45.17215" lon="5.87917">
        <ele>839.34</ele>
        <time>2019-03-25T14:00:09.000Z</time>
      </trkpt>
      <trkpt lat="45.17188" lon="5.87961">
        <ele>838.58</ele>
        <time>2019-03-25T14:00:14.000Z</time>
      </trkpt>
      <trkpt lat="45.17157" lon="5.88022">
        <ele>834.01</ele>
        <time>2019-03-25T14:00:19.000Z</time>
      </trkpt>
      <trkpt lat="45.17118" lon="5.88083">
        <ele>825.96</ele>
        <time>2019-03-25T14:00:24.000Z</time>
      </trkpt>
      <trkpt lat="45.17065" lon="5.88133">
        <ele>820.59</ele>
        <time>2019-03-25T14:00:29.000Z</time>
      </trkpt>
      <trkpt lat="45.17006" lon="5.88171">
        <ele>816.61</ele>
        <time>2019-03-25T14:00:34.000Z</time>
      </trkpt>
      <trkpt lat="45.16937" lon="5.88222">
        <ele>817.91</ele>
        <time>2019-03-25T14:00:39.000Z</time>
      </trkpt>
      <trkpt lat="45.16867" lon="5.88274">
        <ele>814.06</ele>
        <time>2019-03-25T14:00:44.000Z</time>
      </trkpt>
      <trkpt lat="45.16809" lon="5.88344">
        <ele>814.67</ele>
        <time>2019-03-25T14:00:49.000Z</time>
      </trkpt>
      <trkpt lat="45.16772" lon="5.88439">
        <ele>806.59</ele>
        <time>2019-03-25T14:00:54.000Z</time>
      </trkpt>
      <trkpt lat="45.16733" lon="5.8846">
        <ele>798.21</ele>
        <time>2019-03-25T14:00:59.000Z</time>
      </trkpt>
      <trkpt lat="45.16689" lon="5.88462">
        <ele>802.35</ele>
        <time>2019-03-25T14:01:04.000Z</time>
      </trkpt>
      <trkpt lat="45.1665" lon="5.88469">
        <ele>801.22</ele>
        <time>2019-03-25T14:01:09.000Z</time>
      </trkpt>
      <trkpt lat="45.16609" lon="5.8849">
        <ele>788.35</ele>
        <time>2019-03-25T14:01:14.000Z</time>
      </trkpt>
      <trkpt lat="45.16561" lon="5.88508">
        <ele>784.42</ele>
        <time>2019-03-25T14:01:19.000Z</time>
      </trkpt>
      <trkpt lat="45.16521" lon="5.88537">
        <ele>781.89</ele>
        <time>2019-03-25T14:01:24.000Z</time>
      </trkpt>
      <trkpt lat="45.16507" lon="5.88596">
        <ele>781.59</ele>
        <time>2019-03-25T14:01:29.000Z</time>
      </trkpt>
      <trkpt lat="45.16519" lon="5.88653">
        <ele>779.05</ele>
        <time>2019-03-25T14:01:34.000Z</time>
      </trkpt>
      <trkpt lat="45.16541" lon="5.88696">
        <ele>779.57</ele>
        <time>2019-03-25T14:01:39.000Z</time>
      </trkpt>
      <trkpt lat="45.16568" lon="5.88717">
        <ele>784.14</ele>
        <time>2019-03-25T14:01:44.000Z</time>
      </trkpt>
      <trkpt lat="45.16601" lon="5.88724">
        <ele>788.69</ele>
        <time>2019-03-25T14:01:49.000Z</time>
      </trkpt>
      <trkpt lat="45.16628" lon="5.88729">
        <ele>788.04</ele>
        <time>2019-03-25T14:01:54.000Z</time>
      </trkpt>
      <trkpt lat="45.16656" lon="5.88735">
        <ele>786.39</ele>
        <time>2019-03-25T14:01:59.000Z</time>
      </trkpt>
      <trkpt lat="45.16686" lon="5.88737">
        <ele>790.63</ele>
        <time>2019-03-25T14:02:04.000Z</time>
      </trkpt>
      <trkpt lat="45.16712" lon="5.88745">
        <ele>792.01</ele>
        <time>2019-03-25T14:02:09.000Z</time>
      </trkpt>
      <trkpt lat="45.16733" lon="5.88745">
        <ele>793.3</ele>
        <time>2019-03-25T14:02:14.000Z</time>
      </trkpt>
      <trkpt lat="45.16753" lon="5.88742">
        <ele>793.07</ele>
        <time>2019-03-25T14:02:19.000Z</time>
      </trkpt>
      <trkpt lat="45.16773" lon="5.8874">
        <ele>796.48</ele>
        <time>2019-03-25T14:02:24.000Z</time>
      </trkpt>
      <trkpt lat="45.16792" lon="5.88737">
        <ele>790.83</ele>
        <time>2019-03-25T14:02:29.000Z</time>
      </trkpt>
      <trkpt lat="45.16817" lon="5.8873">
        <ele>787.76</ele>
        <time>2019-03-25T14:02:34.000Z</time>
      </trkpt>
      <trkpt lat="45.16838" lon="5.88723">
        <ele>783.52</ele>
        <time>2019-03-25T14:02:39.000Z</time>
      </trkpt>
      <trkpt lat="45.16862" lon="5.88715">
        <ele>781.07</ele>
        <time>2019-03-25T14:02:44.000Z</time>
      </trkpt>
      <trkpt lat="45.16893" lon="5.8872">
        <ele>777.66</ele>
        <time>2019-03-25T14:02:49.000Z</time>
      </trkpt>
      <trkpt lat="45.16922" lon="5.88713">
        <ele>780.98</ele>
        <time>2019-03-25T14:02:54.000Z</time>
      </trkpt>
      <trkpt lat="45.16956" lon="5.88699">
        <ele>782.9</ele>
        <time>2019-03-25T14:02:59.000Z</time>
      </trkpt>
      <trkpt lat="45.16989" lon="5.88678">
        <ele>781.75</ele>
        <time>2019-03-25T14:03:04.000Z</time>
      </trkpt>
      <trkpt lat="45.17025" lon="5.88666">
        <ele>780.66</ele>
        <time>2019-03-25T14:03:09.000Z</time>
      </trkpt>
      <trkpt lat="45.17053" lon="5.88681">
        <ele>783.97</ele>
        <time>2019-03-25T14:03:14.000Z</time>
      </trkpt>
      <trkpt lat="45.17083" lon="5.88711">
        <ele>784.85</ele>
        <time>2019-03-25T14:03:19.000Z</time>
      </trkpt>
      <trkpt lat="45.17113" lon="5.88716">
        <ele>781.07</ele>
        <time>2019-03-25T14:03:24.000Z</time>
      </trkpt>
      <trkpt lat="45.17148" lon="5.88688">
        <ele>782.74</ele>
        <time>2019-03-25T14:03:29.000Z</time>
      </trkpt>
      <trkpt lat="45.17182" lon="5.8866">
        <ele>781.45</ele>
        <time>2019-03-25T14:03:34.000Z</time>
      </trkpt>
      <trkpt lat="45.17204" lon="5.88615">
        <ele>779.27</ele>
        <time>2019-03-25T14:03:39.000Z</time>
      </trkpt>
      <trkpt lat="45.17238" lon="5.88582">
        <ele>778.66</ele>
        <time>2019-03-25T14:03:44.000Z</time>
      </trkpt>
      <trkpt lat="45.17272" lon="5.88572">
        <ele>779.75</ele>
        <time>2019-03-25T14:03:49.000Z</time>
      </trkpt>
      <trkpt lat="45.17314" lon="5.88576">
        <ele>779.31</ele>
        <time>2019-03-25T14:03:54.000Z</time>
      </trkpt>
      <trkpt lat="45.17356" lon="5.88578">
        <ele>778.29</ele>
        <time>2019-03-25T14:03:59.000Z</time>
      </trkpt>
      <trkpt lat="45.17396" lon="5.8858">
        <ele>778.42</ele>
        <time>2019-03-25T14:04:04.000Z</time>
      </trkpt>
      <trkpt lat="45.17432" lon="5.88584">
        <ele>780.81</ele>
        <time>2019-03-25T14:04:09.000Z</time>
      </trkpt>
      <trkpt lat="45.17461" lon="5.88585">
        <ele>780.54</ele>
        <time>2019-03-25T14:04:14.000Z</time>
      </trkpt>
      <trkpt lat="45.17498" lon="5.88582">
        <ele>780.88</ele>
        <time>2019-03-25T14:04:19.000Z</time>
      </trkpt>
      <trkpt lat="45.17535" lon="5.88557">
        <ele>780.35</ele>
        <time>2019-03-25T14:04:24.000Z</time>
      </trkpt>
      <trkpt lat="45.17562" lon="5.88523">
        <ele>777.05</ele>
        <time>2019-03-25T14:04:29.000Z</time>
      </trkpt>
      <trkpt lat="45.176" lon="5.88496">
        <ele>773.64</ele>
        <time>2019-03-25T14:04:34.000Z</time>
      </trkpt>
      <trkpt lat="45.17642" lon="5.88492">
        <ele>768.99</ele>
        <time>2019-03-25T14:04:39.000Z</time>
      </trkpt>
      <trkpt lat="45.17682" lon="5.88508">
        <ele>770.76</ele>
        <time>2019-03-25T14:04:44.000Z</time>
      </trkpt>
      <trkpt lat="45.17725" lon="5.88528">
        <ele>765.86</ele>
        <time>2019-03-25T14:04:49.000Z</time>
      </trkpt>
      <trkpt lat="45.17766" lon="5.8854">
        <ele>764.25</ele>
        <time>2019-03-25T14:04:54.000Z</time>
      </trkpt>
      <trkpt lat="45.17804" lon="5.88542">
        <ele>767.72</ele>
        <time>2019-03-25T14:04:59.000Z</time>
      </trkpt>
      <trkpt lat="45.17834" lon="5.88537">
        <ele>766.99</ele>
        <time>2019-03-25T14:05:04.000Z</time>
      </trkpt>
      <trkpt lat="45.17866" lon="5.88525">
        <ele>763.94</ele>
        <time>2019-03-25T14:05:09.000Z</time>
      </trkpt>
      <trkpt lat="45.17898" lon="5.88509">
        <ele>760.64</ele>
        <time>2019-03-25T14:05:14.000Z</time>
      </trkpt>
      <trkpt lat="45.17928" lon="5.88487">
        <ele>760.91</ele>
        <time>2019-03-25T14:05:19.000Z</time>
      </trkpt>
      <trkpt lat="45.17961" lon="5.88467">
        <ele>758.97</ele>
        <time>2019-03-25T14:05:24.000Z</time>
      </trkpt>
      <trkpt lat="45.17995" lon="5.88446">
        <ele>760.43</ele>
        <time>2019-03-25T14:05:29.000Z</time>
      </trkpt>
      <trkpt lat="45.18026" lon="5.88419">
        <ele>760.48</ele>
        <time>2019-03-25T14:05:34.000Z</time>
      </trkpt>
      <trkpt lat="45.1805" lon="5.88384">
        <ele>761.99</ele>
        <time>2019-03-25T14:05:39.000Z</time>
      </trkpt>
      <trkpt lat="45.18062" lon="5.88342">
        <ele>758.5</ele>
        <time>2019-03-25T14:05:44.000Z</time>
      </trkpt>
      <trkpt lat="45.18079" lon="5.8829">
        <ele>759.14</ele>
        <time>2019-03-25T14:05:49.000Z</time>
      </trkpt>
      <trkpt lat="45.18101" lon="5.88243">
        <ele>757.72</ele>
        <time>2019-03-25T14:05:54.000Z</time>
      </trkpt>
      <trkpt lat="45.18127" lon="5.88201">
        <ele>753.88</ele>
        <time>2019-03-25T14:05:59.000Z</time>
      </trkpt>
      <trkpt lat="45.18154" lon="5.88163">
        <ele>750.35</ele>
        <time>2019-03-25T14:06:04.000Z</time>
      </trkpt>
      <trkpt lat="45.18175" lon="5.88134">
        <ele>751.68</ele>
        <time>2019-03-25T14:06:09.000Z</time>
      </trkpt>
      <trkpt lat="45.18193" lon="5.88107">
        <ele>751.71</ele>
        <time>2019-03-25T14:06:14.000Z</time>
      </trkpt>
      <trkpt lat="45.18214" lon="5.8808">
        <ele>746.38</ele>
        <time>2019-03-25T14:06:19.000Z</time>
      </trkpt>
      <trkpt lat="45.1823" lon="5.88052">
        <ele>746.09</ele>
        <time>2019-03-25T14:06:24.000Z</time>
      </trkpt>
      <trkpt lat="45.18244" lon="5.88026">
        <ele>746.7</ele>
        <time>2019-03-25T14:06:29.000Z</time>
      </trkpt>
      <trkpt lat="45.18247" lon="5.88009">
        <ele>747.69</ele>
        <time>2019-03-25T14:06:34.000Z</time>
      </trkpt>
      <trkpt lat="45.18256" lon="5.87975">
        <ele>747.46</ele>
        <time>2019-03-25T14:06:39.000Z</time>
      </trkpt>
      <trkpt lat="45.18261" lon="5.87921">
        <ele>750.31</ele>
        <time>2019-03-25T14:06:44.000Z</time>
      </trkpt>
      <trkpt lat="45.1827" lon="5.87856">
        <ele>751.03</ele>
        <time>2019-03-25T14:06:49.000Z</time>
      </trkpt>
      <trkpt lat="45.18285" lon="5.87776">
        <ele>745.36</ele>
        <time>2019-03-25T14:06:54.000Z</time>
      </trkpt>
      <trkpt lat="45.183" lon="5.87711">
        <ele>735.84</ele>
        <time>2019-03-25T14:06:59.000Z</time>
      </trkpt>
      <trkpt lat="45.18302" lon="5.87683">
        <ele>732.95</ele>
        <time>2019-03-25T14:07:04.000Z</time>
      </trkpt>
      <trkpt lat="45.18304" lon="5.87653">
        <ele>724.81</ele>
        <time>2019-03-25T14:07:09.000Z</time>
      </trkpt>
      <trkpt lat="45.18313" lon="5.87618">
        <ele>720.04</ele>
        <time>2019-03-25T14:07:14.000Z</time>
      </trkpt>
      <trkpt lat="45.18324" lon="5.87587">
        <ele>718.57</ele>
        <time>2019-03-25T14:07:19.000Z</time>
      </trkpt>
      <trkpt lat="45.18335" lon="5.8755">
        <ele>715.71</ele>
        <time>2019-03-25T14:07:24.000Z</time>
      </trkpt>
      <trkpt lat="45.18345" lon="5.87514">
        <ele>710.8</ele>
        <time>2019-03-25T14:07:29.000Z</time>
      </trkpt>
      <trkpt lat="45.18357" lon="5.87476">
        <ele>703.64</ele>
        <time>2019-03-25T14:07:34.000Z</time>
      </trkpt>
      <trkpt lat="45.18368" lon="5.87451">
        <ele>699.57</ele>
        <time>2019-03-25T14:07:39.000Z</time>
      </trkpt>
      <trkpt lat="45.18379" lon="5.87423">
        <ele>696.98</ele>
        <time>2019-03-25T14:07:44.000Z</time>
      </trkpt>
      <trkpt lat="45.18388" lon="5.87397">
        <ele>694.32</ele>
        <time>2019-03-25T14:07:49.000Z</time>
      </trkpt>
      <trkpt lat="45.18383" lon="5.87382">
        <ele>692.11</ele>
        <time>2019-03-25T14:07:54.000Z</time>
      </trkpt>
      <trkpt lat="45.18384" lon="5.87383">
        <ele>691.84</ele>
        <time>2019-03-25T14:08:12.000Z</time>
      </trkpt>
    </trkseg>
  </trk>
</gpx>